PWSweather.com
Personal Weather Stations
Station Observations
VAJNORY
Vajnory, BratislavaSK 83107

VajnoryBratislavaSK 83107

Lat: 48.208, Lon: 17.202

Elevation: 434

Station Type: MeteoPi by eMeteo.sk

https://emeteo.sk/sk/meteostanica/vajnory

Latest ConditionsUpdated 9:41:01 PM GMT+01:01 Monday, Sep 23, 2019
Currently Today's Max Today's Min Today's Average
Temperature 55.0°F12.8°C 68.2°F20.1°C 52.9°F11.6°C 58.8°F14.9°C
Dew Point 54.0°F12.2°C 54.0°F12.2°C 42.0°F5.6°C 47.3°F8.5°C
Winds 19.9 mph 32.0 kmh 25.3 mph -40.7 kmh - - 21.5 mph 34.6 kmh
Wind Gusts 19.9 mph32.0 kmh 29.1 mph46.8 kmh - -
Humidity 97% 98% 50% 67%
Pressure 30.03 in1016.9 mb 30.04 in1017.3 mb 29.94 in1013.9 mb -
Hour Temp Dew Point Humidity Winds Wind Gusts Pressure Precip Precip Rate Daily Precip Total
09:41 PM 55.0°F12.8°C 54.0°F12.2°C 97% 19.9 mph 32.0 kmh 19.9 mph32.0 kmh 30.03 in1016.9 mb 0.00 in0.0 mm 0.00 in0.0 mm 0.02 in0.5 mm
09:40 PM 55.0°F12.8°C 54.0°F12.2°C 96% 19.9 mph 32.0 kmh 19.9 mph32.0 kmh 30.03 in1016.9 mb 0.00 in0.0 mm 0.00 in0.0 mm 0.02 in0.5 mm
09:39 PM 55.0°F12.8°C 54.0°F12.2°C 96% 19.9 mph 32.0 kmh 19.9 mph32.0 kmh 30.03 in1016.9 mb 0.00 in0.0 mm 0.00 in0.0 mm 0.02 in0.5 mm
09:38 PM 55.2°F12.9°C 54.0°F12.2°C 96% 20.0 mph 32.2 kmh 20.1 mph32.3 kmh 30.02 in1016.6 mb 0.00 in0.0 mm 0.00 in0.0 mm 0.02 in0.5 mm
09:37 PM 55.2°F12.9°C 54.0°F12.2°C 96% 20.2 mph NNE32.5 kmh NNE 20.3 mph32.7 kmh 30.02 in1016.6 mb 0.00 in0.0 mm 0.00 in0.0 mm 0.02 in0.5 mm
09:36 PM 55.2°F12.9°C 54.0°F12.2°C 95% 20.4 mph NE32.8 kmh NE 20.7 mph33.3 kmh 30.03 in1016.9 mb 0.00 in0.0 mm 0.00 in0.0 mm 0.02 in0.5 mm
09:35 PM 55.2°F12.9°C 54.0°F12.2°C 95% 19.9 mph NE32.0 kmh NE 20.0 mph32.2 kmh 30.03 in1016.9 mb 0.00 in0.0 mm 0.00 in0.0 mm 0.02 in0.5 mm
09:34 PM 55.2°F12.9°C 54.0°F12.2°C 95% 20.0 mph NE32.2 kmh NE 20.0 mph32.2 kmh 30.02 in1016.6 mb 0.00 in0.0 mm 0.00 in0.0 mm 0.02 in0.5 mm
09:33 PM 55.4°F13.0°C 54.0°F12.2°C 95% 20.7 mph NE33.3 kmh NE 21.1 mph34.0 kmh 30.03 in1016.9 mb 0.00 in0.0 mm 0.00 in0.0 mm 0.02 in0.5 mm
09:32 PM 55.4°F13.0°C 54.0°F12.2°C 95% 20.1 mph N32.3 kmh N 20.2 mph32.5 kmh 30.03 in1016.9 mb 0.00 in0.0 mm 0.00 in0.0 mm 0.02 in0.5 mm
09:31 PM 55.4°F13.0°C 54.0°F12.2°C 94% 19.9 mph 32.0 kmh 19.9 mph32.0 kmh 30.03 in1016.9 mb 0.00 in0.0 mm 0.00 in0.0 mm 0.02 in0.5 mm
09:30 PM 55.4°F13.0°C 54.0°F12.2°C 94% 20.5 mph 33.0 kmh 20.7 mph33.3 kmh 30.03 in1016.9 mb 0.00 in0.0 mm 0.00 in0.0 mm 0.02 in0.5 mm
09:29 PM 55.4°F13.0°C 54.0°F12.2°C 95% 20.4 mph 32.8 kmh 20.7 mph33.3 kmh 30.03 in1016.9 mb 0.00 in0.0 mm 0.00 in0.0 mm 0.02 in0.5 mm
09:28 PM 55.4°F13.0°C 54.0°F12.2°C 94% 20.5 mph 33.0 kmh 20.8 mph33.5 kmh 30.03 in1016.9 mb 0.00 in0.0 mm 0.00 in0.0 mm 0.02 in0.5 mm
09:27 PM 55.4°F13.0°C 54.0°F12.2°C 94% 20.4 mph 32.8 kmh 20.7 mph33.3 kmh 30.03 in1016.9 mb 0.00 in0.0 mm 0.00 in0.0 mm 0.02 in0.5 mm
09:26 PM 55.4°F13.0°C 54.0°F12.2°C 94% 20.5 mph 33.0 kmh 20.8 mph33.5 kmh 30.03 in1016.9 mb 0.00 in0.0 mm 0.00 in0.0 mm 0.02 in0.5 mm
09:25 PM 55.4°F13.0°C 54.0°F12.2°C 95% 19.9 mph 32.0 kmh 19.9 mph32.0 kmh 30.03 in1016.9 mb 0.00 in0.0 mm 0.00 in0.0 mm 0.02 in0.5 mm
09:24 PM 55.4°F13.0°C 54.0°F12.2°C 95% 19.9 mph 32.0 kmh 19.9 mph32.0 kmh 30.02 in1016.6 mb 0.00 in0.0 mm 0.00 in0.0 mm 0.02 in0.5 mm
09:23 PM 55.4°F13.0°C 54.0°F12.2°C 94% 19.9 mph 32.0 kmh 19.9 mph32.0 kmh 30.03 in1016.9 mb 0.00 in0.0 mm 0.00 in0.0 mm 0.02 in0.5 mm
09:22 PM 55.6°F13.1°C 54.0°F12.2°C 94% 19.9 mph 32.0 kmh 19.9 mph32.0 kmh 30.03 in1016.9 mb 0.00 in0.0 mm 0.00 in0.0 mm 0.02 in0.5 mm
09:21 PM 55.6°F13.1°C 54.0°F12.2°C 94% 20.0 mph 32.2 kmh 20.0 mph32.2 kmh 30.03 in1016.9 mb 0.00 in0.0 mm 0.00 in0.0 mm 0.02 in0.5 mm
09:20 PM 55.6°F13.1°C 54.0°F12.2°C 93% 19.9 mph ENE32.0 kmh ENE 20.0 mph32.2 kmh 30.03 in1016.9 mb 0.00 in0.0 mm 0.00 in0.0 mm 0.02 in0.5 mm
09:19 PM 55.6°F13.1°C 54.0°F12.2°C 93% 19.9 mph NE32.0 kmh NE 19.9 mph32.0 kmh 30.03 in1016.9 mb 0.00 in0.0 mm 0.00 in0.0 mm 0.02 in0.5 mm
09:18 PM 55.4°F13.0°C 53.0°F11.7°C 93% 20.2 mph NE32.5 kmh NE 20.4 mph32.8 kmh 30.03 in1016.9 mb 0.00 in0.0 mm 0.00 in0.0 mm 0.02 in0.5 mm
09:17 PM 55.6°F13.1°C 53.0°F11.7°C 92% 20.5 mph NE33.0 kmh NE 20.8 mph33.5 kmh 30.03 in1016.9 mb 0.00 in0.0 mm 0.00 in0.0 mm 0.02 in0.5 mm
09:16 PM 55.2°F12.9°C 53.0°F11.7°C 92% 20.2 mph NE32.5 kmh NE 20.3 mph32.7 kmh 30.03 in1016.9 mb 0.00 in0.0 mm 0.00 in0.0 mm 0.02 in0.5 mm
09:15 PM 55.2°F12.9°C 53.0°F11.7°C 94% 20.1 mph NE32.3 kmh NE 20.2 mph32.5 kmh 30.03 in1016.9 mb 0.00 in0.0 mm 0.00 in0.0 mm 0.02 in0.5 mm
09:14 PM 55.2°F12.9°C 53.0°F11.7°C 94% 20.3 mph WSW32.7 kmh WSW 20.5 mph33.0 kmh 30.03 in1016.9 mb 0.00 in0.0 mm 0.00 in0.0 mm 0.02 in0.5 mm
09:13 PM 55.2°F12.9°C 54.0°F12.2°C 94% 19.9 mph NW32.0 kmh NW 19.9 mph32.0 kmh 30.03 in1016.9 mb 0.00 in0.0 mm 0.00 in0.0 mm 0.02 in0.5 mm
09:12 PM 55.2°F12.9°C 53.0°F11.7°C 94% 19.9 mph NW32.0 kmh NW 19.9 mph32.0 kmh 30.03 in1016.9 mb 0.00 in0.0 mm 0.00 in0.0 mm 0.02 in0.5 mm
09:11 PM 55.2°F12.9°C 53.0°F11.7°C 94% 19.9 mph NW32.0 kmh NW 19.9 mph32.0 kmh 30.03 in1016.9 mb 0.00 in0.0 mm 0.00 in0.0 mm 0.02 in0.5 mm
09:10 PM 55.2°F12.9°C 53.0°F11.7°C 94% 19.9 mph NW32.0 kmh NW 19.9 mph32.0 kmh 30.03 in1016.9 mb 0.00 in0.0 mm 0.00 in0.0 mm 0.02 in0.5 mm
09:09 PM 55.2°F12.9°C 53.0°F11.7°C 94% 19.9 mph NW32.0 kmh NW 19.9 mph32.0 kmh 30.03 in1016.9 mb 0.00 in0.0 mm 0.00 in0.0 mm 0.02 in0.5 mm
09:08 PM 55.2°F12.9°C 53.0°F11.7°C 94% 19.9 mph NW32.0 kmh NW 19.9 mph32.0 kmh 30.03 in1016.9 mb 0.00 in0.0 mm 0.00 in0.0 mm 0.02 in0.5 mm
09:07 PM 55.2°F12.9°C 53.0°F11.7°C 94% 19.9 mph NW32.0 kmh NW 19.9 mph32.0 kmh 30.03 in1016.9 mb 0.00 in0.0 mm 0.00 in0.0 mm 0.02 in0.5 mm
09:06 PM 55.0°F12.8°C 53.0°F11.7°C 94% 19.9 mph NW32.0 kmh NW 19.9 mph32.0 kmh 30.03 in1016.9 mb 0.00 in0.0 mm 0.00 in0.0 mm 0.02 in0.5 mm
09:05 PM 55.0°F12.8°C 53.0°F11.7°C 95% 19.9 mph NW32.0 kmh NW 19.9 mph32.0 kmh 30.03 in1016.9 mb 0.00 in0.0 mm 0.00 in0.0 mm 0.02 in0.5 mm
09:04 PM 55.0°F12.8°C 54.0°F12.2°C 95% 19.9 mph SW32.0 kmh SW 19.9 mph32.0 kmh 30.03 in1016.9 mb 0.00 in0.0 mm 0.00 in0.0 mm 0.02 in0.5 mm
09:03 PM 54.9°F12.7°C 53.0°F11.7°C 95% 19.9 mph SW32.0 kmh SW 19.9 mph32.0 kmh 30.03 in1016.9 mb 0.00 in0.0 mm 0.00 in0.0 mm 0.02 in0.5 mm
09:02 PM 54.9°F12.7°C 53.0°F11.7°C 95% 19.9 mph SW32.0 kmh SW 19.9 mph32.0 kmh 30.03 in1016.9 mb 0.00 in0.0 mm 0.00 in0.0 mm 0.02 in0.5 mm
09:01 PM 54.9°F12.7°C 54.0°F12.2°C 96% 19.9 mph SW32.0 kmh SW 19.9 mph32.0 kmh 30.03 in1016.9 mb 0.00 in0.0 mm 0.00 in0.0 mm 0.02 in0.5 mm
09:00 PM 54.7°F12.6°C 53.0°F11.7°C 96% 19.9 mph SW32.0 kmh SW 19.9 mph32.0 kmh 30.03 in1016.9 mb 0.00 in0.0 mm 0.00 in0.0 mm 0.02 in0.5 mm
08:59 PM 54.7°F12.6°C 53.0°F11.7°C 95% 19.9 mph SW32.0 kmh SW 19.9 mph32.0 kmh 30.03 in1016.9 mb 0.00 in0.0 mm 0.00 in0.0 mm 0.02 in0.5 mm
08:58 PM 54.7°F12.6°C 53.0°F11.7°C 96% 20.1 mph NW32.3 kmh NW 20.2 mph32.5 kmh 30.03 in1016.9 mb 0.00 in0.0 mm 0.00 in0.0 mm 0.02 in0.5 mm
08:57 PM 54.7°F12.6°C 53.0°F11.7°C 96% 20.1 mph NW32.3 kmh NW 20.1 mph32.3 kmh 30.03 in1016.9 mb 0.00 in0.0 mm 0.00 in0.0 mm 0.02 in0.5 mm
08:55 PM 54.7°F12.6°C 53.0°F11.7°C 95% 20.9 mph NW33.6 kmh NW 21.5 mph34.6 kmh 30.03 in1016.9 mb 0.00 in0.0 mm 0.00 in0.0 mm 0.02 in0.5 mm
08:54 PM 54.7°F12.6°C 53.0°F11.7°C 95% 20.8 mph NW33.5 kmh NW 21.3 mph34.3 kmh 30.03 in1016.9 mb 0.00 in0.0 mm 0.00 in0.0 mm 0.02 in0.5 mm
08:53 PM 54.9°F12.7°C 53.0°F11.7°C 95% 20.8 mph NW33.5 kmh NW 21.3 mph34.3 kmh 30.03 in1016.9 mb 0.00 in0.0 mm 0.00 in0.0 mm 0.02 in0.5 mm
08:52 PM 54.9°F12.7°C 53.0°F11.7°C 95% 20.6 mph NW33.2 kmh NW 20.9 mph33.6 kmh 30.03 in1016.9 mb 0.00 in0.0 mm 0.00 in0.0 mm 0.02 in0.5 mm
08:51 PM 54.7°F12.6°C 53.0°F11.7°C 96% 20.2 mph NW32.5 kmh NW 20.3 mph32.7 kmh 30.03 in1016.9 mb 0.00 in0.0 mm 0.00 in0.0 mm 0.02 in0.5 mm
08:50 PM 54.9°F12.7°C 54.0°F12.2°C 96% 19.9 mph NE32.0 kmh NE 19.9 mph32.0 kmh 30.03 in1016.9 mb 0.00 in0.0 mm 0.00 in0.0 mm 0.02 in0.5 mm
08:49 PM 54.9°F12.7°C 53.0°F11.7°C 95% 19.9 mph NE32.0 kmh NE 19.9 mph32.0 kmh 30.03 in1016.9 mb 0.00 in0.0 mm 0.00 in0.0 mm 0.02 in0.5 mm
08:48 PM 54.9°F12.7°C 53.0°F11.7°C 94% 20.2 mph NE32.5 kmh NE 20.3 mph32.7 kmh 30.03 in1016.9 mb 0.00 in0.0 mm 0.00 in0.0 mm 0.02 in0.5 mm
08:47 PM 54.9°F12.7°C 53.0°F11.7°C 94% 20.2 mph NE32.5 kmh NE 20.3 mph32.7 kmh 30.03 in1016.9 mb 0.00 in0.0 mm 0.00 in0.0 mm 0.02 in0.5 mm
08:46 PM 54.9°F12.7°C 53.0°F11.7°C 94% 20.5 mph NE33.0 kmh NE 20.9 mph33.6 kmh 30.03 in1016.9 mb 0.00 in0.0 mm 0.00 in0.0 mm 0.02 in0.5 mm
08:45 PM 54.7°F12.6°C 53.0°F11.7°C 94% 20.4 mph NE32.8 kmh NE 20.7 mph33.3 kmh 30.03 in1016.9 mb 0.00 in0.0 mm 0.00 in0.0 mm 0.02 in0.5 mm
08:44 PM 54.9°F12.7°C 53.0°F11.7°C 94% 20.8 mph NE33.5 kmh NE 21.2 mph34.1 kmh 30.03 in1016.9 mb 0.00 in0.0 mm 0.00 in0.0 mm 0.02 in0.5 mm
08:43 PM 54.5°F12.5°C 53.0°F11.7°C 94% 20.7 mph NE33.3 kmh NE 21.2 mph34.1 kmh 30.03 in1016.9 mb 0.00 in0.0 mm 0.00 in0.0 mm 0.02 in0.5 mm
08:42 PM 54.5°F12.5°C 53.0°F11.7°C 93% 20.3 mph ENE32.7 kmh ENE 20.5 mph33.0 kmh 30.03 in1016.9 mb 0.00 in0.0 mm 0.00 in0.0 mm 0.02 in0.5 mm
08:41 PM 54.3°F12.4°C 53.0°F11.7°C 94% 19.9 mph W32.0 kmh W 19.9 mph32.0 kmh 30.03 in1016.9 mb 0.00 in0.0 mm 0.00 in0.0 mm 0.02 in0.5 mm
08:40 PM 54.1°F12.3°C 53.0°F11.7°C 95% 19.9 mph W32.0 kmh W 19.9 mph32.0 kmh 30.03 in1016.9 mb 0.00 in0.0 mm 0.00 in0.0 mm 0.02 in0.5 mm
08:39 PM 54.1°F12.3°C 53.0°F11.7°C 97% 19.9 mph W32.0 kmh W 19.9 mph32.0 kmh 30.04 in1017.3 mb 0.00 in0.0 mm 0.00 in0.0 mm 0.02 in0.5 mm
08:38 PM 54.1°F12.3°C 53.0°F11.7°C 96% 19.9 mph W32.0 kmh W 19.9 mph32.0 kmh 30.03 in1016.9 mb 0.00 in0.0 mm 0.00 in0.0 mm 0.02 in0.5 mm
08:37 PM 54.1°F12.3°C 53.0°F11.7°C 96% 19.9 mph W32.0 kmh W 19.9 mph32.0 kmh 30.03 in1016.9 mb 0.00 in0.0 mm 0.00 in0.0 mm 0.02 in0.5 mm
08:36 PM 54.1°F12.3°C 53.0°F11.7°C 96% 19.9 mph W32.0 kmh W 19.9 mph32.0 kmh 30.03 in1016.9 mb 0.00 in0.0 mm 0.00 in0.0 mm 0.02 in0.5 mm
08:35 PM 54.1°F12.3°C 53.0°F11.7°C 96% 19.9 mph W32.0 kmh W 19.9 mph32.0 kmh 30.03 in1016.9 mb 0.00 in0.0 mm 0.00 in0.0 mm 0.02 in0.5 mm
08:34 PM 54.1°F12.3°C 53.0°F11.7°C 96% 19.9 mph W32.0 kmh W 19.9 mph32.0 kmh 30.03 in1016.9 mb 0.00 in0.0 mm 0.00 in0.0 mm 0.02 in0.5 mm
08:33 PM 54.0°F12.2°C 53.0°F11.7°C 96% 19.9 mph W32.0 kmh W 19.9 mph32.0 kmh 30.03 in1016.9 mb 0.00 in0.0 mm 0.00 in0.0 mm 0.02 in0.5 mm
08:32 PM 54.0°F12.2°C 53.0°F11.7°C 96% 19.9 mph W32.0 kmh W 19.9 mph32.0 kmh 30.03 in1016.9 mb 0.00 in0.0 mm 0.00 in0.0 mm 0.02 in0.5 mm
08:31 PM 54.0°F12.2°C 53.0°F11.7°C 96% 19.9 mph W32.0 kmh W 19.9 mph32.0 kmh 30.03 in1016.9 mb 0.00 in0.0 mm 0.00 in0.0 mm 0.02 in0.5 mm
08:30 PM 53.8°F12.1°C 53.0°F11.7°C 97% 19.9 mph W32.0 kmh W 19.9 mph32.0 kmh 30.03 in1016.9 mb 0.00 in0.0 mm 0.00 in0.0 mm 0.02 in0.5 mm
08:29 PM 53.6°F12.0°C 53.0°F11.7°C 97% 19.9 mph W32.0 kmh W 19.9 mph32.0 kmh 30.03 in1016.9 mb 0.00 in0.0 mm 0.00 in0.0 mm 0.02 in0.5 mm
08:28 PM 53.6°F12.0°C 53.0°F11.7°C 97% 19.9 mph W32.0 kmh W 19.9 mph32.0 kmh 30.03 in1016.9 mb 0.00 in0.0 mm 0.00 in0.0 mm 0.02 in0.5 mm
08:27 PM 53.8°F12.1°C 53.0°F11.7°C 97% 19.9 mph W32.0 kmh W 19.9 mph32.0 kmh 30.03 in1016.9 mb 0.00 in0.0 mm 0.00 in0.0 mm 0.02 in0.5 mm
08:26 PM 53.6°F12.0°C 53.0°F11.7°C 97% 19.9 mph W32.0 kmh W 19.9 mph32.0 kmh 30.03 in1016.9 mb 0.00 in0.0 mm 0.00 in0.0 mm 0.02 in0.5 mm
08:25 PM 53.6°F12.0°C 53.0°F11.7°C 98% 19.9 mph W32.0 kmh W 19.9 mph32.0 kmh 30.03 in1016.9 mb 0.00 in0.0 mm 0.00 in0.0 mm 0.02 in0.5 mm
08:24 PM 53.4°F11.9°C 53.0°F11.7°C 97% 19.9 mph W32.0 kmh W 19.9 mph32.0 kmh 30.03 in1016.9 mb 0.00 in0.0 mm 0.00 in0.0 mm 0.02 in0.5 mm
08:23 PM 53.4°F11.9°C 52.0°F11.1°C 96% 19.9 mph W32.0 kmh W 20.0 mph32.2 kmh 30.03 in1016.9 mb 0.00 in0.0 mm 0.00 in0.0 mm 0.02 in0.5 mm
08:22 PM 53.4°F11.9°C 52.0°F11.1°C 96% 20.3 mph NW32.7 kmh NW 20.5 mph33.0 kmh 30.03 in1016.9 mb 0.00 in0.0 mm 0.00 in0.0 mm 0.02 in0.5 mm
08:21 PM 53.2°F11.8°C 52.0°F11.1°C 96% 20.2 mph NW32.5 kmh NW 20.4 mph32.8 kmh 30.03 in1016.9 mb 0.00 in0.0 mm 0.00 in0.0 mm 0.02 in0.5 mm
08:20 PM 53.2°F11.8°C 52.0°F11.1°C 97% 20.0 mph NW32.2 kmh NW 20.1 mph32.3 kmh 30.03 in1016.9 mb 0.00 in0.0 mm 0.00 in0.0 mm 0.02 in0.5 mm
08:19 PM 53.2°F11.8°C 53.0°F11.7°C 97% 20.1 mph NW32.3 kmh NW 20.2 mph32.5 kmh 30.03 in1016.9 mb 0.00 in0.0 mm 0.00 in0.0 mm 0.02 in0.5 mm
08:18 PM 53.1°F11.7°C 52.0°F11.1°C 98% 20.6 mph NW33.2 kmh NW 20.9 mph33.6 kmh 30.03 in1016.9 mb 0.00 in0.0 mm 0.00 in0.0 mm 0.02 in0.5 mm
08:17 PM 53.1°F11.7°C 52.0°F11.1°C 97% 20.9 mph NW33.6 kmh NW 21.4 mph34.4 kmh 30.03 in1016.9 mb 0.00 in0.0 mm 0.00 in0.0 mm 0.02 in0.5 mm
08:16 PM 53.1°F11.7°C 52.0°F11.1°C 97% 20.6 mph WNW33.2 kmh WNW 21.0 mph33.8 kmh 30.03 in1016.9 mb 0.00 in0.0 mm 0.00 in0.0 mm 0.02 in0.5 mm
08:15 PM 53.1°F11.7°C 52.0°F11.1°C 97% 20.2 mph W32.5 kmh W 20.4 mph32.8 kmh 30.03 in1016.9 mb 0.00 in0.0 mm 0.00 in0.0 mm 0.02 in0.5 mm
08:14 PM 53.1°F11.7°C 52.0°F11.1°C 96% 19.9 mph NW32.0 kmh NW 19.9 mph32.0 kmh 30.03 in1016.9 mb 0.00 in0.0 mm 0.00 in0.0 mm 0.02 in0.5 mm
08:13 PM 53.1°F11.7°C 52.0°F11.1°C 97% 19.9 mph NW32.0 kmh NW 19.9 mph32.0 kmh 30.03 in1016.9 mb 0.00 in0.0 mm 0.00 in0.0 mm 0.02 in0.5 mm
08:12 PM 52.9°F11.6°C 52.0°F11.1°C 97% 19.9 mph NW32.0 kmh NW 19.9 mph32.0 kmh 30.03 in1016.9 mb 0.00 in0.0 mm 0.00 in0.0 mm 0.02 in0.5 mm
08:11 PM 52.9°F11.6°C 52.0°F11.1°C 96% 19.9 mph NW32.0 kmh NW 19.9 mph32.0 kmh 30.03 in1016.9 mb 0.00 in0.0 mm 0.00 in0.0 mm 0.02 in0.5 mm
08:10 PM 53.1°F11.7°C 52.0°F11.1°C 96% 20.1 mph NW32.3 kmh NW 20.1 mph32.3 kmh 30.03 in1016.9 mb 0.00 in0.0 mm 0.00 in0.0 mm 0.02 in0.5 mm
08:09 PM 53.1°F11.7°C 52.0°F11.1°C 96% 20.3 mph NW32.7 kmh NW 20.6 mph33.2 kmh 30.03 in1016.9 mb 0.00 in0.0 mm 0.00 in0.0 mm 0.02 in0.5 mm
08:08 PM 52.9°F11.6°C 52.0°F11.1°C 96% 19.9 mph NW32.0 kmh NW 19.9 mph32.0 kmh 30.03 in1016.9 mb 0.00 in0.0 mm 0.00 in0.0 mm 0.02 in0.5 mm
08:07 PM 53.1°F11.7°C 52.0°F11.1°C 96% 19.9 mph NW32.0 kmh NW 19.9 mph32.0 kmh 30.03 in1016.9 mb 0.00 in0.0 mm 0.00 in0.0 mm 0.02 in0.5 mm
08:06 PM 52.9°F11.6°C 52.0°F11.1°C 97% 19.9 mph NW32.0 kmh NW 19.9 mph32.0 kmh 30.03 in1016.9 mb 0.00 in0.0 mm 0.00 in0.0 mm 0.02 in0.5 mm
08:05 PM 53.1°F11.7°C 52.0°F11.1°C 97% 19.9 mph NW32.0 kmh NW 19.9 mph32.0 kmh 30.03 in1016.9 mb 0.00 in0.0 mm 0.00 in0.0 mm 0.02 in0.5 mm
08:04 PM 53.1°F11.7°C 52.0°F11.1°C 96% 19.9 mph NW32.0 kmh NW 19.9 mph32.0 kmh 30.03 in1016.9 mb 0.00 in0.0 mm 0.00 in0.0 mm 0.02 in0.5 mm
08:03 PM 53.1°F11.7°C 52.0°F11.1°C 96% 19.9 mph NW32.0 kmh NW 19.9 mph32.0 kmh 30.03 in1016.9 mb 0.00 in0.0 mm 0.00 in0.0 mm 0.02 in0.5 mm
08:02 PM 53.1°F11.7°C 52.0°F11.1°C 96% 20.0 mph NW32.2 kmh NW 20.1 mph32.3 kmh 30.03 in1016.9 mb 0.00 in0.0 mm 0.00 in0.0 mm 0.02 in0.5 mm
08:00 PM 53.1°F11.7°C 52.0°F11.1°C 97% 20.3 mph WSW32.7 kmh WSW 20.5 mph33.0 kmh 30.03 in1016.9 mb 0.00 in0.0 mm 0.00 in0.0 mm 0.02 in0.5 mm
07:59 PM 53.1°F11.7°C 52.0°F11.1°C 97% 19.9 mph WSW32.0 kmh WSW 19.9 mph32.0 kmh 30.03 in1016.9 mb 0.00 in0.0 mm 0.00 in0.0 mm 0.02 in0.5 mm
07:58 PM 53.1°F11.7°C 52.0°F11.1°C 96% 19.9 mph W32.0 kmh W 19.9 mph32.0 kmh 30.03 in1016.9 mb 0.00 in0.0 mm 0.00 in0.0 mm 0.02 in0.5 mm
07:57 PM 53.1°F11.7°C 52.0°F11.1°C 96% 20.1 mph E32.3 kmh E 20.1 mph32.3 kmh 30.03 in1016.9 mb 0.00 in0.0 mm 0.00 in0.0 mm 0.02 in0.5 mm
07:56 PM 53.1°F11.7°C 52.0°F11.1°C 96% 19.9 mph NE32.0 kmh NE 19.9 mph32.0 kmh 30.03 in1016.9 mb 0.00 in0.0 mm 0.00 in0.0 mm 0.02 in0.5 mm
07:55 PM 53.2°F11.8°C 52.0°F11.1°C 96% 19.9 mph NE32.0 kmh NE 19.9 mph32.0 kmh 30.03 in1016.9 mb 0.00 in0.0 mm 0.00 in0.0 mm 0.02 in0.5 mm
07:54 PM 53.2°F11.8°C 52.0°F11.1°C 95% 19.9 mph NE32.0 kmh NE 19.9 mph32.0 kmh 30.03 in1016.9 mb 0.00 in0.0 mm 0.00 in0.0 mm 0.02 in0.5 mm
07:53 PM 53.2°F11.8°C 52.0°F11.1°C 95% 20.2 mph NE32.5 kmh NE 20.3 mph32.7 kmh 30.03 in1016.9 mb 0.00 in0.0 mm 0.00 in0.0 mm 0.02 in0.5 mm
07:52 PM 53.2°F11.8°C 52.0°F11.1°C 95% 20.2 mph NNE32.5 kmh NNE 20.4 mph32.8 kmh 30.03 in1016.9 mb 0.00 in0.0 mm 0.00 in0.0 mm 0.02 in0.5 mm
07:51 PM 53.2°F11.8°C 52.0°F11.1°C 95% 20.6 mph NE33.2 kmh NE 20.9 mph33.6 kmh 30.03 in1016.9 mb 0.00 in0.0 mm 0.00 in0.0 mm 0.02 in0.5 mm
07:50 PM 53.4°F11.9°C 52.0°F11.1°C 95% 19.9 mph NNE32.0 kmh NNE 20.0 mph32.2 kmh 30.03 in1016.9 mb 0.00 in0.0 mm 0.00 in0.0 mm 0.02 in0.5 mm
07:49 PM 53.4°F11.9°C 52.0°F11.1°C 95% 20.7 mph 33.3 kmh 21.1 mph34.0 kmh 30.03 in1016.9 mb 0.00 in0.0 mm 0.00 in0.0 mm 0.02 in0.5 mm
07:48 PM 53.4°F11.9°C 52.0°F11.1°C 94% 20.6 mph NNE33.2 kmh NNE 21.0 mph33.8 kmh 30.02 in1016.6 mb 0.00 in0.0 mm 0.00 in0.0 mm 0.02 in0.5 mm
07:47 PM 53.6°F12.0°C 52.0°F11.1°C 94% 20.0 mph NE32.2 kmh NE 20.0 mph32.2 kmh 30.02 in1016.6 mb 0.00 in0.0 mm 0.00 in0.0 mm 0.02 in0.5 mm
07:46 PM 53.6°F12.0°C 52.0°F11.1°C 94% 20.6 mph NE33.2 kmh NE 21.0 mph33.8 kmh 30.02 in1016.6 mb 0.00 in0.0 mm 0.00 in0.0 mm 0.02 in0.5 mm
07:45 PM 53.6°F12.0°C 52.0°F11.1°C 94% 20.6 mph NE33.2 kmh NE 21.0 mph33.8 kmh 30.02 in1016.6 mb 0.00 in0.0 mm 0.00 in0.0 mm 0.02 in0.5 mm
07:44 PM 53.8°F12.1°C 52.0°F11.1°C 94% 20.8 mph NNE33.5 kmh NNE 21.2 mph34.1 kmh 30.02 in1016.6 mb 0.00 in0.0 mm 0.00 in0.0 mm 0.02 in0.5 mm
07:43 PM 53.8°F12.1°C 52.0°F11.1°C 94% 20.8 mph NE33.5 kmh NE 21.4 mph34.4 kmh 30.02 in1016.6 mb 0.00 in0.0 mm 0.00 in0.0 mm 0.02 in0.5 mm
07:42 PM 53.8°F12.1°C 52.0°F11.1°C 94% 20.9 mph 33.6 kmh 21.4 mph34.4 kmh 30.02 in1016.6 mb 0.00 in0.0 mm 0.00 in0.0 mm 0.02 in0.5 mm
07:41 PM 53.8°F12.1°C 52.0°F11.1°C 94% 20.9 mph NNE33.6 kmh NNE 21.5 mph34.6 kmh 30.02 in1016.6 mb 0.00 in0.0 mm 0.00 in0.0 mm 0.02 in0.5 mm
07:40 PM 53.8°F12.1°C 52.0°F11.1°C 93% 20.8 mph NE33.5 kmh NE 21.2 mph34.1 kmh 30.02 in1016.6 mb 0.00 in0.0 mm 0.00 in0.0 mm 0.02 in0.5 mm
07:39 PM 53.8°F12.1°C 52.0°F11.1°C 94% 20.6 mph NE33.2 kmh NE 20.9 mph33.6 kmh 30.02 in1016.6 mb 0.00 in0.0 mm 0.00 in0.0 mm 0.02 in0.5 mm
07:38 PM 54.0°F12.2°C 52.0°F11.1°C 93% 20.5 mph NNE33.0 kmh NNE 20.9 mph33.6 kmh 30.02 in1016.6 mb 0.00 in0.0 mm 0.00 in0.0 mm 0.02 in0.5 mm
07:37 PM 54.0°F12.2°C 52.0°F11.1°C 93% 20.6 mph NE33.2 kmh NE 21.0 mph33.8 kmh 30.02 in1016.6 mb 0.00 in0.0 mm 0.00 in0.0 mm 0.02 in0.5 mm
07:36 PM 54.0°F12.2°C 52.0°F11.1°C 92% 20.8 mph NNE33.5 kmh NNE 21.3 mph34.3 kmh 30.02 in1016.6 mb 0.00 in0.0 mm 0.00 in0.0 mm 0.02 in0.5 mm
07:35 PM 53.8°F12.1°C 52.0°F11.1°C 92% 20.6 mph NE33.2 kmh NE 21.0 mph33.8 kmh 30.02 in1016.6 mb 0.00 in0.0 mm 0.00 in0.0 mm 0.02 in0.5 mm
07:34 PM 53.8°F12.1°C 52.0°F11.1°C 94% 20.6 mph NE33.2 kmh NE 21.0 mph33.8 kmh 30.02 in1016.6 mb 0.00 in0.0 mm 0.00 in0.0 mm 0.02 in0.5 mm
07:33 PM 53.8°F12.1°C 52.0°F11.1°C 94% 20.8 mph NE33.5 kmh NE 21.3 mph34.3 kmh 30.02 in1016.6 mb 0.00 in0.0 mm 0.00 in0.0 mm 0.02 in0.5 mm
07:32 PM 54.0°F12.2°C 52.0°F11.1°C 93% 20.7 mph NNE33.3 kmh NNE 21.1 mph34.0 kmh 30.02 in1016.6 mb 0.00 in0.0 mm 0.00 in0.0 mm 0.02 in0.5 mm
07:31 PM 54.0°F12.2°C 52.0°F11.1°C 93% 20.6 mph NNE33.2 kmh NNE 20.9 mph33.6 kmh 30.02 in1016.6 mb 0.00 in0.0 mm 0.00 in0.0 mm 0.02 in0.5 mm
07:30 PM 54.0°F12.2°C 52.0°F11.1°C 93% 20.4 mph N32.8 kmh N 20.6 mph33.2 kmh 30.02 in1016.6 mb 0.00 in0.0 mm 0.00 in0.0 mm 0.02 in0.5 mm
07:29 PM 54.0°F12.2°C 52.0°F11.1°C 92% 20.5 mph NE33.0 kmh NE 20.9 mph33.6 kmh 30.02 in1016.6 mb 0.00 in0.0 mm 0.00 in0.0 mm 0.02 in0.5 mm
07:28 PM 54.1°F12.3°C 52.0°F11.1°C 92% 20.5 mph NE33.0 kmh NE 20.9 mph33.6 kmh 30.02 in1016.6 mb 0.00 in0.0 mm 0.00 in0.0 mm 0.02 in0.5 mm
07:27 PM 54.1°F12.3°C 52.0°F11.1°C 92% 20.9 mph NNE33.6 kmh NNE 21.4 mph34.4 kmh 30.02 in1016.6 mb 0.00 in0.0 mm 0.00 in0.0 mm 0.02 in0.5 mm
07:26 PM 54.1°F12.3°C 52.0°F11.1°C 92% 20.6 mph NE33.2 kmh NE 20.9 mph33.6 kmh 30.02 in1016.6 mb 0.00 in0.0 mm 0.00 in0.0 mm 0.02 in0.5 mm
07:25 PM 54.3°F12.4°C 52.0°F11.1°C 92% 20.5 mph NE33.0 kmh NE 20.8 mph33.5 kmh 30.02 in1016.6 mb 0.00 in0.0 mm 0.00 in0.0 mm 0.02 in0.5 mm
07:24 PM 54.3°F12.4°C 52.0°F11.1°C 91% 19.9 mph NE32.0 kmh NE 19.9 mph32.0 kmh 30.02 in1016.6 mb 0.00 in0.0 mm 0.00 in0.0 mm 0.02 in0.5 mm
07:23 PM 54.3°F12.4°C 52.0°F11.1°C 91% 19.9 mph NNE32.0 kmh NNE 19.9 mph32.0 kmh 30.02 in1016.6 mb 0.00 in0.0 mm 0.00 in0.0 mm 0.02 in0.5 mm
07:22 PM 54.5°F12.5°C 52.0°F11.1°C 91% 20.1 mph 32.3 kmh 20.3 mph32.7 kmh 30.02 in1016.6 mb 0.00 in0.0 mm 0.00 in0.0 mm 0.02 in0.5 mm
07:21 PM 54.5°F12.5°C 52.0°F11.1°C 90% 19.9 mph 32.0 kmh 19.9 mph32.0 kmh 30.02 in1016.6 mb 0.00 in0.0 mm 0.00 in0.0 mm 0.02 in0.5 mm
07:20 PM 54.5°F12.5°C 52.0°F11.1°C 90% 20.0 mph 32.2 kmh 20.0 mph32.2 kmh 30.01 in1016.3 mb 0.00 in0.0 mm 0.00 in0.0 mm 0.02 in0.5 mm
07:19 PM 54.5°F12.5°C 51.0°F10.6°C 90% 20.0 mph 32.2 kmh 20.0 mph32.2 kmh 30.01 in1016.3 mb 0.00 in0.0 mm 0.00 in0.0 mm 0.02 in0.5 mm
07:18 PM 54.3°F12.4°C 51.0°F10.6°C 90% 20.0 mph S32.2 kmh S 20.1 mph32.3 kmh 30.02 in1016.6 mb 0.00 in0.0 mm 0.00 in0.0 mm 0.02 in0.5 mm
07:17 PM 54.5°F12.5°C 51.0°F10.6°C 89% 20.0 mph NE32.2 kmh NE 20.0 mph32.2 kmh 30.01 in1016.3 mb 0.00 in0.0 mm 0.00 in0.0 mm 0.02 in0.5 mm
07:16 PM 54.3°F12.4°C 51.0°F10.6°C 90% 19.9 mph NE32.0 kmh NE 19.9 mph32.0 kmh 30.01 in1016.3 mb 0.00 in0.0 mm 0.00 in0.0 mm 0.02 in0.5 mm
07:15 PM 54.0°F12.2°C 51.0°F10.6°C 90% 19.9 mph NE32.0 kmh NE 19.9 mph32.0 kmh 30.01 in1016.3 mb 0.00 in0.0 mm 0.00 in0.0 mm 0.02 in0.5 mm
07:14 PM 54.0°F12.2°C 51.0°F10.6°C 91% 19.9 mph NE32.0 kmh NE 19.9 mph32.0 kmh 30.01 in1016.3 mb 0.00 in0.0 mm 0.00 in0.0 mm 0.02 in0.5 mm
07:13 PM 53.8°F12.1°C 52.0°F11.1°C 92% 19.9 mph NE32.0 kmh NE 19.9 mph32.0 kmh 30.02 in1016.6 mb 0.00 in0.0 mm 0.00 in0.0 mm 0.02 in0.5 mm
07:12 PM 53.8°F12.1°C 52.0°F11.1°C 93% 19.9 mph NE32.0 kmh NE 19.9 mph32.0 kmh 30.02 in1016.6 mb 0.00 in0.0 mm 0.00 in0.0 mm 0.02 in0.5 mm
07:11 PM 54.0°F12.2°C 52.0°F11.1°C 92% 19.9 mph NE32.0 kmh NE 19.9 mph32.0 kmh 30.01 in1016.3 mb 0.00 in0.0 mm 0.00 in0.0 mm 0.02 in0.5 mm
07:10 PM 54.0°F12.2°C 52.0°F11.1°C 92% 19.9 mph NE32.0 kmh NE 19.9 mph32.0 kmh 30.01 in1016.3 mb 0.00 in0.0 mm 0.00 in0.0 mm 0.02 in0.5 mm
07:09 PM 54.0°F12.2°C 52.0°F11.1°C 92% 19.9 mph NE32.0 kmh NE 19.9 mph32.0 kmh 30.01 in1016.3 mb 0.00 in0.0 mm 0.00 in0.0 mm 0.02 in0.5 mm
07:08 PM 54.0°F12.2°C 52.0°F11.1°C 92% 19.9 mph NE32.0 kmh NE 19.9 mph32.0 kmh 30.01 in1016.3 mb 0.00 in0.0 mm 0.00 in0.0 mm 0.02 in0.5 mm
07:07 PM 54.0°F12.2°C 52.0°F11.1°C 92% 20.0 mph NE32.2 kmh NE 20.0 mph32.2 kmh 30.01 in1016.3 mb 0.00 in0.0 mm 0.00 in0.0 mm 0.02 in0.5 mm
07:06 PM 54.1°F12.3°C 52.0°F11.1°C 92% 19.9 mph NE32.0 kmh NE 19.9 mph32.0 kmh 30.01 in1016.3 mb 0.00 in0.0 mm 0.00 in0.0 mm 0.02 in0.5 mm
07:05 PM 54.1°F12.3°C 52.0°F11.1°C 91% 19.9 mph NE32.0 kmh NE 19.9 mph32.0 kmh 30.01 in1016.3 mb 0.00 in0.0 mm 0.00 in0.0 mm 0.02 in0.5 mm
07:04 PM 54.1°F12.3°C 52.0°F11.1°C 91% 20.4 mph NE32.8 kmh NE 20.6 mph33.2 kmh 30.01 in1016.3 mb 0.00 in0.0 mm 0.00 in0.0 mm 0.02 in0.5 mm
07:03 PM 54.1°F12.3°C 51.0°F10.6°C 91% 20.4 mph NNE32.8 kmh NNE 20.6 mph33.2 kmh 30.01 in1016.3 mb 0.00 in0.0 mm 0.00 in0.0 mm 0.02 in0.5 mm
07:02 PM 54.1°F12.3°C 51.0°F10.6°C 91% 20.7 mph N33.3 kmh N 21.2 mph34.1 kmh 30.01 in1016.3 mb 0.00 in0.0 mm 0.00 in0.0 mm 0.02 in0.5 mm
07:01 PM 54.1°F12.3°C 51.0°F10.6°C 91% 20.7 mph NNE33.3 kmh NNE 21.2 mph34.1 kmh 30.01 in1016.3 mb 0.00 in0.0 mm 0.00 in0.0 mm 0.02 in0.5 mm
07:00 PM 54.1°F12.3°C 52.0°F11.1°C 91% 20.9 mph NE33.6 kmh NE 21.5 mph34.6 kmh 30.01 in1016.3 mb 0.00 in0.0 mm 0.00 in0.0 mm 0.02 in0.5 mm
06:59 PM 54.0°F12.2°C 51.0°F10.6°C 91% 20.5 mph NNE33.0 kmh NNE 20.9 mph33.6 kmh 30.01 in1016.3 mb 0.00 in0.0 mm 0.00 in0.0 mm 0.02 in0.5 mm
06:58 PM 54.1°F12.3°C 52.0°F11.1°C 91% 20.9 mph NE33.6 kmh NE 21.4 mph34.4 kmh 30.01 in1016.3 mb 0.00 in0.0 mm 0.00 in0.0 mm 0.02 in0.5 mm
06:57 PM 54.1°F12.3°C 52.0°F11.1°C 92% 20.8 mph NE33.5 kmh NE 21.3 mph34.3 kmh 30.01 in1016.3 mb 0.00 in0.0 mm 0.00 in0.0 mm 0.02 in0.5 mm
06:56 PM 54.0°F12.2°C 51.0°F10.6°C 91% 20.8 mph NE33.5 kmh NE 21.3 mph34.3 kmh 30.01 in1016.3 mb 0.00 in0.0 mm 0.00 in0.0 mm 0.02 in0.5 mm
06:55 PM 54.1°F12.3°C 52.0°F11.1°C 91% 20.7 mph NE33.3 kmh NE 21.1 mph34.0 kmh 30.01 in1016.3 mb 0.00 in0.0 mm 0.00 in0.0 mm 0.02 in0.5 mm
06:54 PM 54.1°F12.3°C 52.0°F11.1°C 91% 20.7 mph NE33.3 kmh NE 21.1 mph34.0 kmh 30.01 in1016.3 mb 0.00 in0.0 mm 0.00 in0.0 mm 0.02 in0.5 mm
06:53 PM 54.1°F12.3°C 52.0°F11.1°C 91% 20.6 mph NNE33.2 kmh NNE 20.9 mph33.6 kmh 30.01 in1016.3 mb 0.00 in0.0 mm 0.00 in0.0 mm 0.02 in0.5 mm
06:52 PM 54.1°F12.3°C 52.0°F11.1°C 91% 20.6 mph N33.2 kmh N 21.0 mph33.8 kmh 30.01 in1016.3 mb 0.00 in0.0 mm 0.00 in0.0 mm 0.02 in0.5 mm
06:51 PM 54.3°F12.4°C 52.0°F11.1°C 91% 20.5 mph N33.0 kmh N 20.8 mph33.5 kmh 30.01 in1016.3 mb 0.00 in0.0 mm 0.00 in0.0 mm 0.02 in0.5 mm
06:50 PM 54.3°F12.4°C 52.0°F11.1°C 91% 20.5 mph NE33.0 kmh NE 20.8 mph33.5 kmh 30.01 in1016.3 mb 0.00 in0.0 mm 0.00 in0.0 mm 0.02 in0.5 mm
06:49 PM 54.3°F12.4°C 51.0°F10.6°C 90% 20.6 mph N33.2 kmh N 21.0 mph33.8 kmh 30.01 in1016.3 mb 0.00 in0.0 mm 0.00 in0.0 mm 0.02 in0.5 mm
06:48 PM 54.5°F12.5°C 51.0°F10.6°C 90% 20.4 mph 32.8 kmh 20.7 mph33.3 kmh 30.01 in1016.3 mb 0.00 in0.0 mm 0.00 in0.0 mm 0.02 in0.5 mm
06:47 PM 54.7°F12.6°C 52.0°F11.1°C 89% 20.2 mph NE32.5 kmh NE 20.3 mph32.7 kmh 30.01 in1016.3 mb 0.00 in0.0 mm 0.00 in0.0 mm 0.02 in0.5 mm
06:46 PM 54.7°F12.6°C 51.0°F10.6°C 89% 20.4 mph E32.8 kmh E 20.6 mph33.2 kmh 30.01 in1016.3 mb 0.00 in0.0 mm 0.00 in0.0 mm 0.02 in0.5 mm
06:45 PM 54.7°F12.6°C 51.0°F10.6°C 89% 20.6 mph NNE33.2 kmh NNE 20.9 mph33.6 kmh 30.01 in1016.3 mb 0.00 in0.0 mm 0.00 in0.0 mm 0.02 in0.5 mm
06:44 PM 54.9°F12.7°C 52.0°F11.1°C 89% 20.5 mph NE33.0 kmh NE 20.9 mph33.6 kmh 30.01 in1016.3 mb 0.00 in0.0 mm 0.00 in0.0 mm 0.02 in0.5 mm
06:43 PM 54.9°F12.7°C 51.0°F10.6°C 89% 20.6 mph NE33.2 kmh NE 21.0 mph33.8 kmh 30.01 in1016.3 mb 0.00 in0.0 mm 0.00 in0.0 mm 0.02 in0.5 mm
06:42 PM 55.0°F12.8°C 51.0°F10.6°C 88% 20.8 mph NNE33.5 kmh NNE 21.4 mph34.4 kmh 30.01 in1016.3 mb 0.00 in0.0 mm 0.00 in0.0 mm 0.02 in0.5 mm
06:41 PM 55.0°F12.8°C 52.0°F11.1°C 88% 20.8 mph NE33.5 kmh NE 21.4 mph34.4 kmh 30.01 in1016.3 mb 0.00 in0.0 mm 0.00 in0.0 mm 0.02 in0.5 mm
06:40 PM 55.0°F12.8°C 51.0°F10.6°C 88% 20.2 mph NE32.5 kmh NE 20.4 mph32.8 kmh 30.00 in1015.9 mb 0.00 in0.0 mm 0.00 in0.0 mm 0.02 in0.5 mm
06:39 PM 55.2°F12.9°C 51.0°F10.6°C 87% 20.4 mph 32.8 kmh 20.7 mph33.3 kmh 30.01 in1016.3 mb 0.00 in0.0 mm 0.00 in0.0 mm 0.02 in0.5 mm
06:38 PM 55.2°F12.9°C 51.0°F10.6°C 87% 20.4 mph 32.8 kmh 20.7 mph33.3 kmh 30.01 in1016.3 mb 0.00 in0.0 mm 0.00 in0.0 mm 0.02 in0.5 mm
06:36 PM 55.4°F13.0°C 51.0°F10.6°C 86% 20.5 mph NE33.0 kmh NE 20.8 mph33.5 kmh 30.00 in1015.9 mb 0.00 in0.0 mm 0.00 in0.0 mm 0.02 in0.5 mm
06:35 PM 55.6°F13.1°C 51.0°F10.6°C 86% 20.6 mph NE33.2 kmh NE 21.0 mph33.8 kmh 30.00 in1015.9 mb 0.00 in0.0 mm 0.00 in0.0 mm 0.02 in0.5 mm
06:34 PM 55.6°F13.1°C 51.0°F10.6°C 86% 20.7 mph NE33.3 kmh NE 21.2 mph34.1 kmh 30.00 in1015.9 mb 0.00 in0.0 mm 0.00 in0.0 mm 0.02 in0.5 mm
06:33 PM 55.8°F13.2°C 51.0°F10.6°C 85% 20.5 mph NE33.0 kmh NE 20.9 mph33.6 kmh 30.00 in1015.9 mb 0.00 in0.0 mm 0.00 in0.0 mm 0.02 in0.5 mm
06:32 PM 55.8°F13.2°C 51.0°F10.6°C 85% 20.5 mph NNE33.0 kmh NNE 20.9 mph33.6 kmh 30.00 in1015.9 mb 0.00 in0.0 mm 0.00 in0.0 mm 0.02 in0.5 mm
06:31 PM 55.9°F13.3°C 51.0°F10.6°C 84% 20.6 mph N33.2 kmh N 21.0 mph33.8 kmh 30.00 in1015.9 mb 0.00 in0.0 mm 0.00 in0.0 mm 0.02 in0.5 mm
06:30 PM 55.9°F13.3°C 51.0°F10.6°C 84% 21.0 mph NE33.8 kmh NE 21.5 mph34.6 kmh 30.00 in1015.9 mb 0.00 in0.0 mm 0.00 in0.0 mm 0.02 in0.5 mm
06:29 PM 55.9°F13.3°C 51.0°F10.6°C 83% 21.0 mph NE33.8 kmh NE 21.6 mph34.8 kmh 30.00 in1015.9 mb 0.00 in0.0 mm 0.00 in0.0 mm 0.02 in0.5 mm
06:28 PM 56.1°F13.4°C 51.0°F10.6°C 84% 20.7 mph NNE33.3 kmh NNE 21.2 mph34.1 kmh 30.00 in1015.9 mb 0.00 in0.0 mm 0.00 in0.0 mm 0.02 in0.5 mm
06:27 PM 56.1°F13.4°C 51.0°F10.6°C 83% 20.8 mph NE33.5 kmh NE 21.3 mph34.3 kmh 30.00 in1015.9 mb 0.00 in0.0 mm 0.00 in0.0 mm 0.02 in0.5 mm
06:26 PM 56.1°F13.4°C 51.0°F10.6°C 82% 20.7 mph NNE33.3 kmh NNE 21.2 mph34.1 kmh 30.00 in1015.9 mb 0.00 in0.0 mm 0.00 in0.0 mm 0.02 in0.5 mm
06:25 PM 56.3°F13.5°C 51.0°F10.6°C 81% 20.8 mph NE33.5 kmh NE 21.4 mph34.4 kmh 30.00 in1015.9 mb 0.00 in0.0 mm 0.00 in0.0 mm 0.02 in0.5 mm
06:24 PM 56.5°F13.6°C 51.0°F10.6°C 81% 20.1 mph N32.3 kmh N 20.2 mph32.5 kmh 30.00 in1015.9 mb 0.00 in0.0 mm 0.00 in0.0 mm 0.02 in0.5 mm
06:23 PM 56.5°F13.6°C 50.0°F10.0°C 80% 19.9 mph 32.0 kmh 19.9 mph32.0 kmh 30.00 in1015.9 mb 0.00 in0.0 mm 0.00 in0.0 mm 0.02 in0.5 mm
06:22 PM 56.8°F13.8°C 51.0°F10.6°C 80% 19.9 mph 32.0 kmh 19.9 mph32.0 kmh 30.00 in1015.9 mb 0.00 in0.0 mm 0.00 in0.0 mm 0.02 in0.5 mm
06:21 PM 56.8°F13.8°C 51.0°F10.6°C 79% 19.9 mph 32.0 kmh 19.9 mph32.0 kmh 30.00 in1015.9 mb 0.00 in0.0 mm 0.00 in0.0 mm 0.02 in0.5 mm
06:20 PM 57.2°F14.0°C 51.0°F10.6°C 79% 19.9 mph 32.0 kmh 19.9 mph32.0 kmh 30.00 in1015.9 mb 0.00 in0.0 mm 0.00 in0.0 mm 0.02 in0.5 mm
06:19 PM 57.4°F14.1°C 51.0°F10.6°C 79% 19.9 mph 32.0 kmh 19.9 mph32.0 kmh 30.00 in1015.9 mb 0.00 in0.0 mm 0.00 in0.0 mm 0.02 in0.5 mm
06:18 PM 57.4°F14.1°C 50.0°F10.0°C 77% 19.9 mph 32.0 kmh 19.9 mph32.0 kmh 30.00 in1015.9 mb 0.00 in0.0 mm 0.00 in0.0 mm 0.02 in0.5 mm
06:17 PM 57.6°F14.2°C 50.0°F10.0°C 77% 19.9 mph 32.0 kmh 19.9 mph32.0 kmh 30.00 in1015.9 mb 0.00 in0.0 mm 0.00 in0.0 mm 0.02 in0.5 mm
06:16 PM 57.7°F14.3°C 50.0°F10.0°C 76% 19.9 mph 32.0 kmh 19.9 mph32.0 kmh 30.00 in1015.9 mb 0.00 in0.0 mm 0.00 in0.0 mm 0.02 in0.5 mm
06:15 PM 57.9°F14.4°C 50.0°F10.0°C 75% 20.6 mph 33.2 kmh 21.1 mph34.0 kmh 30.00 in1015.9 mb 0.00 in0.0 mm 0.00 in0.0 mm 0.02 in0.5 mm
06:14 PM 57.9°F14.4°C 50.0°F10.0°C 75% 20.7 mph NNE33.3 kmh NNE 21.2 mph34.1 kmh 30.00 in1015.9 mb 0.00 in0.0 mm 0.00 in0.0 mm 0.02 in0.5 mm
06:13 PM 57.9°F14.4°C 50.0°F10.0°C 75% 21.1 mph NE34.0 kmh NE 21.6 mph34.8 kmh 30.00 in1015.9 mb 0.00 in0.0 mm 0.00 in0.0 mm 0.02 in0.5 mm
06:12 PM 57.9°F14.4°C 50.0°F10.0°C 75% 21.3 mph NE34.3 kmh NE 22.1 mph35.6 kmh 30.00 in1015.9 mb 0.00 in0.0 mm 0.00 in0.0 mm 0.02 in0.5 mm
06:11 PM 57.9°F14.4°C 50.0°F10.0°C 75% 21.1 mph NE34.0 kmh NE 21.9 mph35.2 kmh 30.00 in1015.9 mb 0.00 in0.0 mm 0.00 in0.0 mm 0.02 in0.5 mm
06:10 PM 57.9°F14.4°C 50.0°F10.0°C 75% 21.0 mph NE33.8 kmh NE 21.5 mph34.6 kmh 30.00 in1015.9 mb 0.00 in0.0 mm 0.00 in0.0 mm 0.02 in0.5 mm
06:09 PM 57.9°F14.4°C 50.0°F10.0°C 74% 20.8 mph NE33.5 kmh NE 21.3 mph34.3 kmh 30.00 in1015.9 mb 0.00 in0.0 mm 0.00 in0.0 mm 0.02 in0.5 mm
06:08 PM 57.9°F14.4°C 50.0°F10.0°C 74% 20.8 mph NE33.5 kmh NE 21.3 mph34.3 kmh 29.99 in1015.6 mb 0.00 in0.0 mm 0.00 in0.0 mm 0.02 in0.5 mm
06:07 PM 57.7°F14.3°C 50.0°F10.0°C 75% 20.5 mph NE33.0 kmh NE 20.8 mph33.5 kmh 29.99 in1015.6 mb 0.00 in0.0 mm 0.00 in0.0 mm 0.02 in0.5 mm
06:06 PM 57.7°F14.3°C 50.0°F10.0°C 76% 20.9 mph NNE33.6 kmh NNE 21.5 mph34.6 kmh 30.00 in1015.9 mb 0.00 in0.0 mm 0.00 in0.0 mm 0.02 in0.5 mm
06:05 PM 57.9°F14.4°C 51.0°F10.6°C 76% 20.9 mph NNE33.6 kmh NNE 21.5 mph34.6 kmh 30.00 in1015.9 mb 0.00 in0.0 mm 0.00 in0.0 mm 0.02 in0.5 mm
06:04 PM 58.1°F14.5°C 51.0°F10.6°C 76% 20.9 mph NNE33.6 kmh NNE 21.4 mph34.4 kmh 30.00 in1015.9 mb 0.00 in0.0 mm 0.00 in0.0 mm 0.02 in0.5 mm
06:02 PM 58.1°F14.5°C 50.0°F10.0°C 75% 20.5 mph NNE33.0 kmh NNE 20.9 mph33.6 kmh 29.99 in1015.6 mb 0.00 in0.0 mm 0.00 in0.0 mm 0.02 in0.5 mm
06:01 PM 58.3°F14.6°C 50.0°F10.0°C 75% 20.7 mph N33.3 kmh N 21.0 mph33.8 kmh 29.99 in1015.6 mb 0.00 in0.0 mm 0.00 in0.0 mm 0.02 in0.5 mm
06:00 PM 58.3°F14.6°C 50.0°F10.0°C 75% 20.5 mph N33.0 kmh N 20.9 mph33.6 kmh 29.99 in1015.6 mb 0.00 in0.0 mm 0.00 in0.0 mm 0.02 in0.5 mm
05:59 PM 58.3°F14.6°C 50.0°F10.0°C 75% 20.8 mph NNE33.5 kmh NNE 21.3 mph34.3 kmh 29.99 in1015.6 mb 0.00 in0.0 mm 0.00 in0.0 mm 0.02 in0.5 mm
05:58 PM 58.5°F14.7°C 50.0°F10.0°C 75% 20.8 mph NNE33.5 kmh NNE 21.3 mph34.3 kmh 29.99 in1015.6 mb 0.00 in0.0 mm 0.00 in0.0 mm 0.02 in0.5 mm
05:57 PM 58.5°F14.7°C 50.0°F10.0°C 75% 20.9 mph NNE33.6 kmh NNE 21.4 mph34.4 kmh 29.99 in1015.6 mb 0.00 in0.0 mm 0.00 in0.0 mm 0.02 in0.5 mm
05:56 PM 58.6°F14.8°C 50.0°F10.0°C 74% 20.8 mph NE33.5 kmh NE 21.3 mph34.3 kmh 29.99 in1015.6 mb 0.00 in0.0 mm 0.00 in0.0 mm 0.02 in0.5 mm
05:55 PM 58.8°F14.9°C 51.0°F10.6°C 74% 20.7 mph NE33.3 kmh NE 21.1 mph34.0 kmh 29.99 in1015.6 mb 0.00 in0.0 mm 0.00 in0.0 mm 0.02 in0.5 mm
05:54 PM 58.8°F14.9°C 50.0°F10.0°C 73% 20.5 mph NE33.0 kmh NE 20.9 mph33.6 kmh 29.99 in1015.6 mb 0.00 in0.0 mm 0.00 in0.0 mm 0.02 in0.5 mm
05:53 PM 58.8°F14.9°C 50.0°F10.0°C 73% 19.9 mph 32.0 kmh 19.9 mph32.0 kmh 29.99 in1015.6 mb 0.00 in0.0 mm 0.00 in0.0 mm 0.02 in0.5 mm
05:52 PM 58.8°F14.9°C 50.0°F10.0°C 73% 20.3 mph N32.7 kmh N 20.6 mph33.2 kmh 29.99 in1015.6 mb 0.00 in0.0 mm 0.00 in0.0 mm 0.02 in0.5 mm
05:51 PM 59.0°F15.0°C 50.0°F10.0°C 73% 20.1 mph NE32.3 kmh NE 20.1 mph32.3 kmh 29.99 in1015.6 mb 0.00 in0.0 mm 0.00 in0.0 mm 0.02 in0.5 mm
05:50 PM 59.2°F15.1°C 50.0°F10.0°C 73% 20.2 mph NE32.5 kmh NE 20.4 mph32.8 kmh 29.99 in1015.6 mb 0.00 in0.0 mm 0.00 in0.0 mm 0.02 in0.5 mm
05:49 PM 59.2°F15.1°C 50.0°F10.0°C 72% 20.6 mph NNE33.2 kmh NNE 21.0 mph33.8 kmh 29.99 in1015.6 mb 0.00 in0.0 mm 0.00 in0.0 mm 0.02 in0.5 mm
05:48 PM 59.2°F15.1°C 50.0°F10.0°C 73% 21.1 mph NE34.0 kmh NE 21.8 mph35.1 kmh 29.99 in1015.6 mb 0.00 in0.0 mm 0.00 in0.0 mm 0.02 in0.5 mm
05:47 PM 59.4°F15.2°C 50.0°F10.0°C 72% 20.8 mph NNE33.5 kmh NNE 21.3 mph34.3 kmh 29.99 in1015.6 mb 0.00 in0.0 mm 0.00 in0.0 mm 0.02 in0.5 mm
05:46 PM 59.4°F15.2°C 50.0°F10.0°C 71% 20.8 mph ENE33.5 kmh ENE 22.0 mph35.4 kmh 29.99 in1015.6 mb 0.00 in0.0 mm 0.00 in0.0 mm 0.02 in0.5 mm
05:45 PM 59.4°F15.2°C 50.0°F10.0°C 71% 20.7 mph NE33.3 kmh NE 21.1 mph34.0 kmh 29.99 in1015.6 mb 0.00 in0.0 mm 0.00 in0.0 mm 0.02 in0.5 mm
05:44 PM 59.4°F15.2°C 50.0°F10.0°C 72% 21.1 mph NE34.0 kmh NE 21.8 mph35.1 kmh 29.99 in1015.6 mb 0.00 in0.0 mm 0.00 in0.0 mm 0.02 in0.5 mm
05:43 PM 59.5°F15.3°C 50.0°F10.0°C 72% 21.0 mph NNE33.8 kmh NNE 21.7 mph34.9 kmh 29.99 in1015.6 mb 0.00 in0.0 mm 0.00 in0.0 mm 0.02 in0.5 mm
05:42 PM 59.5°F15.3°C 50.0°F10.0°C 71% 21.2 mph NNE34.1 kmh NNE 21.9 mph35.2 kmh 29.99 in1015.6 mb 0.00 in0.0 mm 0.00 in0.0 mm 0.02 in0.5 mm
05:41 PM 59.5°F15.3°C 50.0°F10.0°C 71% 20.3 mph NE32.7 kmh NE 20.5 mph33.0 kmh 29.99 in1015.6 mb 0.00 in0.0 mm 0.00 in0.0 mm 0.02 in0.5 mm
05:40 PM 59.7°F15.4°C 50.0°F10.0°C 71% 20.8 mph NE33.5 kmh NE 21.2 mph34.1 kmh 29.99 in1015.6 mb 0.00 in0.0 mm 0.00 in0.0 mm 0.02 in0.5 mm
05:39 PM 59.7°F15.4°C 50.0°F10.0°C 71% 20.8 mph NE33.5 kmh NE 21.4 mph34.4 kmh 29.99 in1015.6 mb 0.00 in0.0 mm 0.00 in0.0 mm 0.02 in0.5 mm
05:38 PM 59.9°F15.5°C 50.0°F10.0°C 70% 20.4 mph NE32.8 kmh NE 20.6 mph33.2 kmh 29.99 in1015.6 mb 0.00 in0.0 mm 0.00 in0.0 mm 0.02 in0.5 mm
05:37 PM 59.9°F15.5°C 50.0°F10.0°C 70% 20.9 mph NE33.6 kmh NE 21.4 mph34.4 kmh 29.98 in1015.2 mb 0.00 in0.0 mm 0.00 in0.0 mm 0.02 in0.5 mm
05:36 PM 60.1°F15.6°C 50.0°F10.0°C 70% 21.0 mph NNE33.8 kmh NNE 21.7 mph34.9 kmh 29.98 in1015.2 mb 0.00 in0.0 mm 0.00 in0.0 mm 0.02 in0.5 mm
05:35 PM 60.1°F15.6°C 50.0°F10.0°C 69% 20.9 mph NE33.6 kmh NE 21.4 mph34.4 kmh 29.99 in1015.6 mb 0.00 in0.0 mm 0.00 in0.0 mm 0.02 in0.5 mm
05:34 PM 60.1°F15.6°C 50.0°F10.0°C 69% 20.8 mph NNE33.5 kmh NNE 21.3 mph34.3 kmh 29.98 in1015.2 mb 0.00 in0.0 mm 0.00 in0.0 mm 0.02 in0.5 mm
05:33 PM 60.3°F15.7°C 50.0°F10.0°C 69% 20.9 mph NE33.6 kmh NE 21.5 mph34.6 kmh 29.99 in1015.6 mb 0.00 in0.0 mm 0.00 in0.0 mm 0.02 in0.5 mm
05:32 PM 60.3°F15.7°C 50.0°F10.0°C 69% 21.0 mph ENE33.8 kmh ENE 21.6 mph34.8 kmh 29.98 in1015.2 mb 0.00 in0.0 mm 0.00 in0.0 mm 0.02 in0.5 mm
05:31 PM 60.3°F15.7°C 50.0°F10.0°C 69% 21.1 mph NE34.0 kmh NE 21.7 mph34.9 kmh 29.98 in1015.2 mb 0.00 in0.0 mm 0.00 in0.0 mm 0.02 in0.5 mm
05:30 PM 60.3°F15.7°C 50.0°F10.0°C 69% 21.1 mph NE34.0 kmh NE 21.7 mph34.9 kmh 29.99 in1015.6 mb 0.00 in0.0 mm 0.00 in0.0 mm 0.02 in0.5 mm
05:29 PM 60.4°F15.8°C 50.0°F10.0°C 69% 21.1 mph NE34.0 kmh NE 21.8 mph35.1 kmh 29.98 in1015.2 mb 0.00 in0.0 mm 0.00 in0.0 mm 0.02 in0.5 mm
05:28 PM 60.4°F15.8°C 50.0°F10.0°C 69% 21.6 mph NE34.8 kmh NE 22.6 mph36.4 kmh 29.98 in1015.2 mb 0.00 in0.0 mm 0.00 in0.0 mm 0.02 in0.5 mm
05:27 PM 60.4°F15.8°C 50.0°F10.0°C 69% 21.5 mph NE34.6 kmh NE 22.4 mph36.0 kmh 29.98 in1015.2 mb 0.00 in0.0 mm 0.00 in0.0 mm 0.02 in0.5 mm
05:26 PM 60.6°F15.9°C 50.0°F10.0°C 68% 21.6 mph NNE34.8 kmh NNE 22.5 mph36.2 kmh 29.98 in1015.2 mb 0.00 in0.0 mm 0.00 in0.0 mm 0.02 in0.5 mm
05:25 PM 60.6°F15.9°C 50.0°F10.0°C 69% 22.2 mph NE35.7 kmh NE 23.5 mph37.8 kmh 29.98 in1015.2 mb 0.00 in0.0 mm 0.00 in0.0 mm 0.02 in0.5 mm
05:24 PM 60.6°F15.9°C 50.0°F10.0°C 69% 22.1 mph NE35.6 kmh NE 23.4 mph37.7 kmh 29.98 in1015.2 mb 0.00 in0.0 mm 0.00 in0.0 mm 0.02 in0.5 mm
05:23 PM 60.6°F15.9°C 50.0°F10.0°C 69% 21.7 mph NE34.9 kmh NE 22.6 mph36.4 kmh 29.98 in1015.2 mb 0.00 in0.0 mm 0.00 in0.0 mm 0.02 in0.5 mm
05:22 PM 60.6°F15.9°C 50.0°F10.0°C 69% 21.7 mph NNE34.9 kmh NNE 22.8 mph36.7 kmh 29.98 in1015.2 mb 0.00 in0.0 mm 0.00 in0.0 mm 0.02 in0.5 mm
05:21 PM 60.8°F16.0°C 51.0°F10.6°C 69% 21.0 mph NNE33.8 kmh NNE 21.5 mph34.6 kmh 29.98 in1015.2 mb 0.00 in0.0 mm 0.00 in0.0 mm 0.02 in0.5 mm
05:20 PM 61.0°F16.1°C 51.0°F10.6°C 69% 21.0 mph NNE33.8 kmh NNE 21.5 mph34.6 kmh 29.98 in1015.2 mb 0.00 in0.0 mm 0.00 in0.0 mm 0.02 in0.5 mm
05:19 PM 61.0°F16.1°C 51.0°F10.6°C 69% 21.4 mph NNE34.4 kmh NNE 22.3 mph35.9 kmh 29.98 in1015.2 mb 0.00 in0.0 mm 0.00 in0.0 mm 0.02 in0.5 mm
05:18 PM 61.0°F16.1°C 51.0°F10.6°C 69% 21.6 mph NE34.8 kmh NE 22.6 mph36.4 kmh 29.98 in1015.2 mb 0.00 in0.0 mm 0.00 in0.0 mm 0.02 in0.5 mm
05:17 PM 61.0°F16.1°C 51.0°F10.6°C 69% 21.5 mph NE34.6 kmh NE 22.4 mph36.0 kmh 29.98 in1015.2 mb 0.00 in0.0 mm 0.00 in0.0 mm 0.02 in0.5 mm
05:16 PM 61.2°F16.2°C 51.0°F10.6°C 69% 20.8 mph NNE33.5 kmh NNE 21.2 mph34.1 kmh 29.98 in1015.2 mb 0.00 in0.0 mm 0.00 in0.0 mm 0.02 in0.5 mm
05:15 PM 61.2°F16.2°C 51.0°F10.6°C 68% 21.1 mph NE34.0 kmh NE 21.9 mph35.2 kmh 29.98 in1015.2 mb 0.00 in0.0 mm 0.00 in0.0 mm 0.02 in0.5 mm
05:14 PM 61.3°F16.3°C 51.0°F10.6°C 68% 21.3 mph NNE34.3 kmh NNE 22.1 mph35.6 kmh 29.98 in1015.2 mb 0.00 in0.0 mm 0.00 in0.0 mm 0.02 in0.5 mm
05:13 PM 61.3°F16.3°C 50.0°F10.0°C 67% 20.9 mph NE33.6 kmh NE 21.5 mph34.6 kmh 29.98 in1015.2 mb 0.00 in0.0 mm 0.00 in0.0 mm 0.02 in0.5 mm
05:12 PM 61.5°F16.4°C 50.0°F10.0°C 67% 21.3 mph NE34.3 kmh NE 22.0 mph35.4 kmh 29.98 in1015.2 mb 0.00 in0.0 mm 0.00 in0.0 mm 0.02 in0.5 mm
05:11 PM 61.5°F16.4°C 50.0°F10.0°C 67% 21.5 mph NE34.6 kmh NE 22.4 mph36.0 kmh 29.98 in1015.2 mb 0.00 in0.0 mm 0.00 in0.0 mm 0.02 in0.5 mm
05:10 PM 61.3°F16.3°C 50.0°F10.0°C 66% 23.0 mph NE37.0 kmh NE 24.9 mph40.1 kmh 29.98 in1015.2 mb 0.00 in0.0 mm 0.00 in0.0 mm 0.02 in0.5 mm
05:09 PM 61.5°F16.4°C 50.0°F10.0°C 66% 23.0 mph NE37.0 kmh NE 24.9 mph40.1 kmh 29.98 in1015.2 mb 0.00 in0.0 mm 0.00 in0.0 mm 0.02 in0.5 mm
05:08 PM 61.5°F16.4°C 50.0°F10.0°C 66% 21.5 mph NNE34.6 kmh NNE 22.5 mph36.2 kmh 29.98 in1015.2 mb 0.00 in0.0 mm 0.00 in0.0 mm 0.02 in0.5 mm
05:07 PM 61.7°F16.5°C 50.0°F10.0°C 67% 22.1 mph NE35.6 kmh NE 23.3 mph37.5 kmh 29.98 in1015.2 mb 0.00 in0.0 mm 0.00 in0.0 mm 0.02 in0.5 mm
05:06 PM 61.7°F16.5°C 50.0°F10.0°C 66% 21.5 mph NE34.6 kmh NE 22.4 mph36.0 kmh 29.98 in1015.2 mb 0.00 in0.0 mm 0.00 in0.0 mm 0.02 in0.5 mm
05:05 PM 61.7°F16.5°C 50.0°F10.0°C 66% 21.7 mph NE34.9 kmh NE 22.9 mph36.9 kmh 29.98 in1015.2 mb 0.00 in0.0 mm 0.00 in0.0 mm 0.02 in0.5 mm
05:04 PM 61.9°F16.6°C 51.0°F10.6°C 67% 21.6 mph NE34.8 kmh NE 22.6 mph36.4 kmh 29.98 in1015.2 mb 0.00 in0.0 mm 0.00 in0.0 mm 0.02 in0.5 mm
05:03 PM 61.7°F16.5°C 50.0°F10.0°C 66% 21.2 mph NE34.1 kmh NE 22.0 mph35.4 kmh 29.98 in1015.2 mb 0.00 in0.0 mm 0.00 in0.0 mm 0.02 in0.5 mm
05:02 PM 61.9°F16.6°C 50.0°F10.0°C 66% 21.3 mph NE34.3 kmh NE 22.1 mph35.6 kmh 29.98 in1015.2 mb 0.00 in0.0 mm 0.00 in0.0 mm 0.02 in0.5 mm
05:01 PM 61.9°F16.6°C 50.0°F10.0°C 66% 21.4 mph NE34.4 kmh NE 22.2 mph35.7 kmh 29.98 in1015.2 mb 0.00 in0.0 mm 0.00 in0.0 mm 0.02 in0.5 mm
05:00 PM 61.9°F16.6°C 50.0°F10.0°C 66% 21.3 mph NNE34.3 kmh NNE 22.0 mph35.4 kmh 29.98 in1015.2 mb 0.00 in0.0 mm 0.00 in0.0 mm 0.02 in0.5 mm
04:59 PM 62.1°F16.7°C 50.0°F10.0°C 66% 20.9 mph NE33.6 kmh NE 21.5 mph34.6 kmh 29.98 in1015.2 mb 0.00 in0.0 mm 0.00 in0.0 mm 0.02 in0.5 mm
04:58 PM 62.1°F16.7°C 50.0°F10.0°C 65% 21.4 mph NNE34.4 kmh NNE 22.1 mph35.6 kmh 29.98 in1015.2 mb 0.00 in0.0 mm 0.00 in0.0 mm 0.02 in0.5 mm
04:57 PM 62.1°F16.7°C 50.0°F10.0°C 65% 21.6 mph ENE34.8 kmh ENE 22.6 mph36.4 kmh 29.98 in1015.2 mb 0.00 in0.0 mm 0.00 in0.0 mm 0.02 in0.5 mm
04:56 PM 62.2°F16.8°C 50.0°F10.0°C 65% 21.6 mph NNE34.8 kmh NNE 22.4 mph36.0 kmh 29.98 in1015.2 mb 0.00 in0.0 mm 0.00 in0.0 mm 0.02 in0.5 mm
04:55 PM 62.2°F16.8°C 50.0°F10.0°C 65% 21.5 mph NNE34.6 kmh NNE 22.4 mph36.0 kmh 29.98 in1015.2 mb 0.00 in0.0 mm 0.00 in0.0 mm 0.02 in0.5 mm
04:54 PM 62.2°F16.8°C 50.0°F10.0°C 65% 21.3 mph NNE34.3 kmh NNE 22.0 mph35.4 kmh 29.98 in1015.2 mb 0.00 in0.0 mm 0.00 in0.0 mm 0.02 in0.5 mm
04:53 PM 62.2°F16.8°C 50.0°F10.0°C 65% 21.3 mph NE34.3 kmh NE 22.1 mph35.6 kmh 29.98 in1015.2 mb 0.00 in0.0 mm 0.00 in0.0 mm 0.02 in0.5 mm
04:52 PM 62.2°F16.8°C 50.0°F10.0°C 64% 21.9 mph NE35.2 kmh NE 23.0 mph37.0 kmh 29.98 in1015.2 mb 0.00 in0.0 mm 0.00 in0.0 mm 0.02 in0.5 mm
04:51 PM 62.4°F16.9°C 50.0°F10.0°C 65% 21.3 mph NE34.3 kmh NE 22.1 mph35.6 kmh 29.98 in1015.2 mb 0.00 in0.0 mm 0.00 in0.0 mm 0.02 in0.5 mm
04:50 PM 62.4°F16.9°C 50.0°F10.0°C 64% 22.2 mph NE35.7 kmh NE 23.7 mph38.1 kmh 29.98 in1015.2 mb 0.00 in0.0 mm 0.00 in0.0 mm 0.02 in0.5 mm
04:49 PM 62.4°F16.9°C 50.0°F10.0°C 65% 21.7 mph NNE34.9 kmh NNE 22.7 mph36.5 kmh 29.98 in1015.2 mb 0.00 in0.0 mm 0.00 in0.0 mm 0.02 in0.5 mm
04:48 PM 62.4°F16.9°C 50.0°F10.0°C 65% 21.0 mph NE33.8 kmh NE 21.7 mph34.9 kmh 29.98 in1015.2 mb 0.00 in0.0 mm 0.00 in0.0 mm 0.02 in0.5 mm
04:47 PM 62.6°F17.0°C 50.0°F10.0°C 64% 21.2 mph NE34.1 kmh NE 22.0 mph35.4 kmh 29.98 in1015.2 mb 0.00 in0.0 mm 0.00 in0.0 mm 0.02 in0.5 mm
04:46 PM 62.6°F17.0°C 50.0°F10.0°C 64% 21.6 mph NE34.8 kmh NE 22.8 mph36.7 kmh 29.98 in1015.2 mb 0.00 in0.0 mm 0.00 in0.0 mm 0.02 in0.5 mm
04:45 PM 62.6°F17.0°C 50.0°F10.0°C 64% 22.3 mph NE35.9 kmh NE 23.8 mph38.3 kmh 29.98 in1015.2 mb 0.00 in0.0 mm 0.00 in0.0 mm 0.02 in0.5 mm
04:44 PM 62.6°F17.0°C 50.0°F10.0°C 64% 21.7 mph NE34.9 kmh NE 22.8 mph36.7 kmh 29.98 in1015.2 mb 0.00 in0.0 mm 0.00 in0.0 mm 0.02 in0.5 mm
04:43 PM 62.6°F17.0°C 50.0°F10.0°C 64% 21.1 mph NE34.0 kmh NE 21.8 mph35.1 kmh 29.98 in1015.2 mb 0.00 in0.0 mm 0.00 in0.0 mm 0.02 in0.5 mm
04:42 PM 62.6°F17.0°C 50.0°F10.0°C 64% 21.3 mph NE34.3 kmh NE 22.1 mph35.6 kmh 29.98 in1015.2 mb 0.00 in0.0 mm 0.00 in0.0 mm 0.02 in0.5 mm
04:41 PM 62.6°F17.0°C 50.0°F10.0°C 64% 20.5 mph NE33.0 kmh NE 20.9 mph33.6 kmh 29.98 in1015.2 mb 0.00 in0.0 mm 0.00 in0.0 mm 0.02 in0.5 mm
04:40 PM 62.6°F17.0°C 50.0°F10.0°C 64% 20.8 mph ESE33.5 kmh ESE 21.2 mph34.1 kmh 29.98 in1015.2 mb 0.00 in0.0 mm 0.00 in0.0 mm 0.02 in0.5 mm
04:39 PM 62.6°F17.0°C 50.0°F10.0°C 64% 21.5 mph NE34.6 kmh NE 22.3 mph35.9 kmh 29.98 in1015.2 mb 0.00 in0.0 mm 0.00 in0.0 mm 0.02 in0.5 mm
04:38 PM 62.6°F17.0°C 50.0°F10.0°C 64% 21.4 mph NE34.4 kmh NE 22.2 mph35.7 kmh 29.97 in1014.9 mb 0.00 in0.0 mm 0.00 in0.0 mm 0.02 in0.5 mm
04:37 PM 62.6°F17.0°C 50.0°F10.0°C 65% 21.3 mph NE34.3 kmh NE 22.0 mph35.4 kmh 29.98 in1015.2 mb 0.00 in0.0 mm 0.00 in0.0 mm 0.02 in0.5 mm
04:36 PM 62.6°F17.0°C 50.0°F10.0°C 65% 20.9 mph ESE33.6 kmh ESE 21.5 mph34.6 kmh 29.98 in1015.2 mb 0.00 in0.0 mm 0.00 in0.0 mm 0.02 in0.5 mm
04:35 PM 62.8°F17.1°C 50.0°F10.0°C 63% 20.7 mph E33.3 kmh E 21.2 mph34.1 kmh 29.98 in1015.2 mb 0.00 in0.0 mm 0.00 in0.0 mm 0.02 in0.5 mm
04:34 PM 62.8°F17.1°C 50.0°F10.0°C 63% 21.4 mph NE34.4 kmh NE 22.3 mph35.9 kmh 29.97 in1014.9 mb 0.00 in0.0 mm 0.00 in0.0 mm 0.02 in0.5 mm
04:33 PM 62.8°F17.1°C 50.0°F10.0°C 64% 20.9 mph NE33.6 kmh NE 21.4 mph34.4 kmh 29.97 in1014.9 mb 0.00 in0.0 mm 0.00 in0.0 mm 0.02 in0.5 mm
04:32 PM 62.8°F17.1°C 50.0°F10.0°C 64% 21.4 mph NE34.4 kmh NE 22.3 mph35.9 kmh 29.97 in1014.9 mb 0.00 in0.0 mm 0.00 in0.0 mm 0.02 in0.5 mm
04:31 PM 62.8°F17.1°C 50.0°F10.0°C 64% 21.8 mph NE35.1 kmh NE 22.8 mph36.7 kmh 29.97 in1014.9 mb 0.00 in0.0 mm 0.00 in0.0 mm 0.02 in0.5 mm
04:30 PM 62.8°F17.1°C 50.0°F10.0°C 64% 21.8 mph NE35.1 kmh NE 22.8 mph36.7 kmh 29.97 in1014.9 mb 0.00 in0.0 mm 0.00 in0.0 mm 0.02 in0.5 mm
04:28 PM 62.8°F17.1°C 50.0°F10.0°C 63% 21.2 mph NE34.1 kmh NE 22.0 mph35.4 kmh 29.97 in1014.9 mb 0.00 in0.0 mm 0.00 in0.0 mm 0.02 in0.5 mm
04:27 PM 62.8°F17.1°C 50.0°F10.0°C 64% 21.2 mph E34.1 kmh E 22.1 mph35.6 kmh 29.97 in1014.9 mb 0.00 in0.0 mm 0.00 in0.0 mm 0.02 in0.5 mm
04:26 PM 63.0°F17.2°C 50.0°F10.0°C 64% 20.9 mph NNE33.6 kmh NNE 21.4 mph34.4 kmh 29.97 in1014.9 mb 0.00 in0.0 mm 0.00 in0.0 mm 0.02 in0.5 mm
04:25 PM 62.8°F17.1°C 50.0°F10.0°C 64% 20.5 mph NE33.0 kmh NE 20.9 mph33.6 kmh 29.97 in1014.9 mb 0.00 in0.0 mm 0.00 in0.0 mm 0.02 in0.5 mm
04:24 PM 62.8°F17.1°C 50.0°F10.0°C 62% 21.0 mph NE33.8 kmh NE 21.6 mph34.8 kmh 29.97 in1014.9 mb 0.00 in0.0 mm 0.00 in0.0 mm 0.02 in0.5 mm
04:23 PM 63.0°F17.2°C 50.0°F10.0°C 63% 21.0 mph NE33.8 kmh NE 21.6 mph34.8 kmh 29.97 in1014.9 mb 0.00 in0.0 mm 0.00 in0.0 mm 0.02 in0.5 mm
04:22 PM 62.8°F17.1°C 50.0°F10.0°C 63% 21.2 mph NE34.1 kmh NE 21.9 mph35.2 kmh 29.97 in1014.9 mb 0.00 in0.0 mm 0.00 in0.0 mm 0.02 in0.5 mm
04:21 PM 62.8°F17.1°C 50.0°F10.0°C 63% 20.8 mph NE33.5 kmh NE 21.3 mph34.3 kmh 29.97 in1014.9 mb 0.00 in0.0 mm 0.00 in0.0 mm 0.02 in0.5 mm
04:20 PM 62.8°F17.1°C 50.0°F10.0°C 63% 21.1 mph ENE34.0 kmh ENE 21.7 mph34.9 kmh 29.97 in1014.9 mb 0.00 in0.0 mm 0.00 in0.0 mm 0.02 in0.5 mm
04:19 PM 63.0°F17.2°C 51.0°F10.6°C 64% 21.2 mph NE34.1 kmh NE 22.0 mph35.4 kmh 29.97 in1014.9 mb 0.00 in0.0 mm 0.00 in0.0 mm 0.02 in0.5 mm
04:18 PM 63.0°F17.2°C 50.0°F10.0°C 63% 20.5 mph ENE33.0 kmh ENE 20.9 mph33.6 kmh 29.97 in1014.9 mb 0.00 in0.0 mm 0.00 in0.0 mm 0.02 in0.5 mm
04:17 PM 63.0°F17.2°C 50.0°F10.0°C 63% 21.3 mph E34.3 kmh E 22.1 mph35.6 kmh 29.97 in1014.9 mb 0.00 in0.0 mm 0.00 in0.0 mm 0.02 in0.5 mm
04:16 PM 63.0°F17.2°C 50.0°F10.0°C 63% 20.7 mph NE33.3 kmh NE 21.1 mph34.0 kmh 29.97 in1014.9 mb 0.00 in0.0 mm 0.00 in0.0 mm 0.02 in0.5 mm
04:15 PM 63.0°F17.2°C 50.0°F10.0°C 63% 20.5 mph NE33.0 kmh NE 20.8 mph33.5 kmh 29.97 in1014.9 mb 0.00 in0.0 mm 0.00 in0.0 mm 0.02 in0.5 mm
04:14 PM 63.0°F17.2°C 50.0°F10.0°C 63% 19.9 mph NE32.0 kmh NE 19.9 mph32.0 kmh 29.97 in1014.9 mb 0.00 in0.0 mm 0.00 in0.0 mm 0.02 in0.5 mm
04:13 PM 63.0°F17.2°C 50.0°F10.0°C 63% 20.4 mph NE32.8 kmh NE 20.6 mph33.2 kmh 29.97 in1014.9 mb 0.00 in0.0 mm 0.00 in0.0 mm 0.02 in0.5 mm
04:12 PM 63.0°F17.2°C 50.0°F10.0°C 62% 21.1 mph NE34.0 kmh NE 21.7 mph34.9 kmh 29.97 in1014.9 mb 0.00 in0.0 mm 0.00 in0.0 mm 0.02 in0.5 mm
04:11 PM 63.0°F17.2°C 50.0°F10.0°C 62% 21.2 mph NE34.1 kmh NE 22.0 mph35.4 kmh 29.97 in1014.9 mb 0.00 in0.0 mm 0.00 in0.0 mm 0.02 in0.5 mm
04:10 PM 63.1°F17.3°C 50.0°F10.0°C 63% 21.0 mph NNE33.8 kmh NNE 21.6 mph34.8 kmh 29.97 in1014.9 mb 0.00 in0.0 mm 0.00 in0.0 mm 0.02 in0.5 mm
04:09 PM 63.1°F17.3°C 50.0°F10.0°C 62% 20.8 mph NE33.5 kmh NE 21.4 mph34.4 kmh 29.97 in1014.9 mb 0.00 in0.0 mm 0.00 in0.0 mm 0.02 in0.5 mm
04:08 PM 63.1°F17.3°C 50.0°F10.0°C 62% 20.8 mph NE33.5 kmh NE 22.8 mph36.7 kmh 29.97 in1014.9 mb 0.00 in0.0 mm 0.00 in0.0 mm 0.02 in0.5 mm
04:07 PM 63.1°F17.3°C 50.0°F10.0°C 62% 21.0 mph NE33.8 kmh NE 21.6 mph34.8 kmh 29.97 in1014.9 mb 0.00 in0.0 mm 0.00 in0.0 mm 0.02 in0.5 mm
04:06 PM 63.1°F17.3°C 50.0°F10.0°C 62% 21.3 mph ENE34.3 kmh ENE 22.1 mph35.6 kmh 29.97 in1014.9 mb 0.00 in0.0 mm 0.00 in0.0 mm 0.02 in0.5 mm
04:04 PM 63.1°F17.3°C 50.0°F10.0°C 62% 21.2 mph NNE34.1 kmh NNE 21.9 mph35.2 kmh 29.97 in1014.9 mb 0.00 in0.0 mm 0.00 in0.0 mm 0.02 in0.5 mm
04:03 PM 63.3°F17.4°C 50.0°F10.0°C 62% 20.8 mph NE33.5 kmh NE 21.4 mph34.4 kmh 29.97 in1014.9 mb 0.00 in0.0 mm 0.00 in0.0 mm 0.02 in0.5 mm
04:02 PM 63.3°F17.4°C 50.0°F10.0°C 63% 20.9 mph N33.6 kmh N 21.5 mph34.6 kmh 29.97 in1014.9 mb 0.00 in0.0 mm 0.00 in0.0 mm 0.02 in0.5 mm
04:01 PM 63.5°F17.5°C 50.0°F10.0°C 61% 20.4 mph NE32.8 kmh NE 20.7 mph33.3 kmh 29.97 in1014.9 mb 0.00 in0.0 mm 0.00 in0.0 mm 0.02 in0.5 mm
04:00 PM 63.5°F17.5°C 50.0°F10.0°C 62% 20.6 mph NE33.2 kmh NE 20.9 mph33.6 kmh 29.97 in1014.9 mb 0.00 in0.0 mm 0.00 in0.0 mm 0.02 in0.5 mm
03:59 PM 63.5°F17.5°C 50.0°F10.0°C 62% 20.8 mph ENE33.5 kmh ENE 21.3 mph34.3 kmh 29.97 in1014.9 mb 0.00 in0.0 mm 0.00 in0.0 mm 0.02 in0.5 mm
03:58 PM 63.5°F17.5°C 50.0°F10.0°C 61% 21.4 mph NE34.4 kmh NE 22.3 mph35.9 kmh 29.97 in1014.9 mb 0.00 in0.0 mm 0.00 in0.0 mm 0.02 in0.5 mm
03:57 PM 63.5°F17.5°C 50.0°F10.0°C 61% 21.3 mph NE34.3 kmh NE 22.1 mph35.6 kmh 29.97 in1014.9 mb 0.00 in0.0 mm 0.00 in0.0 mm 0.02 in0.5 mm
03:56 PM 63.5°F17.5°C 50.0°F10.0°C 61% 21.6 mph NE34.8 kmh NE 22.6 mph36.4 kmh 29.97 in1014.9 mb 0.00 in0.0 mm 0.00 in0.0 mm 0.02 in0.5 mm
03:55 PM 63.5°F17.5°C 50.0°F10.0°C 61% 21.9 mph NE35.2 kmh NE 23.1 mph37.2 kmh 29.97 in1014.9 mb 0.00 in0.0 mm 0.00 in0.0 mm 0.02 in0.5 mm
03:54 PM 63.3°F17.4°C 50.0°F10.0°C 61% 21.7 mph NNE34.9 kmh NNE 22.7 mph36.5 kmh 29.97 in1014.9 mb 0.00 in0.0 mm 0.00 in0.0 mm 0.02 in0.5 mm
03:53 PM 63.5°F17.5°C 50.0°F10.0°C 61% 21.4 mph NNE34.4 kmh NNE 22.2 mph35.7 kmh 29.97 in1014.9 mb 0.00 in0.0 mm 0.00 in0.0 mm 0.02 in0.5 mm
03:52 PM 63.3°F17.4°C 49.0°F9.4°C 61% 21.3 mph ENE34.3 kmh ENE 22.0 mph35.4 kmh 29.97 in1014.9 mb 0.00 in0.0 mm 0.00 in0.0 mm 0.02 in0.5 mm
03:51 PM 63.3°F17.4°C 50.0°F10.0°C 61% 21.1 mph ENE34.0 kmh ENE 21.8 mph35.1 kmh 29.97 in1014.9 mb 0.00 in0.0 mm 0.00 in0.0 mm 0.02 in0.5 mm
03:50 PM 63.3°F17.4°C 50.0°F10.0°C 61% 22.1 mph NE35.6 kmh NE 23.7 mph38.1 kmh 29.97 in1014.9 mb 0.00 in0.0 mm 0.00 in0.0 mm 0.02 in0.5 mm
03:49 PM 63.3°F17.4°C 49.0°F9.4°C 61% 21.4 mph E34.4 kmh E 22.2 mph35.7 kmh 29.97 in1014.9 mb 0.00 in0.0 mm 0.00 in0.0 mm 0.02 in0.5 mm
03:48 PM 63.3°F17.4°C 49.0°F9.4°C 61% 22.3 mph NE35.9 kmh NE 23.9 mph38.5 kmh 29.97 in1014.9 mb 0.00 in0.0 mm 0.00 in0.0 mm 0.02 in0.5 mm
03:47 PM 63.3°F17.4°C 50.0°F10.0°C 61% 22.5 mph NE36.2 kmh NE 24.3 mph39.1 kmh 29.97 in1014.9 mb 0.00 in0.0 mm 0.00 in0.0 mm 0.02 in0.5 mm
03:46 PM 63.3°F17.4°C 50.0°F10.0°C 61% 22.0 mph E35.4 kmh E 23.3 mph37.5 kmh 29.97 in1014.9 mb 0.00 in0.0 mm 0.00 in0.0 mm 0.02 in0.5 mm
03:45 PM 63.3°F17.4°C 49.0°F9.4°C 61% 21.6 mph NNE34.8 kmh NNE 22.5 mph36.2 kmh 29.97 in1014.9 mb 0.00 in0.0 mm 0.00 in0.0 mm 0.02 in0.5 mm
03:44 PM 63.3°F17.4°C 49.0°F9.4°C 60% 23.2 mph NNE37.3 kmh NNE 25.2 mph40.6 kmh 29.97 in1014.9 mb 0.00 in0.0 mm 0.00 in0.0 mm 0.02 in0.5 mm
03:43 PM 63.3°F17.4°C 49.0°F9.4°C 61% 22.7 mph NE36.5 kmh NE 24.6 mph39.6 kmh 29.97 in1014.9 mb 0.00 in0.0 mm 0.00 in0.0 mm 0.02 in0.5 mm
03:42 PM 63.3°F17.4°C 49.0°F9.4°C 61% 21.9 mph NNE35.2 kmh NNE 22.9 mph36.9 kmh 29.97 in1014.9 mb 0.00 in0.0 mm 0.00 in0.0 mm 0.02 in0.5 mm
03:41 PM 63.5°F17.5°C 49.0°F9.4°C 61% 23.4 mph ENE37.7 kmh ENE 25.6 mph41.2 kmh 29.97 in1014.9 mb 0.00 in0.0 mm 0.00 in0.0 mm 0.02 in0.5 mm
03:40 PM 63.3°F17.4°C 49.0°F9.4°C 60% 24.1 mph NE38.8 kmh NE 27.3 mph43.9 kmh 29.97 in1014.9 mb 0.00 in0.0 mm 0.00 in0.0 mm 0.02 in0.5 mm
03:39 PM 63.5°F17.5°C 50.0°F10.0°C 61% 22.2 mph NNE35.7 kmh NNE 23.7 mph38.1 kmh 29.97 in1014.9 mb 0.00 in0.0 mm 0.00 in0.0 mm 0.02 in0.5 mm
03:38 PM 63.3°F17.4°C 49.0°F9.4°C 61% 21.8 mph NE35.1 kmh NE 22.9 mph36.9 kmh 29.97 in1014.9 mb 0.00 in0.0 mm 0.00 in0.0 mm 0.02 in0.5 mm
03:37 PM 63.3°F17.4°C 49.0°F9.4°C 61% 22.4 mph ENE36.0 kmh ENE 23.9 mph38.5 kmh 29.97 in1014.9 mb 0.00 in0.0 mm 0.00 in0.0 mm 0.02 in0.5 mm
03:36 PM 63.3°F17.4°C 49.0°F9.4°C 61% 22.2 mph NE35.7 kmh NE 23.6 mph38.0 kmh 29.97 in1014.9 mb 0.00 in0.0 mm 0.00 in0.0 mm 0.02 in0.5 mm
03:35 PM 63.3°F17.4°C 49.0°F9.4°C 60% 22.7 mph NE36.5 kmh NE 24.6 mph39.6 kmh 29.97 in1014.9 mb 0.00 in0.0 mm 0.00 in0.0 mm 0.02 in0.5 mm
03:34 PM 63.5°F17.5°C 50.0°F10.0°C 61% 22.2 mph NE35.7 kmh NE 23.5 mph37.8 kmh 29.97 in1014.9 mb 0.00 in0.0 mm 0.00 in0.0 mm 0.02 in0.5 mm
03:33 PM 63.3°F17.4°C 49.0°F9.4°C 61% 22.6 mph NNE36.4 kmh NNE 24.3 mph39.1 kmh 29.97 in1014.9 mb 0.00 in0.0 mm 0.00 in0.0 mm 0.02 in0.5 mm
03:32 PM 63.3°F17.4°C 49.0°F9.4°C 61% 22.8 mph NE36.7 kmh NE 24.4 mph39.3 kmh 29.97 in1014.9 mb 0.00 in0.0 mm 0.00 in0.0 mm 0.02 in0.5 mm
03:31 PM 63.3°F17.4°C 49.0°F9.4°C 61% 22.8 mph NE36.7 kmh NE 24.5 mph39.4 kmh 29.97 in1014.9 mb 0.00 in0.0 mm 0.00 in0.0 mm 0.02 in0.5 mm
03:30 PM 63.3°F17.4°C 50.0°F10.0°C 61% 22.1 mph NNE35.6 kmh NNE 23.3 mph37.5 kmh 29.97 in1014.9 mb 0.00 in0.0 mm 0.00 in0.0 mm 0.02 in0.5 mm
03:29 PM 63.3°F17.4°C 50.0°F10.0°C 61% 22.9 mph NE36.9 kmh NE 24.9 mph40.1 kmh 29.97 in1014.9 mb 0.00 in0.0 mm 0.00 in0.0 mm 0.02 in0.5 mm
03:28 PM 63.5°F17.5°C 50.0°F10.0°C 61% 22.0 mph NE35.4 kmh NE 23.3 mph37.5 kmh 29.97 in1014.9 mb 0.00 in0.0 mm 0.00 in0.0 mm 0.02 in0.5 mm
03:27 PM 63.5°F17.5°C 49.0°F9.4°C 61% 22.0 mph NE35.4 kmh NE 23.5 mph37.8 kmh 29.97 in1014.9 mb 0.00 in0.0 mm 0.00 in0.0 mm 0.02 in0.5 mm
03:26 PM 63.7°F17.6°C 50.0°F10.0°C 61% 22.3 mph NE35.9 kmh NE 23.7 mph38.1 kmh 29.97 in1014.9 mb 0.00 in0.0 mm 0.00 in0.0 mm 0.02 in0.5 mm
03:25 PM 63.7°F17.6°C 50.0°F10.0°C 61% 21.4 mph NE34.4 kmh NE 22.2 mph35.7 kmh 29.97 in1014.9 mb 0.00 in0.0 mm 0.00 in0.0 mm 0.02 in0.5 mm
03:24 PM 63.9°F17.7°C 50.0°F10.0°C 60% 22.4 mph NNE36.0 kmh NNE 23.9 mph38.5 kmh 29.97 in1014.9 mb 0.00 in0.0 mm 0.00 in0.0 mm 0.02 in0.5 mm
03:23 PM 63.9°F17.7°C 50.0°F10.0°C 60% 23.3 mph NE37.5 kmh NE 25.5 mph41.0 kmh 29.97 in1014.9 mb 0.00 in0.0 mm 0.00 in0.0 mm 0.02 in0.5 mm
03:22 PM 63.9°F17.7°C 50.0°F10.0°C 60% 23.0 mph NE37.0 kmh NE 25.1 mph40.4 kmh 29.97 in1014.9 mb 0.00 in0.0 mm 0.00 in0.0 mm 0.02 in0.5 mm
03:21 PM 63.9°F17.7°C 50.0°F10.0°C 61% 22.0 mph NE35.4 kmh NE 23.2 mph37.3 kmh 29.97 in1014.9 mb 0.00 in0.0 mm 0.00 in0.0 mm 0.02 in0.5 mm
03:20 PM 63.9°F17.7°C 50.0°F10.0°C 60% 22.0 mph NE35.4 kmh NE 23.1 mph37.2 kmh 29.97 in1014.9 mb 0.00 in0.0 mm 0.00 in0.0 mm 0.02 in0.5 mm
03:19 PM 63.9°F17.7°C 50.0°F10.0°C 60% 23.0 mph NE37.0 kmh NE 25.3 mph40.7 kmh 29.97 in1014.9 mb 0.00 in0.0 mm 0.00 in0.0 mm 0.02 in0.5 mm
03:18 PM 63.9°F17.7°C 49.0°F9.4°C 60% 21.8 mph NE35.1 kmh NE 22.9 mph36.9 kmh 29.97 in1014.9 mb 0.00 in0.0 mm 0.00 in0.0 mm 0.02 in0.5 mm
03:17 PM 64.0°F17.8°C 49.0°F9.4°C 59% 21.5 mph NE34.6 kmh NE 22.5 mph36.2 kmh 29.97 in1014.9 mb 0.00 in0.0 mm 0.00 in0.0 mm 0.02 in0.5 mm
03:16 PM 64.0°F17.8°C 50.0°F10.0°C 60% 21.9 mph NE35.2 kmh NE 23.1 mph37.2 kmh 29.97 in1014.9 mb 0.00 in0.0 mm 0.00 in0.0 mm 0.02 in0.5 mm
03:15 PM 64.2°F17.9°C 50.0°F10.0°C 59% 22.1 mph NE35.6 kmh NE 23.4 mph37.7 kmh 29.97 in1014.9 mb 0.00 in0.0 mm 0.00 in0.0 mm 0.02 in0.5 mm
03:14 PM 64.2°F17.9°C 50.0°F10.0°C 60% 21.6 mph NE34.8 kmh NE 22.5 mph36.2 kmh 29.97 in1014.9 mb 0.00 in0.0 mm 0.00 in0.0 mm 0.02 in0.5 mm
03:13 PM 64.4°F18.0°C 50.0°F10.0°C 59% 22.2 mph ENE35.7 kmh ENE 23.5 mph37.8 kmh 29.97 in1014.9 mb 0.00 in0.0 mm 0.00 in0.0 mm 0.02 in0.5 mm
03:12 PM 64.4°F18.0°C 50.0°F10.0°C 59% 21.6 mph NE34.8 kmh NE 22.6 mph36.4 kmh 29.97 in1014.9 mb 0.00 in0.0 mm 0.00 in0.0 mm 0.02 in0.5 mm
03:11 PM 64.4°F18.0°C 49.0°F9.4°C 59% 21.4 mph E34.4 kmh E 22.3 mph35.9 kmh 29.97 in1014.9 mb 0.00 in0.0 mm 0.00 in0.0 mm 0.02 in0.5 mm
03:10 PM 64.4°F18.0°C 50.0°F10.0°C 59% 22.2 mph NE35.7 kmh NE 23.6 mph38.0 kmh 29.97 in1014.9 mb 0.00 in0.0 mm 0.00 in0.0 mm 0.02 in0.5 mm
03:09 PM 64.4°F18.0°C 49.0°F9.4°C 58% 22.6 mph NE36.4 kmh NE 24.3 mph39.1 kmh 29.97 in1014.9 mb 0.00 in0.0 mm 0.00 in0.0 mm 0.02 in0.5 mm
03:08 PM 64.6°F18.1°C 50.0°F10.0°C 58% 21.6 mph NE34.8 kmh NE 22.6 mph36.4 kmh 29.97 in1014.9 mb 0.00 in0.0 mm 0.00 in0.0 mm 0.02 in0.5 mm
03:07 PM 64.4°F18.0°C 49.0°F9.4°C 58% 22.1 mph NE35.6 kmh NE 23.3 mph37.5 kmh 29.97 in1014.9 mb 0.00 in0.0 mm 0.00 in0.0 mm 0.02 in0.5 mm
03:06 PM 64.6°F18.1°C 49.0°F9.4°C 58% 21.9 mph NE35.2 kmh NE 23.1 mph37.2 kmh 29.97 in1014.9 mb 0.00 in0.0 mm 0.00 in0.0 mm 0.02 in0.5 mm
03:05 PM 64.8°F18.2°C 49.0°F9.4°C 58% 22.5 mph NE36.2 kmh NE 24.2 mph38.9 kmh 29.97 in1014.9 mb 0.00 in0.0 mm 0.00 in0.0 mm 0.02 in0.5 mm
03:04 PM 64.8°F18.2°C 49.0°F9.4°C 58% 22.2 mph NNE35.7 kmh NNE 23.6 mph38.0 kmh 29.97 in1014.9 mb 0.00 in0.0 mm 0.00 in0.0 mm 0.02 in0.5 mm
03:03 PM 64.9°F18.3°C 49.0°F9.4°C 57% 23.0 mph NE37.0 kmh NE 25.4 mph40.9 kmh 29.97 in1014.9 mb 0.00 in0.0 mm 0.00 in0.0 mm 0.02 in0.5 mm
03:02 PM 64.9°F18.3°C 50.0°F10.0°C 58% 22.6 mph NE36.4 kmh NE 24.2 mph38.9 kmh 29.97 in1014.9 mb 0.00 in0.0 mm 0.00 in0.0 mm 0.02 in0.5 mm
03:01 PM 64.9°F18.3°C 50.0°F10.0°C 58% 22.0 mph NE35.4 kmh NE 23.4 mph37.7 kmh 29.97 in1014.9 mb 0.00 in0.0 mm 0.00 in0.0 mm 0.02 in0.5 mm
03:00 PM 64.9°F18.3°C 49.0°F9.4°C 58% 22.1 mph NE35.6 kmh NE 23.3 mph37.5 kmh 29.97 in1014.9 mb 0.00 in0.0 mm 0.00 in0.0 mm 0.02 in0.5 mm
02:59 PM 65.1°F18.4°C 50.0°F10.0°C 58% 22.4 mph NE36.0 kmh NE 24.0 mph38.6 kmh 29.97 in1014.9 mb 0.00 in0.0 mm 0.00 in0.0 mm 0.02 in0.5 mm
02:58 PM 64.9°F18.3°C 50.0°F10.0°C 58% 22.8 mph NE36.7 kmh NE 24.7 mph39.8 kmh 29.97 in1014.9 mb 0.00 in0.0 mm 0.00 in0.0 mm 0.02 in0.5 mm
02:56 PM 64.9°F18.3°C 49.0°F9.4°C 58% 22.9 mph NE36.9 kmh NE 24.9 mph40.1 kmh 29.97 in1014.9 mb 0.00 in0.0 mm 0.00 in0.0 mm 0.02 in0.5 mm
02:55 PM 64.9°F18.3°C 49.0°F9.4°C 56% 23.2 mph NNE37.3 kmh NNE 25.2 mph40.6 kmh 29.97 in1014.9 mb 0.00 in0.0 mm 0.00 in0.0 mm 0.02 in0.5 mm
02:54 PM 64.9°F18.3°C 49.0°F9.4°C 57% 23.2 mph NE37.3 kmh NE 25.2 mph40.6 kmh 29.97 in1014.9 mb 0.00 in0.0 mm 0.00 in0.0 mm 0.02 in0.5 mm
02:53 PM 64.8°F18.2°C 49.0°F9.4°C 57% 21.4 mph NE34.4 kmh NE 22.3 mph35.9 kmh 29.97 in1014.9 mb 0.00 in0.0 mm 0.00 in0.0 mm 0.02 in0.5 mm
02:52 PM 64.9°F18.3°C 49.0°F9.4°C 57% 22.1 mph NE35.6 kmh NE 23.5 mph37.8 kmh 29.97 in1014.9 mb 0.00 in0.0 mm 0.00 in0.0 mm 0.02 in0.5 mm
02:51 PM 64.8°F18.2°C 49.0°F9.4°C 57% 23.6 mph NNE38.0 kmh NNE 26.2 mph42.2 kmh 29.97 in1014.9 mb 0.00 in0.0 mm 0.00 in0.0 mm 0.02 in0.5 mm
02:50 PM 64.8°F18.2°C 49.0°F9.4°C 58% 23.4 mph NE37.7 kmh NE 25.4 mph40.9 kmh 29.97 in1014.9 mb 0.00 in0.0 mm 0.00 in0.0 mm 0.02 in0.5 mm
02:49 PM 64.8°F18.2°C 49.0°F9.4°C 58% 22.7 mph NE36.5 kmh NE 24.7 mph39.8 kmh 29.97 in1014.9 mb 0.00 in0.0 mm 0.00 in0.0 mm 0.02 in0.5 mm
02:48 PM 64.8°F18.2°C 49.0°F9.4°C 58% 21.8 mph NE35.1 kmh NE 23.0 mph37.0 kmh 29.97 in1014.9 mb 0.00 in0.0 mm 0.00 in0.0 mm 0.02 in0.5 mm
02:47 PM 64.9°F18.3°C 49.0°F9.4°C 57% 21.8 mph E35.1 kmh E 22.9 mph36.9 kmh 29.97 in1014.9 mb 0.00 in0.0 mm 0.00 in0.0 mm 0.02 in0.5 mm
02:46 PM 64.9°F18.3°C 49.0°F9.4°C 57% 21.9 mph ENE35.2 kmh ENE 23.1 mph37.2 kmh 29.97 in1014.9 mb 0.00 in0.0 mm 0.00 in0.0 mm 0.02 in0.5 mm
02:44 PM 65.3°F18.5°C 49.0°F9.4°C 57% 21.6 mph ENE34.8 kmh ENE 22.7 mph36.5 kmh 29.97 in1014.9 mb 0.00 in0.0 mm 0.00 in0.0 mm 0.02 in0.5 mm
02:43 PM 65.3°F18.5°C 49.0°F9.4°C 57% 22.8 mph NE36.7 kmh NE 24.7 mph39.8 kmh 29.97 in1014.9 mb 0.00 in0.0 mm 0.00 in0.0 mm 0.02 in0.5 mm
02:42 PM 65.3°F18.5°C 49.0°F9.4°C 57% 23.1 mph NE37.2 kmh NE 25.1 mph40.4 kmh 29.97 in1014.9 mb 0.00 in0.0 mm 0.00 in0.0 mm 0.02 in0.5 mm
02:41 PM 65.5°F18.6°C 49.0°F9.4°C 56% 23.3 mph NNE37.5 kmh NNE 25.4 mph40.9 kmh 29.97 in1014.9 mb 0.00 in0.0 mm 0.00 in0.0 mm 0.02 in0.5 mm
02:40 PM 65.5°F18.6°C 49.0°F9.4°C 56% 23.1 mph NNE37.2 kmh NNE 25.1 mph40.4 kmh 29.97 in1014.9 mb 0.00 in0.0 mm 0.00 in0.0 mm 0.02 in0.5 mm
02:39 PM 65.5°F18.6°C 49.0°F9.4°C 56% 22.6 mph NE36.4 kmh NE 24.3 mph39.1 kmh 29.97 in1014.9 mb 0.00 in0.0 mm 0.00 in0.0 mm 0.02 in0.5 mm
02:38 PM 65.5°F18.6°C 49.0°F9.4°C 56% 22.3 mph NNE35.9 kmh NNE 23.9 mph38.5 kmh 29.97 in1014.9 mb 0.00 in0.0 mm 0.00 in0.0 mm 0.02 in0.5 mm
02:37 PM 65.5°F18.6°C 49.0°F9.4°C 56% 22.1 mph ENE35.6 kmh ENE 23.3 mph37.5 kmh 29.97 in1014.9 mb 0.00 in0.0 mm 0.00 in0.0 mm 0.02 in0.5 mm
02:36 PM 65.8°F18.8°C 50.0°F10.0°C 56% 22.4 mph NE36.0 kmh NE 23.8 mph38.3 kmh 29.97 in1014.9 mb 0.00 in0.0 mm 0.00 in0.0 mm 0.02 in0.5 mm
02:35 PM 66.0°F18.9°C 50.0°F10.0°C 57% 21.8 mph E35.1 kmh E 22.9 mph36.9 kmh 29.97 in1014.9 mb 0.00 in0.0 mm 0.00 in0.0 mm 0.02 in0.5 mm
02:34 PM 66.0°F18.9°C 50.0°F10.0°C 56% 21.6 mph NE34.8 kmh NE 22.5 mph36.2 kmh 29.97 in1014.9 mb 0.00 in0.0 mm 0.00 in0.0 mm 0.02 in0.5 mm
02:33 PM 66.0°F18.9°C 50.0°F10.0°C 56% 21.9 mph NNE35.2 kmh NNE 23.0 mph37.0 kmh 29.97 in1014.9 mb 0.00 in0.0 mm 0.00 in0.0 mm 0.02 in0.5 mm
02:32 PM 65.8°F18.8°C 49.0°F9.4°C 55% 21.2 mph NNE34.1 kmh NNE 22.0 mph35.4 kmh 29.97 in1014.9 mb 0.00 in0.0 mm 0.00 in0.0 mm 0.02 in0.5 mm
02:31 PM 65.8°F18.8°C 49.0°F9.4°C 56% 21.1 mph NNE34.0 kmh NNE 21.8 mph35.1 kmh 29.97 in1014.9 mb 0.00 in0.0 mm 0.00 in0.0 mm 0.02 in0.5 mm
02:30 PM 65.7°F18.7°C 49.0°F9.4°C 56% 21.8 mph NE35.1 kmh NE 22.9 mph36.9 kmh 29.97 in1014.9 mb 0.00 in0.0 mm 0.00 in0.0 mm 0.02 in0.5 mm
02:29 PM 65.7°F18.7°C 49.0°F9.4°C 56% 21.7 mph NNE34.9 kmh NNE 22.8 mph36.7 kmh 29.97 in1014.9 mb 0.00 in0.0 mm 0.00 in0.0 mm 0.02 in0.5 mm
02:28 PM 65.7°F18.7°C 50.0°F10.0°C 56% 22.0 mph NE35.4 kmh NE 23.2 mph37.3 kmh 29.97 in1014.9 mb 0.00 in0.0 mm 0.00 in0.0 mm 0.02 in0.5 mm
02:27 PM 65.7°F18.7°C 49.0°F9.4°C 55% 22.3 mph NNE35.9 kmh NNE 23.7 mph38.1 kmh 29.97 in1014.9 mb 0.00 in0.0 mm 0.00 in0.0 mm 0.02 in0.5 mm
02:26 PM 65.5°F18.6°C 50.0°F10.0°C 57% 22.1 mph NNE35.6 kmh NNE 23.4 mph37.7 kmh 29.97 in1014.9 mb 0.00 in0.0 mm 0.00 in0.0 mm 0.02 in0.5 mm
02:25 PM 65.5°F18.6°C 50.0°F10.0°C 57% 22.0 mph NE35.4 kmh NE 23.2 mph37.3 kmh 29.97 in1014.9 mb 0.00 in0.0 mm 0.00 in0.0 mm 0.02 in0.5 mm
02:24 PM 65.7°F18.7°C 49.0°F9.4°C 56% 21.7 mph NE34.9 kmh NE 22.8 mph36.7 kmh 29.97 in1014.9 mb 0.00 in0.0 mm 0.00 in0.0 mm 0.02 in0.5 mm
02:23 PM 65.7°F18.7°C 49.0°F9.4°C 56% 23.1 mph NE37.2 kmh NE 25.2 mph40.6 kmh 29.97 in1014.9 mb 0.00 in0.0 mm 0.00 in0.0 mm 0.02 in0.5 mm
02:22 PM 65.8°F18.8°C 49.0°F9.4°C 56% 21.6 mph NE34.8 kmh NE 22.8 mph36.7 kmh 29.97 in1014.9 mb 0.00 in0.0 mm 0.00 in0.0 mm 0.02 in0.5 mm
02:21 PM 66.0°F18.9°C 50.0°F10.0°C 56% 22.2 mph NE35.7 kmh NE 23.4 mph37.7 kmh 29.97 in1014.9 mb 0.00 in0.0 mm 0.00 in0.0 mm 0.02 in0.5 mm
02:20 PM 66.0°F18.9°C 49.0°F9.4°C 55% 23.1 mph NE37.2 kmh NE 25.2 mph40.6 kmh 29.97 in1014.9 mb 0.00 in0.0 mm 0.00 in0.0 mm 0.02 in0.5 mm
02:19 PM 66.0°F18.9°C 49.0°F9.4°C 55% 22.0 mph ENE35.4 kmh ENE 23.3 mph37.5 kmh 29.97 in1014.9 mb 0.00 in0.0 mm 0.00 in0.0 mm 0.02 in0.5 mm
02:18 PM 66.2°F19.0°C 49.0°F9.4°C 55% 22.7 mph NNE36.5 kmh NNE 24.6 mph39.6 kmh 29.97 in1014.9 mb 0.00 in0.0 mm 0.00 in0.0 mm 0.02 in0.5 mm
02:17 PM 66.2°F19.0°C 49.0°F9.4°C 55% 25.3 mph ENE40.7 kmh ENE 29.1 mph46.8 kmh 29.97 in1014.9 mb 0.00 in0.0 mm 0.00 in0.0 mm 0.02 in0.5 mm
02:16 PM 66.4°F19.1°C 49.0°F9.4°C 54% 23.8 mph NE38.3 kmh NE 26.3 mph42.3 kmh 29.97 in1014.9 mb 0.00 in0.0 mm 0.00 in0.0 mm 0.02 in0.5 mm
02:15 PM 66.4°F19.1°C 49.0°F9.4°C 55% 23.1 mph NE37.2 kmh NE 25.0 mph40.2 kmh 29.96 in1014.6 mb 0.00 in0.0 mm 0.00 in0.0 mm 0.02 in0.5 mm
02:14 PM 66.4°F19.1°C 49.0°F9.4°C 54% 23.5 mph NE37.8 kmh NE 25.4 mph40.9 kmh 29.97 in1014.9 mb 0.00 in0.0 mm 0.00 in0.0 mm 0.02 in0.5 mm
02:13 PM 66.4°F19.1°C 50.0°F10.0°C 55% 22.6 mph NE36.4 kmh NE 24.5 mph39.4 kmh 29.97 in1014.9 mb 0.00 in0.0 mm 0.00 in0.0 mm 0.02 in0.5 mm
02:12 PM 66.4°F19.1°C 50.0°F10.0°C 55% 22.5 mph NE36.2 kmh NE 24.2 mph38.9 kmh 29.96 in1014.6 mb 0.00 in0.0 mm 0.00 in0.0 mm 0.02 in0.5 mm
02:11 PM 66.6°F19.2°C 50.0°F10.0°C 56% 21.6 mph E34.8 kmh E 22.8 mph36.7 kmh 29.96 in1014.6 mb 0.00 in0.0 mm 0.00 in0.0 mm 0.02 in0.5 mm
02:10 PM 66.4°F19.1°C 50.0°F10.0°C 56% 21.6 mph NE34.8 kmh NE 22.7 mph36.5 kmh 29.97 in1014.9 mb 0.00 in0.0 mm 0.00 in0.0 mm 0.02 in0.5 mm
02:09 PM 66.4°F19.1°C 50.0°F10.0°C 55% 22.8 mph NE36.7 kmh NE 24.7 mph39.8 kmh 29.96 in1014.6 mb 0.00 in0.0 mm 0.00 in0.0 mm 0.02 in0.5 mm
02:08 PM 66.4°F19.1°C 49.0°F9.4°C 55% 22.8 mph NE36.7 kmh NE 24.7 mph39.8 kmh 29.96 in1014.6 mb 0.00 in0.0 mm 0.00 in0.0 mm 0.02 in0.5 mm
02:07 PM 66.6°F19.2°C 49.0°F9.4°C 54% 23.0 mph NE37.0 kmh NE 25.0 mph40.2 kmh 29.96 in1014.6 mb 0.00 in0.0 mm 0.00 in0.0 mm 0.02 in0.5 mm
02:06 PM 66.7°F19.3°C 50.0°F10.0°C 54% 21.1 mph ENE34.0 kmh ENE 21.9 mph35.2 kmh 29.96 in1014.6 mb 0.00 in0.0 mm 0.00 in0.0 mm 0.02 in0.5 mm
02:05 PM 66.6°F19.2°C 49.0°F9.4°C 54% 21.4 mph ENE34.4 kmh ENE 22.3 mph35.9 kmh 29.96 in1014.6 mb 0.00 in0.0 mm 0.00 in0.0 mm 0.02 in0.5 mm
02:04 PM 66.6°F19.2°C 49.0°F9.4°C 54% 21.6 mph SE34.8 kmh SE 22.7 mph36.5 kmh 29.96 in1014.6 mb 0.00 in0.0 mm 0.00 in0.0 mm 0.02 in0.5 mm
02:03 PM 66.6°F19.2°C 50.0°F10.0°C 55% 22.3 mph ENE35.9 kmh ENE 23.7 mph38.1 kmh 29.96 in1014.6 mb 0.00 in0.0 mm 0.00 in0.0 mm 0.02 in0.5 mm
02:02 PM 66.4°F19.1°C 49.0°F9.4°C 55% 21.7 mph NE34.9 kmh NE 23.1 mph37.2 kmh 29.96 in1014.6 mb 0.00 in0.0 mm 0.00 in0.0 mm 0.02 in0.5 mm
02:01 PM 66.4°F19.1°C 49.0°F9.4°C 54% 22.0 mph NE35.4 kmh NE 23.2 mph37.3 kmh 29.96 in1014.6 mb 0.00 in0.0 mm 0.00 in0.0 mm 0.02 in0.5 mm
02:00 PM 66.2°F19.0°C 49.0°F9.4°C 55% 21.5 mph SE34.6 kmh SE 22.4 mph36.0 kmh 29.96 in1014.6 mb 0.00 in0.0 mm 0.00 in0.0 mm 0.02 in0.5 mm
01:59 PM 66.2°F19.0°C 49.0°F9.4°C 55% 22.6 mph E36.4 kmh E 24.2 mph38.9 kmh 29.96 in1014.6 mb 0.00 in0.0 mm 0.00 in0.0 mm 0.02 in0.5 mm
01:58 PM 66.6°F19.2°C 50.0°F10.0°C 56% 22.9 mph E36.9 kmh E 24.8 mph39.9 kmh 29.96 in1014.6 mb 0.00 in0.0 mm 0.00 in0.0 mm 0.02 in0.5 mm
01:57 PM 66.7°F19.3°C 49.0°F9.4°C 54% 22.9 mph ENE36.9 kmh ENE 24.8 mph39.9 kmh 29.96 in1014.6 mb 0.00 in0.0 mm 0.00 in0.0 mm 0.02 in0.5 mm
01:56 PM 66.9°F19.4°C 50.0°F10.0°C 54% 22.6 mph NE36.4 kmh NE 24.3 mph39.1 kmh 29.96 in1014.6 mb 0.00 in0.0 mm 0.00 in0.0 mm 0.02 in0.5 mm
01:55 PM 66.9°F19.4°C 49.0°F9.4°C 54% 22.2 mph ENE35.7 kmh ENE 23.7 mph38.1 kmh 29.96 in1014.6 mb 0.00 in0.0 mm 0.00 in0.0 mm 0.02 in0.5 mm
01:54 PM 67.1°F19.5°C 50.0°F10.0°C 54% 22.1 mph NE35.6 kmh NE 23.7 mph38.1 kmh 29.96 in1014.6 mb 0.00 in0.0 mm 0.00 in0.0 mm 0.02 in0.5 mm
01:53 PM 66.9°F19.4°C 49.0°F9.4°C 53% 21.6 mph SE34.8 kmh SE 22.6 mph36.4 kmh 29.96 in1014.6 mb 0.00 in0.0 mm 0.00 in0.0 mm 0.02 in0.5 mm
01:52 PM 67.1°F19.5°C 50.0°F10.0°C 54% 21.6 mph E34.8 kmh E 22.6 mph36.4 kmh 29.96 in1014.6 mb 0.00 in0.0 mm 0.00 in0.0 mm 0.02 in0.5 mm
01:51 PM 66.9°F19.4°C 49.0°F9.4°C 54% 21.8 mph ENE35.1 kmh ENE 22.8 mph36.7 kmh 29.96 in1014.6 mb 0.00 in0.0 mm 0.00 in0.0 mm 0.02 in0.5 mm
01:50 PM 67.5°F19.7°C 49.0°F9.4°C 53% 21.9 mph NE35.2 kmh NE 23.0 mph37.0 kmh 29.96 in1014.6 mb 0.00 in0.0 mm 0.00 in0.0 mm 0.02 in0.5 mm
01:49 PM 67.5°F19.7°C 50.0°F10.0°C 53% 22.4 mph NE36.0 kmh NE 24.0 mph38.6 kmh 29.96 in1014.6 mb 0.00 in0.0 mm 0.00 in0.0 mm 0.02 in0.5 mm
01:48 PM 67.5°F19.7°C 49.0°F9.4°C 53% 23.3 mph ENE37.5 kmh ENE 25.4 mph40.9 kmh 29.96 in1014.6 mb 0.00 in0.0 mm 0.00 in0.0 mm 0.02 in0.5 mm
01:47 PM 67.3°F19.6°C 50.0°F10.0°C 54% 23.1 mph NE37.2 kmh NE 25.4 mph40.9 kmh 29.96 in1014.6 mb 0.00 in0.0 mm 0.00 in0.0 mm 0.02 in0.5 mm
01:46 PM 66.9°F19.4°C 50.0°F10.0°C 54% 21.6 mph NE34.8 kmh NE 22.6 mph36.4 kmh 29.96 in1014.6 mb 0.00 in0.0 mm 0.00 in0.0 mm 0.02 in0.5 mm
01:45 PM 66.7°F19.3°C 50.0°F10.0°C 55% 22.4 mph ENE36.0 kmh ENE 23.9 mph38.5 kmh 29.96 in1014.6 mb 0.00 in0.0 mm 0.00 in0.0 mm 0.02 in0.5 mm
01:44 PM 66.4°F19.1°C 49.0°F9.4°C 54% 23.1 mph NNE37.2 kmh NNE 25.3 mph40.7 kmh 29.96 in1014.6 mb 0.00 in0.0 mm 0.00 in0.0 mm 0.02 in0.5 mm
01:43 PM 66.4°F19.1°C 50.0°F10.0°C 55% 22.2 mph NE35.7 kmh NE 23.8 mph38.3 kmh 29.96 in1014.6 mb 0.00 in0.0 mm 0.00 in0.0 mm 0.02 in0.5 mm
01:42 PM 66.6°F19.2°C 49.0°F9.4°C 54% 22.7 mph NE36.5 kmh NE 24.7 mph39.8 kmh 29.96 in1014.6 mb 0.00 in0.0 mm 0.00 in0.0 mm 0.02 in0.5 mm
01:41 PM 66.4°F19.1°C 50.0°F10.0°C 55% 21.2 mph E34.1 kmh E 21.9 mph35.2 kmh 29.96 in1014.6 mb 0.00 in0.0 mm 0.00 in0.0 mm 0.02 in0.5 mm
01:40 PM 66.4°F19.1°C 50.0°F10.0°C 56% 22.2 mph ENE35.7 kmh ENE 23.6 mph38.0 kmh 29.96 in1014.6 mb 0.00 in0.0 mm 0.00 in0.0 mm 0.02 in0.5 mm
01:39 PM 66.4°F19.1°C 50.0°F10.0°C 56% 21.9 mph NE35.2 kmh NE 23.1 mph37.2 kmh 29.96 in1014.6 mb 0.00 in0.0 mm 0.00 in0.0 mm 0.02 in0.5 mm
01:38 PM 66.4°F19.1°C 49.0°F9.4°C 55% 21.9 mph NE35.2 kmh NE 23.1 mph37.2 kmh 29.96 in1014.6 mb 0.00 in0.0 mm 0.00 in0.0 mm 0.02 in0.5 mm
01:37 PM 66.4°F19.1°C 50.0°F10.0°C 56% 21.8 mph NE35.1 kmh NE 22.8 mph36.7 kmh 29.96 in1014.6 mb 0.00 in0.0 mm 0.00 in0.0 mm 0.02 in0.5 mm
01:36 PM 66.4°F19.1°C 50.0°F10.0°C 55% 22.6 mph NE36.4 kmh NE 24.4 mph39.3 kmh 29.96 in1014.6 mb 0.00 in0.0 mm 0.00 in0.0 mm 0.02 in0.5 mm
01:35 PM 66.2°F19.0°C 50.0°F10.0°C 56% 22.6 mph ENE36.4 kmh ENE 24.4 mph39.3 kmh 29.96 in1014.6 mb 0.00 in0.0 mm 0.00 in0.0 mm 0.02 in0.5 mm
01:34 PM 66.2°F19.0°C 50.0°F10.0°C 56% 22.1 mph NE35.6 kmh NE 23.4 mph37.7 kmh 29.96 in1014.6 mb 0.00 in0.0 mm 0.00 in0.0 mm 0.02 in0.5 mm
01:33 PM 66.4°F19.1°C 50.0°F10.0°C 55% 22.5 mph NE36.2 kmh NE 24.0 mph38.6 kmh 29.96 in1014.6 mb 0.00 in0.0 mm 0.00 in0.0 mm 0.02 in0.5 mm
01:32 PM 66.4°F19.1°C 50.0°F10.0°C 56% 22.1 mph ENE35.6 kmh ENE 23.5 mph37.8 kmh 29.96 in1014.6 mb 0.00 in0.0 mm 0.00 in0.0 mm 0.02 in0.5 mm
01:31 PM 66.4°F19.1°C 50.0°F10.0°C 56% 22.5 mph NE36.2 kmh NE 24.3 mph39.1 kmh 29.96 in1014.6 mb 0.00 in0.0 mm 0.00 in0.0 mm 0.02 in0.5 mm
01:30 PM 66.4°F19.1°C 50.0°F10.0°C 57% 22.0 mph NE35.4 kmh NE 23.4 mph37.7 kmh 29.96 in1014.6 mb 0.00 in0.0 mm 0.00 in0.0 mm 0.02 in0.5 mm
01:29 PM 66.0°F18.9°C 50.0°F10.0°C 56% 21.5 mph ENE34.6 kmh ENE 22.6 mph36.4 kmh 29.96 in1014.6 mb 0.00 in0.0 mm 0.00 in0.0 mm 0.02 in0.5 mm
01:28 PM 65.8°F18.8°C 50.0°F10.0°C 57% 21.9 mph NE35.2 kmh NE 22.9 mph36.9 kmh 29.96 in1014.6 mb 0.00 in0.0 mm 0.00 in0.0 mm 0.02 in0.5 mm
01:27 PM 65.7°F18.7°C 50.0°F10.0°C 57% 22.8 mph NE36.7 kmh NE 24.7 mph39.8 kmh 29.96 in1014.6 mb 0.00 in0.0 mm 0.00 in0.0 mm 0.02 in0.5 mm
01:26 PM 65.7°F18.7°C 50.0°F10.0°C 56% 21.3 mph E34.3 kmh E 22.0 mph35.4 kmh 29.96 in1014.6 mb 0.00 in0.0 mm 0.00 in0.0 mm 0.02 in0.5 mm
01:25 PM 65.7°F18.7°C 50.0°F10.0°C 56% 21.6 mph E34.8 kmh E 22.6 mph36.4 kmh 29.96 in1014.6 mb 0.00 in0.0 mm 0.00 in0.0 mm 0.02 in0.5 mm
01:24 PM 65.8°F18.8°C 50.0°F10.0°C 57% 21.7 mph E34.9 kmh E 22.8 mph36.7 kmh 29.96 in1014.6 mb 0.00 in0.0 mm 0.00 in0.0 mm 0.02 in0.5 mm
01:23 PM 65.8°F18.8°C 50.0°F10.0°C 56% 22.1 mph NE35.6 kmh NE 23.4 mph37.7 kmh 29.96 in1014.6 mb 0.00 in0.0 mm 0.00 in0.0 mm 0.02 in0.5 mm
01:22 PM 65.8°F18.8°C 50.0°F10.0°C 56% 21.5 mph NE34.6 kmh NE 22.5 mph36.2 kmh 29.96 in1014.6 mb 0.00 in0.0 mm 0.00 in0.0 mm 0.02 in0.5 mm
01:20 PM 66.0°F18.9°C 49.0°F9.4°C 55% 21.7 mph ENE34.9 kmh ENE 22.9 mph36.9 kmh 29.96 in1014.6 mb 0.00 in0.0 mm 0.00 in0.0 mm 0.02 in0.5 mm
01:19 PM 66.0°F18.9°C 50.0°F10.0°C 56% 21.6 mph NE34.8 kmh NE 22.6 mph36.4 kmh 29.96 in1014.6 mb 0.00 in0.0 mm 0.00 in0.0 mm 0.02 in0.5 mm
01:18 PM 66.0°F18.9°C 50.0°F10.0°C 57% 21.5 mph NE34.6 kmh NE 22.5 mph36.2 kmh 29.96 in1014.6 mb 0.00 in0.0 mm 0.00 in0.0 mm 0.02 in0.5 mm
01:17 PM 66.0°F18.9°C 50.0°F10.0°C 57% 21.0 mph E33.8 kmh E 21.7 mph34.9 kmh 29.96 in1014.6 mb 0.00 in0.0 mm 0.00 in0.0 mm 0.02 in0.5 mm
01:16 PM 66.0°F18.9°C 50.0°F10.0°C 57% 20.3 mph NE32.7 kmh NE 20.6 mph33.2 kmh 29.96 in1014.6 mb 0.00 in0.0 mm 0.00 in0.0 mm 0.02 in0.5 mm
01:15 PM 66.0°F18.9°C 50.0°F10.0°C 57% 21.3 mph NE34.3 kmh NE 22.0 mph35.4 kmh 29.96 in1014.6 mb 0.00 in0.0 mm 0.00 in0.0 mm 0.02 in0.5 mm
01:14 PM 66.0°F18.9°C 50.0°F10.0°C 56% 21.1 mph NE34.0 kmh NE 21.8 mph35.1 kmh 29.96 in1014.6 mb 0.00 in0.0 mm 0.00 in0.0 mm 0.02 in0.5 mm
01:13 PM 66.0°F18.9°C 49.0°F9.4°C 55% 21.5 mph ESE34.6 kmh ESE 22.6 mph36.4 kmh 29.96 in1014.6 mb 0.00 in0.0 mm 0.00 in0.0 mm 0.02 in0.5 mm
01:12 PM 66.0°F18.9°C 49.0°F9.4°C 56% 21.8 mph NE35.1 kmh NE 22.9 mph36.9 kmh 29.96 in1014.6 mb 0.00 in0.0 mm 0.00 in0.0 mm 0.02 in0.5 mm
01:11 PM 66.2°F19.0°C 50.0°F10.0°C 55% 21.9 mph NE35.2 kmh NE 23.1 mph37.2 kmh 29.96 in1014.6 mb 0.00 in0.0 mm 0.00 in0.0 mm 0.02 in0.5 mm
01:10 PM 66.6°F19.2°C 50.0°F10.0°C 56% 21.2 mph E34.1 kmh E 22.0 mph35.4 kmh 29.96 in1014.6 mb 0.00 in0.0 mm 0.00 in0.0 mm 0.02 in0.5 mm
01:09 PM 66.9°F19.4°C 50.0°F10.0°C 55% 21.7 mph E34.9 kmh E 22.6 mph36.4 kmh 29.96 in1014.6 mb 0.00 in0.0 mm 0.00 in0.0 mm 0.02 in0.5 mm
01:08 PM 66.7°F19.3°C 50.0°F10.0°C 55% 22.9 mph NE36.9 kmh NE 24.8 mph39.9 kmh 29.96 in1014.6 mb 0.00 in0.0 mm 0.00 in0.0 mm 0.02 in0.5 mm
01:07 PM 66.9°F19.4°C 51.0°F10.6°C 56% 21.2 mph NE34.1 kmh NE 22.0 mph35.4 kmh 29.96 in1014.6 mb 0.00 in0.0 mm 0.00 in0.0 mm 0.02 in0.5 mm
01:06 PM 66.9°F19.4°C 50.0°F10.0°C 55% 21.1 mph ENE34.0 kmh ENE 21.8 mph35.1 kmh 29.96 in1014.6 mb 0.00 in0.0 mm 0.00 in0.0 mm 0.02 in0.5 mm
01:05 PM 66.9°F19.4°C 50.0°F10.0°C 55% 21.2 mph NNE34.1 kmh NNE 21.9 mph35.2 kmh 29.96 in1014.6 mb 0.00 in0.0 mm 0.00 in0.0 mm 0.02 in0.5 mm
01:04 PM 66.9°F19.4°C 50.0°F10.0°C 55% 21.6 mph ESE34.8 kmh ESE 22.6 mph36.4 kmh 29.96 in1014.6 mb 0.00 in0.0 mm 0.00 in0.0 mm 0.02 in0.5 mm
01:03 PM 66.9°F19.4°C 50.0°F10.0°C 55% 21.6 mph NE34.8 kmh NE 22.6 mph36.4 kmh 29.96 in1014.6 mb 0.00 in0.0 mm 0.00 in0.0 mm 0.02 in0.5 mm
01:02 PM 66.9°F19.4°C 50.0°F10.0°C 54% 22.2 mph ENE35.7 kmh ENE 23.6 mph38.0 kmh 29.96 in1014.6 mb 0.00 in0.0 mm 0.00 in0.0 mm 0.02 in0.5 mm
01:01 PM 67.1°F19.5°C 50.0°F10.0°C 54% 22.9 mph NE36.9 kmh NE 24.6 mph39.6 kmh 29.96 in1014.6 mb 0.00 in0.0 mm 0.00 in0.0 mm 0.02 in0.5 mm
01:00 PM 67.1°F19.5°C 50.0°F10.0°C 55% 22.7 mph NE36.5 kmh NE 24.5 mph39.4 kmh 29.96 in1014.6 mb 0.00 in0.0 mm 0.00 in0.0 mm 0.02 in0.5 mm
12:59 PM 66.9°F19.4°C 50.0°F10.0°C 54% 22.1 mph NE35.6 kmh NE 23.4 mph37.7 kmh 29.96 in1014.6 mb 0.00 in0.0 mm 0.00 in0.0 mm 0.02 in0.5 mm
12:58 PM 66.9°F19.4°C 50.0°F10.0°C 55% 22.2 mph ESE35.7 kmh ESE 23.8 mph38.3 kmh 29.96 in1014.6 mb 0.00 in0.0 mm 0.00 in0.0 mm 0.02 in0.5 mm
12:57 PM 66.4°F19.1°C 49.0°F9.4°C 54% 22.1 mph E35.6 kmh E 23.4 mph37.7 kmh 29.97 in1014.9 mb 0.00 in0.0 mm 0.00 in0.0 mm 0.02 in0.5 mm
12:56 PM 66.4°F19.1°C 50.0°F10.0°C 56% 21.6 mph SE34.8 kmh SE 22.6 mph36.4 kmh 29.97 in1014.9 mb 0.00 in0.0 mm 0.00 in0.0 mm 0.02 in0.5 mm
12:55 PM 66.4°F19.1°C 49.0°F9.4°C 55% 23.7 mph SE38.1 kmh SE 26.3 mph42.3 kmh 29.97 in1014.9 mb 0.00 in0.0 mm 0.00 in0.0 mm 0.02 in0.5 mm
12:54 PM 66.4°F19.1°C 50.0°F10.0°C 55% 21.6 mph E34.8 kmh E 22.6 mph36.4 kmh 29.97 in1014.9 mb 0.00 in0.0 mm 0.00 in0.0 mm 0.02 in0.5 mm
12:53 PM 66.6°F19.2°C 49.0°F9.4°C 54% 22.1 mph SE35.6 kmh SE 23.6 mph38.0 kmh 29.96 in1014.6 mb 0.00 in0.0 mm 0.00 in0.0 mm 0.02 in0.5 mm
12:52 PM 66.7°F19.3°C 49.0°F9.4°C 54% 21.3 mph E34.3 kmh E 22.3 mph35.9 kmh 29.97 in1014.9 mb 0.00 in0.0 mm 0.00 in0.0 mm 0.02 in0.5 mm
12:51 PM 66.9°F19.4°C 50.0°F10.0°C 54% 21.4 mph ENE34.4 kmh ENE 22.2 mph35.7 kmh 29.96 in1014.6 mb 0.00 in0.0 mm 0.00 in0.0 mm 0.02 in0.5 mm
12:50 PM 66.9°F19.4°C 50.0°F10.0°C 54% 23.3 mph SE37.5 kmh SE 25.3 mph40.7 kmh 29.97 in1014.9 mb 0.00 in0.0 mm 0.00 in0.0 mm 0.02 in0.5 mm
12:49 PM 66.7°F19.3°C 50.0°F10.0°C 55% 21.4 mph ESE34.4 kmh ESE 22.3 mph35.9 kmh 29.97 in1014.9 mb 0.00 in0.0 mm 0.00 in0.0 mm 0.02 in0.5 mm
12:48 PM 66.7°F19.3°C 50.0°F10.0°C 55% 21.8 mph SE35.1 kmh SE 22.9 mph36.9 kmh 29.96 in1014.6 mb 0.00 in0.0 mm 0.00 in0.0 mm 0.02 in0.5 mm
12:47 PM 66.4°F19.1°C 50.0°F10.0°C 55% 21.7 mph SE34.9 kmh SE 22.8 mph36.7 kmh 29.96 in1014.6 mb 0.00 in0.0 mm 0.00 in0.0 mm 0.02 in0.5 mm
12:46 PM 66.4°F19.1°C 50.0°F10.0°C 56% 20.9 mph E33.6 kmh E 21.4 mph34.4 kmh 29.96 in1014.6 mb 0.00 in0.0 mm 0.00 in0.0 mm 0.02 in0.5 mm
12:45 PM 65.8°F18.8°C 49.0°F9.4°C 55% 20.9 mph E33.6 kmh E 21.4 mph34.4 kmh 29.96 in1014.6 mb 0.00 in0.0 mm 0.00 in0.0 mm 0.02 in0.5 mm
12:44 PM 65.8°F18.8°C 50.0°F10.0°C 56% 21.7 mph E34.9 kmh E 22.9 mph36.9 kmh 29.96 in1014.6 mb 0.00 in0.0 mm 0.00 in0.0 mm 0.02 in0.5 mm
12:43 PM 65.8°F18.8°C 49.0°F9.4°C 56% 21.3 mph NE34.3 kmh NE 22.2 mph35.7 kmh 29.97 in1014.9 mb 0.00 in0.0 mm 0.00 in0.0 mm 0.02 in0.5 mm
12:42 PM 66.0°F18.9°C 49.0°F9.4°C 55% 21.9 mph NE35.2 kmh NE 23.0 mph37.0 kmh 29.97 in1014.9 mb 0.00 in0.0 mm 0.00 in0.0 mm 0.02 in0.5 mm
12:41 PM 66.0°F18.9°C 50.0°F10.0°C 56% 21.3 mph E34.3 kmh E 22.1 mph35.6 kmh 29.97 in1014.9 mb 0.00 in0.0 mm 0.00 in0.0 mm 0.02 in0.5 mm
12:40 PM 66.2°F19.0°C 49.0°F9.4°C 54% 21.4 mph ENE34.4 kmh ENE 22.2 mph35.7 kmh 29.97 in1014.9 mb 0.00 in0.0 mm 0.00 in0.0 mm 0.02 in0.5 mm
12:39 PM 66.0°F18.9°C 50.0°F10.0°C 56% 22.8 mph E36.7 kmh E 24.8 mph39.9 kmh 29.96 in1014.6 mb 0.00 in0.0 mm 0.00 in0.0 mm 0.02 in0.5 mm
12:38 PM 66.2°F19.0°C 50.0°F10.0°C 56% 23.1 mph NE37.2 kmh NE 25.5 mph41.0 kmh 29.96 in1014.6 mb 0.00 in0.0 mm 0.00 in0.0 mm 0.02 in0.5 mm
12:37 PM 66.2°F19.0°C 49.0°F9.4°C 55% 21.8 mph E35.1 kmh E 22.8 mph36.7 kmh 29.97 in1014.9 mb 0.00 in0.0 mm 0.00 in0.0 mm 0.02 in0.5 mm
12:36 PM 66.0°F18.9°C 49.0°F9.4°C 55% 23.0 mph NE37.0 kmh NE 25.1 mph40.4 kmh 29.97 in1014.9 mb 0.00 in0.0 mm 0.00 in0.0 mm 0.02 in0.5 mm
12:35 PM 66.2°F19.0°C 49.0°F9.4°C 55% 21.9 mph ENE35.2 kmh ENE 23.1 mph37.2 kmh 29.96 in1014.6 mb 0.00 in0.0 mm 0.00 in0.0 mm 0.02 in0.5 mm
12:34 PM 66.4°F19.1°C 49.0°F9.4°C 55% 21.8 mph E35.1 kmh E 23.0 mph37.0 kmh 29.96 in1014.6 mb 0.00 in0.0 mm 0.00 in0.0 mm 0.02 in0.5 mm
12:33 PM 66.4°F19.1°C 49.0°F9.4°C 54% 22.2 mph ESE35.7 kmh ESE 23.6 mph38.0 kmh 29.96 in1014.6 mb 0.00 in0.0 mm 0.00 in0.0 mm 0.02 in0.5 mm
12:32 PM 66.2°F19.0°C 50.0°F10.0°C 55% 23.9 mph NE38.5 kmh NE 26.8 mph43.1 kmh 29.96 in1014.6 mb 0.00 in0.0 mm 0.00 in0.0 mm 0.02 in0.5 mm
12:31 PM 66.2°F19.0°C 49.0°F9.4°C 55% 23.9 mph E38.5 kmh E 22.4 mph36.0 kmh 29.96 in1014.6 mb 0.00 in0.0 mm 0.00 in0.0 mm 0.02 in0.5 mm
12:30 PM 66.6°F19.2°C 50.0°F10.0°C 55% 22.5 mph NE36.2 kmh NE 24.1 mph38.8 kmh 29.96 in1014.6 mb 0.00 in0.0 mm 0.00 in0.0 mm 0.02 in0.5 mm
12:29 PM 66.6°F19.2°C 50.0°F10.0°C 55% 21.6 mph ENE34.8 kmh ENE 22.6 mph36.4 kmh 29.96 in1014.6 mb 0.00 in0.0 mm 0.00 in0.0 mm 0.02 in0.5 mm
12:28 PM 66.7°F19.3°C 50.0°F10.0°C 54% 21.1 mph E34.0 kmh E 21.7 mph34.9 kmh 29.97 in1014.9 mb 0.00 in0.0 mm 0.00 in0.0 mm 0.02 in0.5 mm
12:27 PM 66.6°F19.2°C 50.0°F10.0°C 55% 20.8 mph ENE33.5 kmh ENE 21.3 mph34.3 kmh 29.96 in1014.6 mb 0.00 in0.0 mm 0.00 in0.0 mm 0.02 in0.5 mm
12:26 PM 66.4°F19.1°C 49.0°F9.4°C 53% 20.7 mph ENE33.3 kmh ENE 21.1 mph34.0 kmh 29.97 in1014.9 mb 0.00 in0.0 mm 0.00 in0.0 mm 0.02 in0.5 mm
12:25 PM 66.2°F19.0°C 49.0°F9.4°C 55% 20.8 mph E33.5 kmh E 21.4 mph34.4 kmh 29.97 in1014.9 mb 0.00 in0.0 mm 0.00 in0.0 mm 0.02 in0.5 mm
12:24 PM 66.4°F19.1°C 49.0°F9.4°C 55% 21.6 mph ESE34.8 kmh ESE 22.6 mph36.4 kmh 29.97 in1014.9 mb 0.00 in0.0 mm 0.00 in0.0 mm 0.02 in0.5 mm
12:23 PM 66.2°F19.0°C 50.0°F10.0°C 56% 20.9 mph NE33.6 kmh NE 21.5 mph34.6 kmh 29.97 in1014.9 mb 0.00 in0.0 mm 0.00 in0.0 mm 0.02 in0.5 mm
12:22 PM 66.2°F19.0°C 49.0°F9.4°C 55% 21.0 mph ENE33.8 kmh ENE 21.6 mph34.8 kmh 29.97 in1014.9 mb 0.00 in0.0 mm 0.00 in0.0 mm 0.02 in0.5 mm
12:21 PM 66.2°F19.0°C 50.0°F10.0°C 55% 21.7 mph NE34.9 kmh NE 22.7 mph36.5 kmh 29.97 in1014.9 mb 0.00 in0.0 mm 0.00 in0.0 mm 0.02 in0.5 mm
12:20 PM 66.4°F19.1°C 50.0°F10.0°C 55% 23.6 mph SSE38.0 kmh SSE 26.1 mph42.0 kmh 29.97 in1014.9 mb 0.00 in0.0 mm 0.00 in0.0 mm 0.02 in0.5 mm
12:19 PM 66.4°F19.1°C 49.0°F9.4°C 55% 22.6 mph E36.4 kmh E 24.8 mph39.9 kmh 29.97 in1014.9 mb 0.00 in0.0 mm 0.00 in0.0 mm 0.02 in0.5 mm
12:18 PM 66.6°F19.2°C 50.0°F10.0°C 55% 21.3 mph ENE34.3 kmh ENE 22.1 mph35.6 kmh 29.97 in1014.9 mb 0.00 in0.0 mm 0.00 in0.0 mm 0.02 in0.5 mm
12:17 PM 67.3°F19.6°C 50.0°F10.0°C 54% 21.6 mph NE34.8 kmh NE 22.6 mph36.4 kmh 29.97 in1014.9 mb 0.00 in0.0 mm 0.00 in0.0 mm 0.02 in0.5 mm
12:16 PM 67.3°F19.6°C 49.0°F9.4°C 53% 21.0 mph NE33.8 kmh NE 21.6 mph34.8 kmh 29.97 in1014.9 mb 0.00 in0.0 mm 0.00 in0.0 mm 0.02 in0.5 mm
12:15 PM 67.3°F19.6°C 49.0°F9.4°C 53% 21.3 mph SE34.3 kmh SE 22.1 mph35.6 kmh 29.97 in1014.9 mb 0.00 in0.0 mm 0.00 in0.0 mm 0.02 in0.5 mm
12:14 PM 66.7°F19.3°C 50.0°F10.0°C 55% 21.3 mph SE34.3 kmh SE 22.1 mph35.6 kmh 29.97 in1014.9 mb 0.00 in0.0 mm 0.00 in0.0 mm 0.02 in0.5 mm
12:13 PM 66.7°F19.3°C 49.0°F9.4°C 54% 22.1 mph SE35.6 kmh SE 23.7 mph38.1 kmh 29.97 in1014.9 mb 0.00 in0.0 mm 0.00 in0.0 mm 0.02 in0.5 mm
12:12 PM 66.9°F19.4°C 49.0°F9.4°C 53% 22.7 mph E36.5 kmh E 24.4 mph39.3 kmh 29.97 in1014.9 mb 0.00 in0.0 mm 0.00 in0.0 mm 0.02 in0.5 mm
12:11 PM 66.9°F19.4°C 49.0°F9.4°C 53% 21.4 mph ENE34.4 kmh ENE 22.3 mph35.9 kmh 29.97 in1014.9 mb 0.00 in0.0 mm 0.00 in0.0 mm 0.02 in0.5 mm
12:10 PM 67.8°F19.9°C 50.0°F10.0°C 53% 21.1 mph E34.0 kmh E 21.7 mph34.9 kmh 29.97 in1014.9 mb 0.00 in0.0 mm 0.00 in0.0 mm 0.02 in0.5 mm
12:09 PM 68.0°F20.0°C 50.0°F10.0°C 52% 21.0 mph E33.8 kmh E 21.7 mph34.9 kmh 29.97 in1014.9 mb 0.00 in0.0 mm 0.00 in0.0 mm 0.02 in0.5 mm
12:08 PM 68.2°F20.1°C 50.0°F10.0°C 52% 21.7 mph ESE34.9 kmh ESE 22.9 mph36.9 kmh 29.97 in1014.9 mb 0.00 in0.0 mm 0.00 in0.0 mm 0.02 in0.5 mm
12:06 PM 68.2°F20.1°C 49.0°F9.4°C 50% 21.1 mph NE34.0 kmh NE 21.9 mph35.2 kmh 29.96 in1014.6 mb 0.00 in0.0 mm 0.00 in0.0 mm 0.02 in0.5 mm
12:05 PM 68.2°F20.1°C 49.0°F9.4°C 51% 21.2 mph ESE34.1 kmh ESE 21.9 mph35.2 kmh 29.96 in1014.6 mb 0.00 in0.0 mm 0.00 in0.0 mm 0.02 in0.5 mm
12:04 PM 68.2°F20.1°C 49.0°F9.4°C 50% 23.8 mph SE38.3 kmh SE 26.1 mph42.0 kmh 29.97 in1014.9 mb 0.00 in0.0 mm 0.00 in0.0 mm 0.02 in0.5 mm
12:03 PM 68.0°F20.0°C 48.0°F8.9°C 50% 23.2 mph SE37.3 kmh SE 25.5 mph41.0 kmh 29.97 in1014.9 mb 0.00 in0.0 mm 0.00 in0.0 mm 0.02 in0.5 mm
12:02 PM 67.3°F19.6°C 49.0°F9.4°C 51% 22.7 mph SE36.5 kmh SE 24.6 mph39.6 kmh 29.97 in1014.9 mb 0.00 in0.0 mm 0.00 in0.0 mm 0.02 in0.5 mm
12:01 PM 67.3°F19.6°C 48.0°F8.9°C 51% 21.5 mph ENE34.6 kmh ENE 22.6 mph36.4 kmh 29.97 in1014.9 mb 0.00 in0.0 mm 0.00 in0.0 mm 0.02 in0.5 mm
12:00 PM 67.1°F19.5°C 49.0°F9.4°C 51% 21.0 mph N33.8 kmh N 21.6 mph34.8 kmh 29.97 in1014.9 mb 0.00 in0.0 mm 0.00 in0.0 mm 0.02 in0.5 mm
11:59 AM 67.3°F19.6°C 48.0°F8.9°C 50% 21.2 mph E34.1 kmh E 21.9 mph35.2 kmh 29.97 in1014.9 mb 0.00 in0.0 mm 0.00 in0.0 mm 0.02 in0.5 mm
11:58 AM 66.6°F19.2°C 48.0°F8.9°C 52% 20.9 mph E33.6 kmh E 21.5 mph34.6 kmh 29.97 in1014.9 mb 0.00 in0.0 mm 0.00 in0.0 mm 0.02 in0.5 mm
11:57 AM 66.6°F19.2°C 48.0°F8.9°C 52% 21.3 mph E34.3 kmh E 22.1 mph35.6 kmh 29.97 in1014.9 mb 0.00 in0.0 mm 0.00 in0.0 mm 0.02 in0.5 mm
11:56 AM 66.2°F19.0°C 49.0°F9.4°C 53% 22.0 mph ENE35.4 kmh ENE 23.5 mph37.8 kmh 29.97 in1014.9 mb 0.00 in0.0 mm 0.00 in0.0 mm 0.02 in0.5 mm
11:55 AM 66.0°F18.9°C 48.0°F8.9°C 53% 21.5 mph ENE34.6 kmh ENE 22.5 mph36.2 kmh 29.97 in1014.9 mb 0.00 in0.0 mm 0.00 in0.0 mm 0.02 in0.5 mm
11:54 AM 66.0°F18.9°C 48.0°F8.9°C 53% 22.7 mph SE36.5 kmh SE 24.8 mph39.9 kmh 29.97 in1014.9 mb 0.00 in0.0 mm 0.00 in0.0 mm 0.02 in0.5 mm
11:53 AM 65.8°F18.8°C 49.0°F9.4°C 55% 21.9 mph SE35.2 kmh SE 23.2 mph37.3 kmh 29.97 in1014.9 mb 0.00 in0.0 mm 0.00 in0.0 mm 0.02 in0.5 mm
11:52 AM 65.8°F18.8°C 49.0°F9.4°C 55% 21.5 mph E34.6 kmh E 22.4 mph36.0 kmh 29.97 in1014.9 mb 0.00 in0.0 mm 0.00 in0.0 mm 0.02 in0.5 mm
11:51 AM 65.8°F18.8°C 49.0°F9.4°C 55% 22.3 mph NE35.9 kmh NE 23.9 mph38.5 kmh 29.97 in1014.9 mb 0.00 in0.0 mm 0.00 in0.0 mm 0.02 in0.5 mm
11:50 AM 65.8°F18.8°C 49.0°F9.4°C 54% 21.4 mph NE34.4 kmh NE 22.2 mph35.7 kmh 29.97 in1014.9 mb 0.00 in0.0 mm 0.00 in0.0 mm 0.02 in0.5 mm
11:49 AM 65.7°F18.7°C 49.0°F9.4°C 54% 21.8 mph E35.1 kmh E 23.0 mph37.0 kmh 29.97 in1014.9 mb 0.00 in0.0 mm 0.00 in0.0 mm 0.02 in0.5 mm
11:48 AM 65.8°F18.8°C 49.0°F9.4°C 55% 22.6 mph E36.4 kmh E 24.3 mph39.1 kmh 29.97 in1014.9 mb 0.00 in0.0 mm 0.00 in0.0 mm 0.02 in0.5 mm
11:47 AM 65.8°F18.8°C 49.0°F9.4°C 55% 21.6 mph ENE34.8 kmh ENE 22.7 mph36.5 kmh 29.97 in1014.9 mb 0.00 in0.0 mm 0.00 in0.0 mm 0.02 in0.5 mm
11:46 AM 65.8°F18.8°C 49.0°F9.4°C 55% 21.5 mph S34.6 kmh S 22.6 mph36.4 kmh 29.97 in1014.9 mb 0.00 in0.0 mm 0.00 in0.0 mm 0.02 in0.5 mm
11:45 AM 65.8°F18.8°C 48.0°F8.9°C 54% 21.6 mph SE34.8 kmh SE 22.6 mph36.4 kmh 29.97 in1014.9 mb 0.00 in0.0 mm 0.00 in0.0 mm 0.02 in0.5 mm
11:44 AM 65.8°F18.8°C 49.0°F9.4°C 54% 21.1 mph NE34.0 kmh NE 21.7 mph34.9 kmh 29.97 in1014.9 mb 0.00 in0.0 mm 0.00 in0.0 mm 0.02 in0.5 mm
11:43 AM 65.8°F18.8°C 49.0°F9.4°C 55% 20.8 mph ESE33.5 kmh ESE 21.3 mph34.3 kmh 29.97 in1014.9 mb 0.00 in0.0 mm 0.00 in0.0 mm 0.02 in0.5 mm
11:42 AM 66.0°F18.9°C 49.0°F9.4°C 55% 21.1 mph E34.0 kmh E 21.8 mph35.1 kmh 29.97 in1014.9 mb 0.00 in0.0 mm 0.00 in0.0 mm 0.02 in0.5 mm
11:41 AM 66.2°F19.0°C 48.0°F8.9°C 53% 22.8 mph NE36.7 kmh NE 24.7 mph39.8 kmh 29.97 in1014.9 mb 0.00 in0.0 mm 0.00 in0.0 mm 0.02 in0.5 mm
11:40 AM 66.2°F19.0°C 48.0°F8.9°C 53% 23.6 mph E38.0 kmh E 26.2 mph42.2 kmh 29.97 in1014.9 mb 0.00 in0.0 mm 0.00 in0.0 mm 0.02 in0.5 mm
11:39 AM 66.2°F19.0°C 49.0°F9.4°C 54% 22.0 mph NE35.4 kmh NE 23.1 mph37.2 kmh 29.97 in1014.9 mb 0.00 in0.0 mm 0.00 in0.0 mm 0.02 in0.5 mm
11:38 AM 66.0°F18.9°C 48.0°F8.9°C 53% 23.8 mph NE38.3 kmh NE 26.1 mph42.0 kmh 29.97 in1014.9 mb 0.00 in0.0 mm 0.00 in0.0 mm 0.02 in0.5 mm
11:37 AM 66.0°F18.9°C 49.0°F9.4°C 54% 22.5 mph NE36.2 kmh NE 24.2 mph38.9 kmh 29.97 in1014.9 mb 0.00 in0.0 mm 0.00 in0.0 mm 0.02 in0.5 mm
11:36 AM 66.0°F18.9°C 49.0°F9.4°C 54% 22.6 mph NE36.4 kmh NE 24.3 mph39.1 kmh 29.97 in1014.9 mb 0.00 in0.0 mm 0.00 in0.0 mm 0.02 in0.5 mm
11:35 AM 66.4°F19.1°C 48.0°F8.9°C 53% 21.3 mph E34.3 kmh E 22.0 mph35.4 kmh 29.97 in1014.9 mb 0.00 in0.0 mm 0.00 in0.0 mm 0.02 in0.5 mm
11:34 AM 66.2°F19.0°C 49.0°F9.4°C 54% 22.4 mph NE36.0 kmh NE 24.2 mph38.9 kmh 29.97 in1014.9 mb 0.00 in0.0 mm 0.00 in0.0 mm 0.02 in0.5 mm
11:33 AM 66.0°F18.9°C 49.0°F9.4°C 54% 21.9 mph NE35.2 kmh NE 23.1 mph37.2 kmh 29.97 in1014.9 mb 0.00 in0.0 mm 0.00 in0.0 mm 0.02 in0.5 mm
11:32 AM 65.8°F18.8°C 49.0°F9.4°C 54% 22.9 mph NE36.9 kmh NE 24.8 mph39.9 kmh 29.97 in1014.9 mb 0.00 in0.0 mm 0.00 in0.0 mm 0.02 in0.5 mm
11:31 AM 66.0°F18.9°C 49.0°F9.4°C 54% 21.1 mph E34.0 kmh E 21.9 mph35.2 kmh 29.97 in1014.9 mb 0.00 in0.0 mm 0.00 in0.0 mm 0.02 in0.5 mm
11:30 AM 66.0°F18.9°C 49.0°F9.4°C 54% 21.8 mph SE35.1 kmh SE 23.0 mph37.0 kmh 29.97 in1014.9 mb 0.00 in0.0 mm 0.00 in0.0 mm 0.02 in0.5 mm
11:29 AM 65.8°F18.8°C 49.0°F9.4°C 55% 20.7 mph E33.3 kmh E 21.1 mph34.0 kmh 29.97 in1014.9 mb 0.00 in0.0 mm 0.00 in0.0 mm 0.02 in0.5 mm
11:28 AM 66.0°F18.9°C 49.0°F9.4°C 54% 21.5 mph NE34.6 kmh NE 22.5 mph36.2 kmh 29.97 in1014.9 mb 0.00 in0.0 mm 0.00 in0.0 mm 0.02 in0.5 mm
11:27 AM 66.0°F18.9°C 49.0°F9.4°C 54% 21.8 mph E35.1 kmh E 22.9 mph36.9 kmh 29.97 in1014.9 mb 0.00 in0.0 mm 0.00 in0.0 mm 0.02 in0.5 mm
11:26 AM 66.6°F19.2°C 49.0°F9.4°C 54% 22.6 mph NE36.4 kmh NE 24.3 mph39.1 kmh 29.97 in1014.9 mb 0.00 in0.0 mm 0.00 in0.0 mm 0.02 in0.5 mm
11:25 AM 66.9°F19.4°C 49.0°F9.4°C 53% 24.8 mph NE39.9 kmh NE 28.0 mph45.1 kmh 29.97 in1014.9 mb 0.00 in0.0 mm 0.00 in0.0 mm 0.02 in0.5 mm
11:24 AM 67.1°F19.5°C 49.0°F9.4°C 52% 24.1 mph NE38.8 kmh NE 27.3 mph43.9 kmh 29.97 in1014.9 mb 0.00 in0.0 mm 0.00 in0.0 mm 0.02 in0.5 mm
11:23 AM 67.6°F19.8°C 49.0°F9.4°C 51% 21.9 mph NE35.2 kmh NE 23.3 mph37.5 kmh 29.97 in1014.9 mb 0.00 in0.0 mm 0.00 in0.0 mm 0.02 in0.5 mm
11:22 AM 67.8°F19.9°C 49.0°F9.4°C 51% 22.6 mph ENE36.4 kmh ENE 24.3 mph39.1 kmh 29.97 in1014.9 mb 0.00 in0.0 mm 0.00 in0.0 mm 0.02 in0.5 mm
11:21 AM 67.6°F19.8°C 48.0°F8.9°C 50% 23.1 mph NE37.2 kmh NE 25.1 mph40.4 kmh 29.97 in1014.9 mb 0.00 in0.0 mm 0.00 in0.0 mm 0.02 in0.5 mm
11:20 AM 67.6°F19.8°C 48.0°F8.9°C 50% 22.9 mph NE36.9 kmh NE 24.8 mph39.9 kmh 29.96 in1014.6 mb 0.00 in0.0 mm 0.00 in0.0 mm 0.02 in0.5 mm
11:19 AM 67.1°F19.5°C 48.0°F8.9°C 50% 22.9 mph NE36.9 kmh NE 24.8 mph39.9 kmh 29.97 in1014.9 mb 0.00 in0.0 mm 0.00 in0.0 mm 0.02 in0.5 mm
11:18 AM 66.6°F19.2°C 47.0°F8.3°C 50% 23.7 mph NNE38.1 kmh NNE 26.4 mph42.5 kmh 29.97 in1014.9 mb 0.00 in0.0 mm 0.00 in0.0 mm 0.02 in0.5 mm
11:17 AM 66.0°F18.9°C 47.0°F8.3°C 51% 22.6 mph ENE36.4 kmh ENE 24.4 mph39.3 kmh 29.97 in1014.9 mb 0.00 in0.0 mm 0.00 in0.0 mm 0.02 in0.5 mm
11:16 AM 65.7°F18.7°C 47.0°F8.3°C 51% 23.9 mph NE38.5 kmh NE 26.6 mph42.8 kmh 29.97 in1014.9 mb 0.00 in0.0 mm 0.00 in0.0 mm 0.02 in0.5 mm
11:15 AM 65.1°F18.4°C 48.0°F8.9°C 54% 23.3 mph NE37.5 kmh NE 25.7 mph41.4 kmh 29.97 in1014.9 mb 0.00 in0.0 mm 0.00 in0.0 mm 0.02 in0.5 mm
11:14 AM 65.1°F18.4°C 48.0°F8.9°C 54% 21.9 mph E35.2 kmh E 23.3 mph37.5 kmh 29.97 in1014.9 mb 0.00 in0.0 mm 0.00 in0.0 mm 0.02 in0.5 mm
11:13 AM 65.1°F18.4°C 48.0°F8.9°C 55% 21.9 mph NE35.2 kmh NE 23.2 mph37.3 kmh 29.97 in1014.9 mb 0.00 in0.0 mm 0.00 in0.0 mm 0.02 in0.5 mm
11:12 AM 64.8°F18.2°C 48.0°F8.9°C 54% 21.7 mph NE34.9 kmh NE 22.8 mph36.7 kmh 29.97 in1014.9 mb 0.00 in0.0 mm 0.00 in0.0 mm 0.02 in0.5 mm
11:11 AM 64.8°F18.2°C 48.0°F8.9°C 55% 21.4 mph ENE34.4 kmh ENE 22.2 mph35.7 kmh 29.97 in1014.9 mb 0.00 in0.0 mm 0.00 in0.0 mm 0.02 in0.5 mm
11:10 AM 65.1°F18.4°C 48.0°F8.9°C 54% 22.3 mph ENE35.9 kmh ENE 23.8 mph38.3 kmh 29.97 in1014.9 mb 0.00 in0.0 mm 0.00 in0.0 mm 0.02 in0.5 mm
11:09 AM 65.1°F18.4°C 48.0°F8.9°C 54% 21.8 mph ENE35.1 kmh ENE 22.9 mph36.9 kmh 29.97 in1014.9 mb 0.00 in0.0 mm 0.00 in0.0 mm 0.02 in0.5 mm
11:08 AM 65.1°F18.4°C 48.0°F8.9°C 55% 20.8 mph E33.5 kmh E 21.4 mph34.4 kmh 29.97 in1014.9 mb 0.00 in0.0 mm 0.00 in0.0 mm 0.02 in0.5 mm
11:07 AM 64.4°F18.0°C 48.0°F8.9°C 55% 22.3 mph E35.9 kmh E 24.0 mph38.6 kmh 29.97 in1014.9 mb 0.00 in0.0 mm 0.00 in0.0 mm 0.02 in0.5 mm
11:06 AM 64.2°F17.9°C 48.0°F8.9°C 56% 21.3 mph ESE34.3 kmh ESE 22.3 mph35.9 kmh 29.98 in1015.2 mb 0.00 in0.0 mm 0.00 in0.0 mm 0.02 in0.5 mm
11:05 AM 64.4°F18.0°C 48.0°F8.9°C 55% 21.5 mph E34.6 kmh E 22.4 mph36.0 kmh 29.97 in1014.9 mb 0.00 in0.0 mm 0.00 in0.0 mm 0.02 in0.5 mm
11:04 AM 64.2°F17.9°C 48.0°F8.9°C 55% 21.9 mph NE35.2 kmh NE 23.1 mph37.2 kmh 29.97 in1014.9 mb 0.00 in0.0 mm 0.00 in0.0 mm 0.02 in0.5 mm
11:03 AM 64.2°F17.9°C 48.0°F8.9°C 56% 21.8 mph ENE35.1 kmh ENE 23.0 mph37.0 kmh 29.98 in1015.2 mb 0.00 in0.0 mm 0.00 in0.0 mm 0.02 in0.5 mm
11:00 AM 63.3°F17.4°C 47.0°F8.3°C 56% 22.4 mph ESE36.0 kmh ESE 24.0 mph38.6 kmh 29.98 in1015.2 mb 0.00 in0.0 mm 0.00 in0.0 mm 0.02 in0.5 mm
10:59 AM 63.1°F17.3°C 47.0°F8.3°C 56% 21.5 mph E34.6 kmh E 22.5 mph36.2 kmh 29.98 in1015.2 mb 0.00 in0.0 mm 0.00 in0.0 mm 0.02 in0.5 mm
10:58 AM 63.1°F17.3°C 47.0°F8.3°C 56% 21.1 mph E34.0 kmh E 21.9 mph35.2 kmh 29.98 in1015.2 mb 0.00 in0.0 mm 0.00 in0.0 mm 0.02 in0.5 mm
10:57 AM 63.3°F17.4°C 47.0°F8.3°C 56% 21.7 mph E34.9 kmh E 22.8 mph36.7 kmh 29.98 in1015.2 mb 0.00 in0.0 mm 0.00 in0.0 mm 0.02 in0.5 mm
10:56 AM 63.3°F17.4°C 47.0°F8.3°C 57% 21.9 mph ENE35.2 kmh ENE 23.1 mph37.2 kmh 29.98 in1015.2 mb 0.00 in0.0 mm 0.00 in0.0 mm 0.02 in0.5 mm
10:55 AM 63.3°F17.4°C 47.0°F8.3°C 56% 22.3 mph E35.9 kmh E 23.9 mph38.5 kmh 29.98 in1015.2 mb 0.00 in0.0 mm 0.00 in0.0 mm 0.02 in0.5 mm
10:54 AM 63.3°F17.4°C 48.0°F8.9°C 57% 22.3 mph S35.9 kmh S 23.9 mph38.5 kmh 29.98 in1015.2 mb 0.00 in0.0 mm 0.00 in0.0 mm 0.02 in0.5 mm
10:53 AM 63.3°F17.4°C 48.0°F8.9°C 57% 21.5 mph E34.6 kmh E 22.5 mph36.2 kmh 29.98 in1015.2 mb 0.00 in0.0 mm 0.00 in0.0 mm 0.02 in0.5 mm
10:52 AM 63.3°F17.4°C 48.0°F8.9°C 57% 21.1 mph ESE34.0 kmh ESE 21.8 mph35.1 kmh 29.98 in1015.2 mb 0.00 in0.0 mm 0.00 in0.0 mm 0.02 in0.5 mm
10:51 AM 63.3°F17.4°C 47.0°F8.3°C 56% 21.6 mph ESE34.8 kmh ESE 22.6 mph36.4 kmh 29.98 in1015.2 mb 0.00 in0.0 mm 0.00 in0.0 mm 0.02 in0.5 mm
10:50 AM 63.1°F17.3°C 48.0°F8.9°C 58% 21.9 mph E35.2 kmh E 23.3 mph37.5 kmh 29.98 in1015.2 mb 0.00 in0.0 mm 0.00 in0.0 mm 0.02 in0.5 mm
10:49 AM 63.0°F17.2°C 48.0°F8.9°C 58% 21.7 mph E34.9 kmh E 22.7 mph36.5 kmh 29.98 in1015.2 mb 0.00 in0.0 mm 0.00 in0.0 mm 0.02 in0.5 mm
10:48 AM 63.0°F17.2°C 47.0°F8.3°C 57% 20.8 mph ESE33.5 kmh ESE 21.3 mph34.3 kmh 29.98 in1015.2 mb 0.00 in0.0 mm 0.00 in0.0 mm 0.02 in0.5 mm
10:47 AM 62.8°F17.1°C 47.0°F8.3°C 57% 21.2 mph ENE34.1 kmh ENE 22.0 mph35.4 kmh 29.98 in1015.2 mb 0.00 in0.0 mm 0.00 in0.0 mm 0.02 in0.5 mm
10:46 AM 63.0°F17.2°C 47.0°F8.3°C 57% 21.4 mph E34.4 kmh E 22.3 mph35.9 kmh 29.98 in1015.2 mb 0.00 in0.0 mm 0.00 in0.0 mm 0.02 in0.5 mm
10:45 AM 62.8°F17.1°C 47.0°F8.3°C 57% 21.7 mph ENE34.9 kmh ENE 22.7 mph36.5 kmh 29.98 in1015.2 mb 0.00 in0.0 mm 0.00 in0.0 mm 0.02 in0.5 mm
10:44 AM 62.8°F17.1°C 47.0°F8.3°C 58% 22.1 mph ENE35.6 kmh ENE 23.5 mph37.8 kmh 29.98 in1015.2 mb 0.00 in0.0 mm 0.00 in0.0 mm 0.02 in0.5 mm
10:43 AM 62.6°F17.0°C 48.0°F8.9°C 58% 21.0 mph ENE33.8 kmh ENE 21.6 mph34.8 kmh 29.98 in1015.2 mb 0.00 in0.0 mm 0.00 in0.0 mm 0.02 in0.5 mm
10:42 AM 62.6°F17.0°C 47.0°F8.3°C 57% 21.8 mph E35.1 kmh E 23.0 mph37.0 kmh 29.98 in1015.2 mb 0.00 in0.0 mm 0.00 in0.0 mm 0.02 in0.5 mm
10:41 AM 62.6°F17.0°C 47.0°F8.3°C 58% 21.8 mph ENE35.1 kmh ENE 23.1 mph37.2 kmh 29.98 in1015.2 mb 0.00 in0.0 mm 0.00 in0.0 mm 0.02 in0.5 mm
10:40 AM 62.4°F16.9°C 47.0°F8.3°C 58% 22.9 mph NE36.9 kmh NE 24.5 mph39.4 kmh 29.98 in1015.2 mb 0.00 in0.0 mm 0.00 in0.0 mm 0.02 in0.5 mm
10:39 AM 62.6°F17.0°C 47.0°F8.3°C 57% 23.1 mph NE37.2 kmh NE 25.4 mph40.9 kmh 29.98 in1015.2 mb 0.00 in0.0 mm 0.00 in0.0 mm 0.02 in0.5 mm
10:38 AM 62.6°F17.0°C 47.0°F8.3°C 57% 22.8 mph ENE36.7 kmh ENE 24.5 mph39.4 kmh 29.98 in1015.2 mb 0.00 in0.0 mm 0.00 in0.0 mm 0.02 in0.5 mm
10:37 AM 62.8°F17.1°C 47.0°F8.3°C 57% 22.9 mph NE36.9 kmh NE 25.0 mph40.2 kmh 29.98 in1015.2 mb 0.00 in0.0 mm 0.00 in0.0 mm 0.02 in0.5 mm
10:36 AM 62.8°F17.1°C 47.0°F8.3°C 57% 21.6 mph NE34.8 kmh NE 22.8 mph36.7 kmh 29.98 in1015.2 mb 0.00 in0.0 mm 0.00 in0.0 mm 0.02 in0.5 mm
10:35 AM 62.8°F17.1°C 47.0°F8.3°C 57% 21.4 mph NE34.4 kmh NE 22.3 mph35.9 kmh 29.98 in1015.2 mb 0.00 in0.0 mm 0.00 in0.0 mm 0.02 in0.5 mm
10:34 AM 63.0°F17.2°C 47.0°F8.3°C 57% 21.8 mph ENE35.1 kmh ENE 22.9 mph36.9 kmh 29.98 in1015.2 mb 0.00 in0.0 mm 0.00 in0.0 mm 0.02 in0.5 mm
10:33 AM 63.1°F17.3°C 48.0°F8.9°C 57% 21.8 mph ESE35.1 kmh ESE 23.1 mph37.2 kmh 29.98 in1015.2 mb 0.00 in0.0 mm 0.00 in0.0 mm 0.02 in0.5 mm
10:32 AM 63.1°F17.3°C 47.0°F8.3°C 56% 21.0 mph E33.8 kmh E 21.6 mph34.8 kmh 29.98 in1015.2 mb 0.00 in0.0 mm 0.00 in0.0 mm 0.02 in0.5 mm
10:31 AM 63.1°F17.3°C 48.0°F8.9°C 57% 21.4 mph ENE34.4 kmh ENE 22.2 mph35.7 kmh 29.98 in1015.2 mb 0.00 in0.0 mm 0.00 in0.0 mm 0.02 in0.5 mm
10:30 AM 63.1°F17.3°C 47.0°F8.3°C 57% 21.4 mph NE34.4 kmh NE 22.2 mph35.7 kmh 29.98 in1015.2 mb 0.00 in0.0 mm 0.00 in0.0 mm 0.02 in0.5 mm
10:29 AM 63.5°F17.5°C 47.0°F8.3°C 56% 21.4 mph ENE34.4 kmh ENE 22.3 mph35.9 kmh 29.98 in1015.2 mb 0.00 in0.0 mm 0.00 in0.0 mm 0.02 in0.5 mm
10:28 AM 63.5°F17.5°C 47.0°F8.3°C 55% 21.4 mph E34.4 kmh E 22.2 mph35.7 kmh 29.97 in1014.9 mb 0.00 in0.0 mm 0.00 in0.0 mm 0.02 in0.5 mm
10:27 AM 63.7°F17.6°C 48.0°F8.9°C 57% 22.0 mph E35.4 kmh E 23.3 mph37.5 kmh 29.98 in1015.2 mb 0.00 in0.0 mm 0.00 in0.0 mm 0.02 in0.5 mm
10:26 AM 63.5°F17.5°C 47.0°F8.3°C 55% 22.0 mph E35.4 kmh E 23.3 mph37.5 kmh 29.97 in1014.9 mb 0.00 in0.0 mm 0.00 in0.0 mm 0.02 in0.5 mm
10:25 AM 63.5°F17.5°C 48.0°F8.9°C 57% 22.0 mph ENE35.4 kmh ENE 23.4 mph37.7 kmh 29.97 in1014.9 mb 0.00 in0.0 mm 0.00 in0.0 mm 0.02 in0.5 mm
10:24 AM 63.3°F17.4°C 47.0°F8.3°C 56% 21.3 mph E34.3 kmh E 22.2 mph35.7 kmh 29.97 in1014.9 mb 0.00 in0.0 mm 0.00 in0.0 mm 0.02 in0.5 mm
10:23 AM 63.3°F17.4°C 48.0°F8.9°C 57% 21.4 mph E34.4 kmh E 22.4 mph36.0 kmh 29.97 in1014.9 mb 0.00 in0.0 mm 0.00 in0.0 mm 0.02 in0.5 mm
10:22 AM 63.1°F17.3°C 47.0°F8.3°C 56% 21.6 mph E34.8 kmh E 22.6 mph36.4 kmh 29.97 in1014.9 mb 0.00 in0.0 mm 0.00 in0.0 mm 0.02 in0.5 mm
10:21 AM 63.1°F17.3°C 47.0°F8.3°C 56% 21.6 mph ENE34.8 kmh ENE 22.6 mph36.4 kmh 29.97 in1014.9 mb 0.00 in0.0 mm 0.00 in0.0 mm 0.02 in0.5 mm
10:19 AM 63.1°F17.3°C 47.0°F8.3°C 56% 21.3 mph SE34.3 kmh SE 22.3 mph35.9 kmh 29.97 in1014.9 mb 0.00 in0.0 mm 0.00 in0.0 mm 0.02 in0.5 mm
10:18 AM 63.1°F17.3°C 47.0°F8.3°C 56% 21.0 mph S33.8 kmh S 21.5 mph34.6 kmh 29.97 in1014.9 mb 0.00 in0.0 mm 0.00 in0.0 mm 0.02 in0.5 mm
10:17 AM 63.0°F17.2°C 47.0°F8.3°C 56% 22.5 mph E36.2 kmh E 24.3 mph39.1 kmh 29.97 in1014.9 mb 0.00 in0.0 mm 0.00 in0.0 mm 0.02 in0.5 mm
10:16 AM 63.1°F17.3°C 47.0°F8.3°C 56% 21.7 mph ESE34.9 kmh ESE 22.7 mph36.5 kmh 29.97 in1014.9 mb 0.00 in0.0 mm 0.00 in0.0 mm 0.02 in0.5 mm
10:15 AM 63.1°F17.3°C 47.0°F8.3°C 57% 22.0 mph ENE35.4 kmh ENE 23.2 mph37.3 kmh 29.97 in1014.9 mb 0.00 in0.0 mm 0.00 in0.0 mm 0.02 in0.5 mm
10:14 AM 63.1°F17.3°C 47.0°F8.3°C 56% 22.0 mph NE35.4 kmh NE 23.4 mph37.7 kmh 29.97 in1014.9 mb 0.00 in0.0 mm 0.00 in0.0 mm 0.02 in0.5 mm
10:13 AM 63.0°F17.2°C 47.0°F8.3°C 57% 21.0 mph ENE33.8 kmh ENE 21.6 mph34.8 kmh 29.97 in1014.9 mb 0.00 in0.0 mm 0.00 in0.0 mm 0.02 in0.5 mm
10:12 AM 62.8°F17.1°C 47.0°F8.3°C 57% 21.7 mph ENE34.9 kmh ENE 23.0 mph37.0 kmh 29.97 in1014.9 mb 0.00 in0.0 mm 0.00 in0.0 mm 0.02 in0.5 mm
10:11 AM 62.8°F17.1°C 47.0°F8.3°C 57% 20.9 mph ENE33.6 kmh ENE 21.7 mph34.9 kmh 29.97 in1014.9 mb 0.00 in0.0 mm 0.00 in0.0 mm 0.02 in0.5 mm
10:10 AM 62.4°F16.9°C 47.0°F8.3°C 57% 21.8 mph ENE35.1 kmh ENE 23.1 mph37.2 kmh 29.98 in1015.2 mb 0.00 in0.0 mm 0.00 in0.0 mm 0.02 in0.5 mm
10:09 AM 62.4°F16.9°C 46.0°F7.8°C 56% 21.9 mph ENE35.2 kmh ENE 23.0 mph37.0 kmh 29.97 in1014.9 mb 0.00 in0.0 mm 0.00 in0.0 mm 0.02 in0.5 mm
10:08 AM 62.4°F16.9°C 46.0°F7.8°C 56% 22.1 mph ENE35.6 kmh ENE 23.5 mph37.8 kmh 29.97 in1014.9 mb 0.00 in0.0 mm 0.00 in0.0 mm 0.02 in0.5 mm
10:07 AM 62.4°F16.9°C 46.0°F7.8°C 56% 21.7 mph ENE34.9 kmh ENE 22.7 mph36.5 kmh 29.98 in1015.2 mb 0.00 in0.0 mm 0.00 in0.0 mm 0.02 in0.5 mm
10:06 AM 62.4°F16.9°C 46.0°F7.8°C 56% 22.2 mph ENE35.7 kmh ENE 23.6 mph38.0 kmh 29.98 in1015.2 mb 0.00 in0.0 mm 0.00 in0.0 mm 0.02 in0.5 mm
10:05 AM 62.4°F16.9°C 46.0°F7.8°C 56% 22.5 mph NE36.2 kmh NE 24.0 mph38.6 kmh 29.98 in1015.2 mb 0.00 in0.0 mm 0.00 in0.0 mm 0.02 in0.5 mm
10:04 AM 62.6°F17.0°C 47.0°F8.3°C 56% 23.2 mph NE37.3 kmh NE 25.6 mph41.2 kmh 29.98 in1015.2 mb 0.00 in0.0 mm 0.00 in0.0 mm 0.02 in0.5 mm
10:03 AM 62.6°F17.0°C 47.0°F8.3°C 56% 21.9 mph ENE35.2 kmh ENE 23.3 mph37.5 kmh 29.98 in1015.2 mb 0.00 in0.0 mm 0.00 in0.0 mm 0.02 in0.5 mm
10:02 AM 62.6°F17.0°C 47.0°F8.3°C 56% 21.2 mph E34.1 kmh E 21.9 mph35.2 kmh 29.98 in1015.2 mb 0.00 in0.0 mm 0.00 in0.0 mm 0.02 in0.5 mm
10:01 AM 62.6°F17.0°C 47.0°F8.3°C 56% 22.4 mph NE36.0 kmh NE 24.0 mph38.6 kmh 29.98 in1015.2 mb 0.00 in0.0 mm 0.00 in0.0 mm 0.02 in0.5 mm
10:00 AM 62.6°F17.0°C 47.0°F8.3°C 56% 22.0 mph ENE35.4 kmh ENE 23.2 mph37.3 kmh 29.98 in1015.2 mb 0.00 in0.0 mm 0.00 in0.0 mm 0.02 in0.5 mm
09:59 AM 62.6°F17.0°C 47.0°F8.3°C 56% 22.1 mph E35.6 kmh E 23.3 mph37.5 kmh 29.98 in1015.2 mb 0.00 in0.0 mm 0.00 in0.0 mm 0.02 in0.5 mm
09:58 AM 63.0°F17.2°C 46.0°F7.8°C 55% 22.9 mph NE36.9 kmh NE 24.9 mph40.1 kmh 29.98 in1015.2 mb 0.00 in0.0 mm 0.00 in0.0 mm 0.02 in0.5 mm
09:57 AM 63.1°F17.3°C 46.0°F7.8°C 55% 21.4 mph ESE34.4 kmh ESE 22.4 mph36.0 kmh 29.98 in1015.2 mb 0.00 in0.0 mm 0.00 in0.0 mm 0.02 in0.5 mm
09:56 AM 63.1°F17.3°C 47.0°F8.3°C 55% 21.8 mph E35.1 kmh E 23.1 mph37.2 kmh 29.97 in1014.9 mb 0.00 in0.0 mm 0.00 in0.0 mm 0.02 in0.5 mm
09:55 AM 63.0°F17.2°C 47.0°F8.3°C 56% 21.4 mph E34.4 kmh E 22.2 mph35.7 kmh 29.98 in1015.2 mb 0.00 in0.0 mm 0.00 in0.0 mm 0.02 in0.5 mm
09:54 AM 63.0°F17.2°C 47.0°F8.3°C 55% 21.5 mph NE34.6 kmh NE 22.4 mph36.0 kmh 29.97 in1014.9 mb 0.00 in0.0 mm 0.00 in0.0 mm 0.02 in0.5 mm
09:53 AM 63.0°F17.2°C 47.0°F8.3°C 55% 21.4 mph E34.4 kmh E 22.3 mph35.9 kmh 29.97 in1014.9 mb 0.00 in0.0 mm 0.00 in0.0 mm 0.02 in0.5 mm
09:52 AM 62.8°F17.1°C 47.0°F8.3°C 56% 20.8 mph ENE33.5 kmh ENE 21.4 mph34.4 kmh 29.97 in1014.9 mb 0.00 in0.0 mm 0.00 in0.0 mm 0.02 in0.5 mm
09:51 AM 62.6°F17.0°C 46.0°F7.8°C 55% 20.5 mph SE33.0 kmh SE 20.8 mph33.5 kmh 29.97 in1014.9 mb 0.00 in0.0 mm 0.00 in0.0 mm 0.02 in0.5 mm
09:50 AM 62.6°F17.0°C 46.0°F7.8°C 56% 21.5 mph E34.6 kmh E 22.4 mph36.0 kmh 29.97 in1014.9 mb 0.00 in0.0 mm 0.00 in0.0 mm 0.02 in0.5 mm
09:49 AM 62.2°F16.8°C 46.0°F7.8°C 55% 22.0 mph ESE35.4 kmh ESE 23.4 mph37.7 kmh 29.97 in1014.9 mb 0.00 in0.0 mm 0.00 in0.0 mm 0.02 in0.5 mm
09:48 AM 62.4°F16.9°C 46.0°F7.8°C 55% 22.9 mph ESE36.9 kmh ESE 24.7 mph39.8 kmh 29.97 in1014.9 mb 0.00 in0.0 mm 0.00 in0.0 mm 0.02 in0.5 mm
09:47 AM 62.4°F16.9°C 46.0°F7.8°C 55% 22.6 mph ESE36.4 kmh ESE 24.5 mph39.4 kmh 29.97 in1014.9 mb 0.00 in0.0 mm 0.00 in0.0 mm 0.02 in0.5 mm
09:46 AM 62.4°F16.9°C 46.0°F7.8°C 55% 22.4 mph SSE36.0 kmh SSE 24.2 mph38.9 kmh 29.97 in1014.9 mb 0.00 in0.0 mm 0.00 in0.0 mm 0.02 in0.5 mm
09:45 AM 62.6°F17.0°C 46.0°F7.8°C 55% 22.8 mph ESE36.7 kmh ESE 24.8 mph39.9 kmh 29.97 in1014.9 mb 0.00 in0.0 mm 0.00 in0.0 mm 0.02 in0.5 mm
09:44 AM 62.8°F17.1°C 46.0°F7.8°C 55% 22.3 mph ESE35.9 kmh ESE 23.9 mph38.5 kmh 29.97 in1014.9 mb 0.00 in0.0 mm 0.00 in0.0 mm 0.02 in0.5 mm
09:43 AM 62.8°F17.1°C 46.0°F7.8°C 55% 22.2 mph E35.7 kmh E 23.8 mph38.3 kmh 29.97 in1014.9 mb 0.00 in0.0 mm 0.00 in0.0 mm 0.02 in0.5 mm
09:42 AM 62.8°F17.1°C 46.0°F7.8°C 55% 21.9 mph NE35.2 kmh NE 23.2 mph37.3 kmh 29.97 in1014.9 mb 0.00 in0.0 mm 0.00 in0.0 mm 0.02 in0.5 mm
09:41 AM 62.6°F17.0°C 47.0°F8.3°C 56% 21.4 mph E34.4 kmh E 22.4 mph36.0 kmh 29.97 in1014.9 mb 0.00 in0.0 mm 0.00 in0.0 mm 0.02 in0.5 mm
09:40 AM 62.4°F16.9°C 46.0°F7.8°C 55% 21.3 mph E34.3 kmh E 22.1 mph35.6 kmh 29.97 in1014.9 mb 0.00 in0.0 mm 0.00 in0.0 mm 0.02 in0.5 mm
09:39 AM 62.4°F16.9°C 46.0°F7.8°C 55% 21.3 mph E34.3 kmh E 22.1 mph35.6 kmh 29.97 in1014.9 mb 0.00 in0.0 mm 0.00 in0.0 mm 0.02 in0.5 mm
09:38 AM 62.4°F16.9°C 46.0°F7.8°C 55% 22.4 mph E36.0 kmh E 24.1 mph38.8 kmh 29.97 in1014.9 mb 0.00 in0.0 mm 0.00 in0.0 mm 0.02 in0.5 mm
09:37 AM 62.2°F16.8°C 46.0°F7.8°C 56% 21.3 mph ENE34.3 kmh ENE 22.2 mph35.7 kmh 29.97 in1014.9 mb 0.00 in0.0 mm 0.00 in0.0 mm 0.02 in0.5 mm
09:36 AM 62.2°F16.8°C 46.0°F7.8°C 55% 22.2 mph NE35.7 kmh NE 23.7 mph38.1 kmh 29.97 in1014.9 mb 0.00 in0.0 mm 0.00 in0.0 mm 0.02 in0.5 mm
09:35 AM 62.2°F16.8°C 45.0°F7.2°C 54% 22.1 mph NE35.6 kmh NE 23.5 mph37.8 kmh 29.97 in1014.9 mb 0.00 in0.0 mm 0.00 in0.0 mm 0.02 in0.5 mm
09:34 AM 62.2°F16.8°C 46.0°F7.8°C 55% 22.4 mph ENE36.0 kmh ENE 23.9 mph38.5 kmh 29.97 in1014.9 mb 0.00 in0.0 mm 0.00 in0.0 mm 0.02 in0.5 mm
09:33 AM 62.2°F16.8°C 46.0°F7.8°C 55% 23.4 mph NE37.7 kmh NE 25.9 mph41.7 kmh 29.97 in1014.9 mb 0.00 in0.0 mm 0.00 in0.0 mm 0.02 in0.5 mm
09:32 AM 62.2°F16.8°C 46.0°F7.8°C 55% 23.2 mph E37.3 kmh E 25.6 mph41.2 kmh 29.97 in1014.9 mb 0.00 in0.0 mm 0.00 in0.0 mm 0.02 in0.5 mm
09:31 AM 62.1°F16.7°C 46.0°F7.8°C 55% 21.4 mph NE34.4 kmh NE 22.2 mph35.7 kmh 29.97 in1014.9 mb 0.00 in0.0 mm 0.00 in0.0 mm 0.02 in0.5 mm
09:30 AM 62.2°F16.8°C 46.0°F7.8°C 56% 21.8 mph NE35.1 kmh NE 23.0 mph37.0 kmh 29.97 in1014.9 mb 0.00 in0.0 mm 0.00 in0.0 mm 0.02 in0.5 mm
09:29 AM 62.1°F16.7°C 45.0°F7.2°C 54% 21.6 mph E34.8 kmh E 22.7 mph36.5 kmh 29.97 in1014.9 mb 0.00 in0.0 mm 0.00 in0.0 mm 0.02 in0.5 mm
09:28 AM 62.1°F16.7°C 46.0°F7.8°C 55% 22.5 mph E36.2 kmh E 24.2 mph38.9 kmh 29.97 in1014.9 mb 0.00 in0.0 mm 0.00 in0.0 mm 0.02 in0.5 mm
09:27 AM 62.1°F16.7°C 46.0°F7.8°C 55% 21.9 mph ESE35.2 kmh ESE 23.1 mph37.2 kmh 29.97 in1014.9 mb 0.00 in0.0 mm 0.00 in0.0 mm 0.02 in0.5 mm
09:26 AM 61.7°F16.5°C 46.0°F7.8°C 57% 24.0 mph NE38.6 kmh NE 27.0 mph43.5 kmh 29.97 in1014.9 mb 0.00 in0.0 mm 0.00 in0.0 mm 0.02 in0.5 mm
09:25 AM 61.9°F16.6°C 46.0°F7.8°C 55% 23.0 mph ENE37.0 kmh ENE 25.1 mph40.4 kmh 29.97 in1014.9 mb 0.00 in0.0 mm 0.00 in0.0 mm 0.02 in0.5 mm
09:24 AM 61.9°F16.6°C 45.0°F7.2°C 54% 24.1 mph NE38.8 kmh NE 26.8 mph43.1 kmh 29.97 in1014.9 mb 0.00 in0.0 mm 0.00 in0.0 mm 0.02 in0.5 mm
09:23 AM 61.9°F16.6°C 46.0°F7.8°C 56% 22.7 mph NNE36.5 kmh NNE 24.8 mph39.9 kmh 29.97 in1014.9 mb 0.00 in0.0 mm 0.00 in0.0 mm 0.02 in0.5 mm
09:22 AM 61.9°F16.6°C 46.0°F7.8°C 56% 22.2 mph E35.7 kmh E 23.7 mph38.1 kmh 29.97 in1014.9 mb 0.00 in0.0 mm 0.00 in0.0 mm 0.02 in0.5 mm
09:21 AM 61.9°F16.6°C 45.0°F7.2°C 55% 22.1 mph E35.6 kmh E 23.4 mph37.7 kmh 29.97 in1014.9 mb 0.00 in0.0 mm 0.00 in0.0 mm 0.02 in0.5 mm
09:20 AM 61.9°F16.6°C 46.0°F7.8°C 55% 22.8 mph NE36.7 kmh NE 24.8 mph39.9 kmh 29.97 in1014.9 mb 0.00 in0.0 mm 0.00 in0.0 mm 0.02 in0.5 mm
09:19 AM 61.9°F16.6°C 46.0°F7.8°C 55% 24.2 mph NE38.9 kmh NE 27.5 mph44.3 kmh 29.97 in1014.9 mb 0.00 in0.0 mm 0.00 in0.0 mm 0.02 in0.5 mm
09:18 AM 61.9°F16.6°C 46.0°F7.8°C 56% 22.4 mph NNE36.0 kmh NNE 24.2 mph38.9 kmh 29.97 in1014.9 mb 0.00 in0.0 mm 0.00 in0.0 mm 0.02 in0.5 mm
09:17 AM 61.9°F16.6°C 45.0°F7.2°C 55% 21.3 mph NE34.3 kmh NE 22.2 mph35.7 kmh 29.97 in1014.9 mb 0.00 in0.0 mm 0.00 in0.0 mm 0.02 in0.5 mm
09:16 AM 61.7°F16.5°C 46.0°F7.8°C 56% 21.3 mph NE34.3 kmh NE 22.1 mph35.6 kmh 29.97 in1014.9 mb 0.00 in0.0 mm 0.00 in0.0 mm 0.02 in0.5 mm
09:14 AM 61.7°F16.5°C 46.0°F7.8°C 56% 21.4 mph NE34.4 kmh NE 22.2 mph35.7 kmh 29.97 in1014.9 mb 0.00 in0.0 mm 0.00 in0.0 mm 0.02 in0.5 mm
09:13 AM 61.7°F16.5°C 46.0°F7.8°C 56% 22.1 mph ENE35.6 kmh ENE 23.5 mph37.8 kmh 29.97 in1014.9 mb 0.00 in0.0 mm 0.00 in0.0 mm 0.02 in0.5 mm
09:12 AM 61.7°F16.5°C 46.0°F7.8°C 56% 21.6 mph NE34.8 kmh NE 22.6 mph36.4 kmh 29.97 in1014.9 mb 0.00 in0.0 mm 0.00 in0.0 mm 0.02 in0.5 mm
09:11 AM 61.7°F16.5°C 46.0°F7.8°C 56% 23.0 mph NE37.0 kmh NE 25.2 mph40.6 kmh 29.97 in1014.9 mb 0.00 in0.0 mm 0.00 in0.0 mm 0.02 in0.5 mm
09:10 AM 61.7°F16.5°C 46.0°F7.8°C 56% 21.0 mph ENE33.8 kmh ENE 21.5 mph34.6 kmh 29.97 in1014.9 mb 0.00 in0.0 mm 0.00 in0.0 mm 0.02 in0.5 mm
09:09 AM 61.7°F16.5°C 46.0°F7.8°C 56% 22.4 mph E36.0 kmh E 23.8 mph38.3 kmh 29.97 in1014.9 mb 0.00 in0.0 mm 0.00 in0.0 mm 0.02 in0.5 mm
09:08 AM 61.5°F16.4°C 46.0°F7.8°C 56% 22.2 mph NE35.7 kmh NE 23.5 mph37.8 kmh 29.97 in1014.9 mb 0.00 in0.0 mm 0.00 in0.0 mm 0.02 in0.5 mm
09:07 AM 61.5°F16.4°C 46.0°F7.8°C 56% 21.6 mph NE34.8 kmh NE 22.6 mph36.4 kmh 29.97 in1014.9 mb 0.00 in0.0 mm 0.00 in0.0 mm 0.02 in0.5 mm
09:06 AM 61.3°F16.3°C 46.0°F7.8°C 57% 21.5 mph NE34.6 kmh NE 22.5 mph36.2 kmh 29.97 in1014.9 mb 0.00 in0.0 mm 0.00 in0.0 mm 0.02 in0.5 mm
09:05 AM 61.3°F16.3°C 46.0°F7.8°C 56% 22.0 mph E35.4 kmh E 23.3 mph37.5 kmh 29.97 in1014.9 mb 0.00 in0.0 mm 0.00 in0.0 mm 0.02 in0.5 mm
09:04 AM 61.2°F16.2°C 45.0°F7.2°C 55% 22.4 mph ENE36.0 kmh ENE 23.8 mph38.3 kmh 29.97 in1014.9 mb 0.00 in0.0 mm 0.00 in0.0 mm 0.02 in0.5 mm
09:03 AM 61.0°F16.1°C 45.0°F7.2°C 55% 22.9 mph NE36.9 kmh NE 24.9 mph40.1 kmh 29.97 in1014.9 mb 0.00 in0.0 mm 0.00 in0.0 mm 0.02 in0.5 mm
09:02 AM 61.2°F16.2°C 45.0°F7.2°C 56% 22.2 mph NE35.7 kmh NE 23.8 mph38.3 kmh 29.97 in1014.9 mb 0.00 in0.0 mm 0.00 in0.0 mm 0.02 in0.5 mm
09:01 AM 61.0°F16.1°C 45.0°F7.2°C 56% 21.2 mph E34.1 kmh E 21.9 mph35.2 kmh 29.97 in1014.9 mb 0.00 in0.0 mm 0.00 in0.0 mm 0.02 in0.5 mm
09:00 AM 61.0°F16.1°C 45.0°F7.2°C 56% 22.8 mph NE36.7 kmh NE 24.7 mph39.8 kmh 29.97 in1014.9 mb 0.00 in0.0 mm 0.00 in0.0 mm 0.02 in0.5 mm
08:59 AM 61.2°F16.2°C 45.0°F7.2°C 56% 23.6 mph NE38.0 kmh NE 26.1 mph42.0 kmh 29.97 in1014.9 mb 0.00 in0.0 mm 0.00 in0.0 mm 0.02 in0.5 mm
08:58 AM 61.2°F16.2°C 46.0°F7.8°C 57% 22.7 mph NE36.5 kmh NE 24.6 mph39.6 kmh 29.97 in1014.9 mb 0.00 in0.0 mm 0.00 in0.0 mm 0.02 in0.5 mm
08:57 AM 61.0°F16.1°C 46.0°F7.8°C 57% 21.8 mph NE35.1 kmh NE 22.9 mph36.9 kmh 29.97 in1014.9 mb 0.00 in0.0 mm 0.00 in0.0 mm 0.02 in0.5 mm
08:56 AM 60.8°F16.0°C 45.0°F7.2°C 56% 21.3 mph ENE34.3 kmh ENE 22.2 mph35.7 kmh 29.97 in1014.9 mb 0.00 in0.0 mm 0.00 in0.0 mm 0.02 in0.5 mm
08:55 AM 61.0°F16.1°C 45.0°F7.2°C 56% 22.2 mph NE35.7 kmh NE 23.7 mph38.1 kmh 29.97 in1014.9 mb 0.00 in0.0 mm 0.00 in0.0 mm 0.02 in0.5 mm
08:54 AM 60.8°F16.0°C 45.0°F7.2°C 56% 21.8 mph NE35.1 kmh NE 22.8 mph36.7 kmh 29.97 in1014.9 mb 0.00 in0.0 mm 0.00 in0.0 mm 0.02 in0.5 mm
08:53 AM 60.8°F16.0°C 45.0°F7.2°C 57% 22.0 mph NE35.4 kmh NE 23.2 mph37.3 kmh 29.97 in1014.9 mb 0.00 in0.0 mm 0.00 in0.0 mm 0.02 in0.5 mm
08:52 AM 60.6°F15.9°C 45.0°F7.2°C 57% 21.9 mph NE35.2 kmh NE 23.2 mph37.3 kmh 29.97 in1014.9 mb 0.00 in0.0 mm 0.00 in0.0 mm 0.02 in0.5 mm
08:51 AM 60.6°F15.9°C 46.0°F7.8°C 58% 21.3 mph ENE34.3 kmh ENE 22.1 mph35.6 kmh 29.97 in1014.9 mb 0.00 in0.0 mm 0.00 in0.0 mm 0.02 in0.5 mm
08:50 AM 60.6°F15.9°C 46.0°F7.8°C 58% 21.3 mph NE34.3 kmh NE 23.4 mph37.7 kmh 29.97 in1014.9 mb 0.00 in0.0 mm 0.00 in0.0 mm 0.02 in0.5 mm
08:49 AM 60.6°F15.9°C 45.0°F7.2°C 57% 21.6 mph NE34.8 kmh NE 22.7 mph36.5 kmh 29.97 in1014.9 mb 0.00 in0.0 mm 0.00 in0.0 mm 0.02 in0.5 mm
08:48 AM 60.8°F16.0°C 45.0°F7.2°C 57% 21.6 mph E34.8 kmh E 22.6 mph36.4 kmh 29.97 in1014.9 mb 0.00 in0.0 mm 0.00 in0.0 mm 0.02 in0.5 mm
08:47 AM 60.8°F16.0°C 46.0°F7.8°C 58% 22.4 mph ENE36.0 kmh ENE 23.8 mph38.3 kmh 29.97 in1014.9 mb 0.00 in0.0 mm 0.00 in0.0 mm 0.02 in0.5 mm
08:46 AM 61.0°F16.1°C 46.0°F7.8°C 59% 22.0 mph NNE35.4 kmh NNE 23.2 mph37.3 kmh 29.97 in1014.9 mb 0.00 in0.0 mm 0.00 in0.0 mm 0.02 in0.5 mm
08:45 AM 60.8°F16.0°C 46.0°F7.8°C 59% 21.6 mph NE34.8 kmh NE 22.4 mph36.0 kmh 29.97 in1014.9 mb 0.00 in0.0 mm 0.00 in0.0 mm 0.02 in0.5 mm
08:44 AM 60.8°F16.0°C 46.0°F7.8°C 59% 21.7 mph NE34.9 kmh NE 22.8 mph36.7 kmh 29.97 in1014.9 mb 0.00 in0.0 mm 0.00 in0.0 mm 0.02 in0.5 mm
08:43 AM 60.8°F16.0°C 46.0°F7.8°C 59% 21.0 mph E33.8 kmh E 21.6 mph34.8 kmh 29.97 in1014.9 mb 0.00 in0.0 mm 0.00 in0.0 mm 0.02 in0.5 mm
08:42 AM 60.6°F15.9°C 46.0°F7.8°C 59% 21.1 mph NE34.0 kmh NE 21.7 mph34.9 kmh 29.97 in1014.9 mb 0.00 in0.0 mm 0.00 in0.0 mm 0.02 in0.5 mm
08:41 AM 60.6°F15.9°C 46.0°F7.8°C 59% 21.4 mph NE34.4 kmh NE 22.2 mph35.7 kmh 29.97 in1014.9 mb 0.00 in0.0 mm 0.00 in0.0 mm 0.02 in0.5 mm
08:40 AM 60.6°F15.9°C 46.0°F7.8°C 59% 21.4 mph NE34.4 kmh NE 22.2 mph35.7 kmh 29.97 in1014.9 mb 0.00 in0.0 mm 0.00 in0.0 mm 0.02 in0.5 mm
08:39 AM 60.6°F15.9°C 46.0°F7.8°C 59% 21.6 mph NNE34.8 kmh NNE 22.4 mph36.0 kmh 29.97 in1014.9 mb 0.00 in0.0 mm 0.00 in0.0 mm 0.02 in0.5 mm
08:38 AM 60.6°F15.9°C 45.0°F7.2°C 57% 23.1 mph NE37.2 kmh NE 25.1 mph40.4 kmh 29.97 in1014.9 mb 0.00 in0.0 mm 0.00 in0.0 mm 0.02 in0.5 mm
08:37 AM 60.4°F15.8°C 45.0°F7.2°C 57% 23.2 mph NE37.3 kmh NE 25.1 mph40.4 kmh 29.97 in1014.9 mb 0.00 in0.0 mm 0.00 in0.0 mm 0.02 in0.5 mm
08:36 AM 60.4°F15.8°C 45.0°F7.2°C 57% 22.4 mph NNE36.0 kmh NNE 23.7 mph38.1 kmh 29.97 in1014.9 mb 0.00 in0.0 mm 0.00 in0.0 mm 0.02 in0.5 mm
08:35 AM 60.3°F15.7°C 45.0°F7.2°C 58% 22.8 mph NNE36.7 kmh NNE 24.5 mph39.4 kmh 29.97 in1014.9 mb 0.00 in0.0 mm 0.00 in0.0 mm 0.02 in0.5 mm
08:34 AM 60.1°F15.6°C 45.0°F7.2°C 58% 23.2 mph NNE37.3 kmh NNE 25.4 mph40.9 kmh 29.97 in1014.9 mb 0.00 in0.0 mm 0.00 in0.0 mm 0.02 in0.5 mm
08:33 AM 60.1°F15.6°C 45.0°F7.2°C 59% 22.4 mph NE36.0 kmh NE 23.8 mph38.3 kmh 29.97 in1014.9 mb 0.00 in0.0 mm 0.00 in0.0 mm 0.02 in0.5 mm
08:32 AM 59.9°F15.5°C 46.0°F7.8°C 59% 22.0 mph E35.4 kmh E 23.1 mph37.2 kmh 29.97 in1014.9 mb 0.00 in0.0 mm 0.00 in0.0 mm 0.02 in0.5 mm
08:31 AM 59.9°F15.5°C 45.0°F7.2°C 59% 23.5 mph NE37.8 kmh NE 25.6 mph41.2 kmh 29.97 in1014.9 mb 0.00 in0.0 mm 0.00 in0.0 mm 0.02 in0.5 mm
08:30 AM 59.7°F15.4°C 46.0°F7.8°C 60% 21.7 mph NNE34.9 kmh NNE 22.9 mph36.9 kmh 29.97 in1014.9 mb 0.00 in0.0 mm 0.00 in0.0 mm 0.02 in0.5 mm
08:29 AM 59.7°F15.4°C 46.0°F7.8°C 59% 21.8 mph NE35.1 kmh NE 23.1 mph37.2 kmh 29.97 in1014.9 mb 0.00 in0.0 mm 0.00 in0.0 mm 0.02 in0.5 mm
08:27 AM 59.5°F15.3°C 45.0°F7.2°C 59% 22.1 mph NE35.6 kmh NE 23.3 mph37.5 kmh 29.97 in1014.9 mb 0.00 in0.0 mm 0.00 in0.0 mm 0.02 in0.5 mm
08:26 AM 59.5°F15.3°C 45.0°F7.2°C 59% 23.3 mph NNE37.5 kmh NNE 25.4 mph40.9 kmh 29.97 in1014.9 mb 0.00 in0.0 mm 0.00 in0.0 mm 0.02 in0.5 mm
08:25 AM 59.5°F15.3°C 45.0°F7.2°C 59% 22.0 mph NE35.4 kmh NE 23.2 mph37.3 kmh 29.97 in1014.9 mb 0.00 in0.0 mm 0.00 in0.0 mm 0.02 in0.5 mm
08:24 AM 59.5°F15.3°C 45.0°F7.2°C 59% 22.7 mph NE36.5 kmh NE 24.4 mph39.3 kmh 29.97 in1014.9 mb 0.00 in0.0 mm 0.00 in0.0 mm 0.02 in0.5 mm
08:23 AM 59.5°F15.3°C 45.0°F7.2°C 59% 22.4 mph NNE36.0 kmh NNE 23.9 mph38.5 kmh 29.97 in1014.9 mb 0.00 in0.0 mm 0.00 in0.0 mm 0.02 in0.5 mm
08:22 AM 59.5°F15.3°C 45.0°F7.2°C 59% 23.3 mph NE37.5 kmh NE 25.6 mph41.2 kmh 29.97 in1014.9 mb 0.00 in0.0 mm 0.00 in0.0 mm 0.02 in0.5 mm
08:21 AM 59.5°F15.3°C 45.0°F7.2°C 60% 22.5 mph NNE36.2 kmh NNE 23.9 mph38.5 kmh 29.97 in1014.9 mb 0.00 in0.0 mm 0.00 in0.0 mm 0.02 in0.5 mm
08:20 AM 59.4°F15.2°C 45.0°F7.2°C 59% 22.3 mph ENE35.9 kmh ENE 23.8 mph38.3 kmh 29.97 in1014.9 mb 0.00 in0.0 mm 0.00 in0.0 mm 0.02 in0.5 mm
08:19 AM 59.4°F15.2°C 45.0°F7.2°C 60% 21.7 mph NE34.9 kmh NE 22.8 mph36.7 kmh 29.97 in1014.9 mb 0.00 in0.0 mm 0.00 in0.0 mm 0.02 in0.5 mm
08:18 AM 59.4°F15.2°C 46.0°F7.8°C 61% 22.1 mph NNE35.6 kmh NNE 23.3 mph37.5 kmh 29.97 in1014.9 mb 0.00 in0.0 mm 0.00 in0.0 mm 0.02 in0.5 mm
08:17 AM 59.4°F15.2°C 45.0°F7.2°C 60% 22.1 mph NE35.6 kmh NE 23.3 mph37.5 kmh 29.97 in1014.9 mb 0.00 in0.0 mm 0.00 in0.0 mm 0.02 in0.5 mm
08:16 AM 59.2°F15.1°C 45.0°F7.2°C 59% 22.7 mph NE36.5 kmh NE 24.7 mph39.8 kmh 29.97 in1014.9 mb 0.00 in0.0 mm 0.00 in0.0 mm 0.02 in0.5 mm
08:15 AM 59.2°F15.1°C 45.0°F7.2°C 60% 22.7 mph NE36.5 kmh NE 24.7 mph39.8 kmh 29.97 in1014.9 mb 0.00 in0.0 mm 0.00 in0.0 mm 0.02 in0.5 mm
08:14 AM 59.2°F15.1°C 45.0°F7.2°C 60% 22.7 mph NE36.5 kmh NE 24.7 mph39.8 kmh 29.97 in1014.9 mb 0.00 in0.0 mm 0.00 in0.0 mm 0.02 in0.5 mm
08:13 AM 59.0°F15.0°C 45.0°F7.2°C 60% 21.8 mph NE35.1 kmh NE 22.9 mph36.9 kmh 29.97 in1014.9 mb 0.00 in0.0 mm 0.00 in0.0 mm 0.02 in0.5 mm
08:12 AM 59.0°F15.0°C 45.0°F7.2°C 60% 21.9 mph NNE35.2 kmh NNE 22.9 mph36.9 kmh 29.97 in1014.9 mb 0.00 in0.0 mm 0.00 in0.0 mm 0.02 in0.5 mm
08:11 AM 59.0°F15.0°C 45.0°F7.2°C 60% 23.2 mph NNE37.3 kmh NNE 25.4 mph40.9 kmh 29.97 in1014.9 mb 0.00 in0.0 mm 0.00 in0.0 mm 0.02 in0.5 mm
08:10 AM 59.0°F15.0°C 45.0°F7.2°C 60% 22.8 mph NE36.7 kmh NE 24.6 mph39.6 kmh 29.97 in1014.9 mb 0.00 in0.0 mm 0.00 in0.0 mm 0.02 in0.5 mm
08:09 AM 59.0°F15.0°C 45.0°F7.2°C 61% 22.2 mph NE35.7 kmh NE 23.7 mph38.1 kmh 29.97 in1014.9 mb 0.00 in0.0 mm 0.00 in0.0 mm 0.02 in0.5 mm
08:08 AM 59.0°F15.0°C 45.0°F7.2°C 61% 21.9 mph NE35.2 kmh NE 22.9 mph36.9 kmh 29.97 in1014.9 mb 0.00 in0.0 mm 0.00 in0.0 mm 0.02 in0.5 mm
08:07 AM 58.8°F14.9°C 45.0°F7.2°C 60% 23.1 mph NE37.2 kmh NE 25.0 mph40.2 kmh 29.97 in1014.9 mb 0.00 in0.0 mm 0.00 in0.0 mm 0.02 in0.5 mm
08:06 AM 58.8°F14.9°C 45.0°F7.2°C 60% 22.8 mph NNE36.7 kmh NNE 24.5 mph39.4 kmh 29.97 in1014.9 mb 0.00 in0.0 mm 0.00 in0.0 mm 0.02 in0.5 mm
08:05 AM 58.8°F14.9°C 45.0°F7.2°C 60% 22.5 mph NNE36.2 kmh NNE 24.3 mph39.1 kmh 29.97 in1014.9 mb 0.00 in0.0 mm 0.00 in0.0 mm 0.02 in0.5 mm
08:04 AM 58.8°F14.9°C 45.0°F7.2°C 60% 22.4 mph NE36.0 kmh NE 23.9 mph38.5 kmh 29.96 in1014.6 mb 0.00 in0.0 mm 0.00 in0.0 mm 0.02 in0.5 mm
08:03 AM 58.8°F14.9°C 45.0°F7.2°C 60% 22.9 mph NE36.9 kmh NE 24.7 mph39.8 kmh 29.96 in1014.6 mb 0.00 in0.0 mm 0.00 in0.0 mm 0.02 in0.5 mm
08:02 AM 58.8°F14.9°C 45.0°F7.2°C 60% 22.7 mph N36.5 kmh N 24.4 mph39.3 kmh 29.96 in1014.6 mb 0.00 in0.0 mm 0.00 in0.0 mm 0.02 in0.5 mm
08:01 AM 58.8°F14.9°C 45.0°F7.2°C 61% 22.3 mph NE35.9 kmh NE 23.7 mph38.1 kmh 29.96 in1014.6 mb 0.00 in0.0 mm 0.00 in0.0 mm 0.02 in0.5 mm
08:00 AM 58.6°F14.8°C 45.0°F7.2°C 61% 21.9 mph NNE35.2 kmh NNE 23.0 mph37.0 kmh 29.96 in1014.6 mb 0.00 in0.0 mm 0.00 in0.0 mm 0.02 in0.5 mm
07:59 AM 58.6°F14.8°C 45.0°F7.2°C 61% 21.6 mph NNE34.8 kmh NNE 22.7 mph36.5 kmh 29.96 in1014.6 mb 0.00 in0.0 mm 0.00 in0.0 mm 0.02 in0.5 mm
07:58 AM 58.6°F14.8°C 45.0°F7.2°C 61% 22.1 mph NE35.6 kmh NE 23.3 mph37.5 kmh 29.96 in1014.6 mb 0.00 in0.0 mm 0.00 in0.0 mm 0.02 in0.5 mm
07:57 AM 58.6°F14.8°C 45.0°F7.2°C 61% 22.3 mph NE35.9 kmh NE 23.6 mph38.0 kmh 29.96 in1014.6 mb 0.00 in0.0 mm 0.00 in0.0 mm 0.02 in0.5 mm
07:56 AM 58.6°F14.8°C 45.0°F7.2°C 61% 21.9 mph NE35.2 kmh NE 23.0 mph37.0 kmh 29.96 in1014.6 mb 0.00 in0.0 mm 0.00 in0.0 mm 0.02 in0.5 mm
07:55 AM 58.5°F14.7°C 45.0°F7.2°C 61% 22.2 mph NNE35.7 kmh NNE 23.5 mph37.8 kmh 29.96 in1014.6 mb 0.00 in0.0 mm 0.00 in0.0 mm 0.02 in0.5 mm
07:54 AM 58.5°F14.7°C 45.0°F7.2°C 61% 22.5 mph NNE36.2 kmh NNE 24.0 mph38.6 kmh 29.96 in1014.6 mb 0.00 in0.0 mm 0.00 in0.0 mm 0.02 in0.5 mm
07:53 AM 58.5°F14.7°C 45.0°F7.2°C 62% 21.7 mph NE34.9 kmh NE 22.8 mph36.7 kmh 29.96 in1014.6 mb 0.00 in0.0 mm 0.00 in0.0 mm 0.02 in0.5 mm
07:51 AM 58.3°F14.6°C 45.0°F7.2°C 61% 22.5 mph NNE36.2 kmh NNE 24.0 mph38.6 kmh 29.96 in1014.6 mb 0.00 in0.0 mm 0.00 in0.0 mm 0.02 in0.5 mm
07:50 AM 58.5°F14.7°C 45.0°F7.2°C 61% 21.9 mph NNE35.2 kmh NNE 23.0 mph37.0 kmh 29.96 in1014.6 mb 0.00 in0.0 mm 0.00 in0.0 mm 0.02 in0.5 mm
07:49 AM 58.3°F14.6°C 45.0°F7.2°C 61% 21.9 mph NNE35.2 kmh NNE 23.1 mph37.2 kmh 29.96 in1014.6 mb 0.00 in0.0 mm 0.00 in0.0 mm 0.02 in0.5 mm
07:48 AM 58.3°F14.6°C 45.0°F7.2°C 61% 22.6 mph NE36.4 kmh NE 24.6 mph39.6 kmh 29.96 in1014.6 mb 0.00 in0.0 mm 0.00 in0.0 mm 0.02 in0.5 mm
07:47 AM 58.3°F14.6°C 45.0°F7.2°C 62% 21.8 mph NNE35.1 kmh NNE 22.9 mph36.9 kmh 29.96 in1014.6 mb 0.00 in0.0 mm 0.00 in0.0 mm 0.02 in0.5 mm
07:46 AM 58.1°F14.5°C 45.0°F7.2°C 62% 21.7 mph NE34.9 kmh NE 22.6 mph36.4 kmh 29.96 in1014.6 mb 0.00 in0.0 mm 0.00 in0.0 mm 0.02 in0.5 mm
07:45 AM 58.1°F14.5°C 44.0°F6.7°C 61% 22.0 mph NE35.4 kmh NE 23.3 mph37.5 kmh 29.96 in1014.6 mb 0.00 in0.0 mm 0.00 in0.0 mm 0.02 in0.5 mm
07:44 AM 58.1°F14.5°C 45.0°F7.2°C 61% 21.9 mph NE35.2 kmh NE 23.1 mph37.2 kmh 29.96 in1014.6 mb 0.02 in0.5 mm 0.00 in0.0 mm 0.02 in0.5 mm
07:43 AM 57.9°F14.4°C 45.0°F7.2°C 62% 21.7 mph NNE34.9 kmh NNE 22.7 mph36.5 kmh 29.96 in1014.6 mb 0.02 in0.5 mm 0.00 in0.0 mm 0.02 in0.5 mm
07:42 AM 58.1°F14.5°C 45.0°F7.2°C 61% 22.2 mph NE35.7 kmh NE 23.5 mph37.8 kmh 29.96 in1014.6 mb 0.02 in0.5 mm 0.00 in0.0 mm 0.02 in0.5 mm
07:41 AM 57.9°F14.4°C 45.0°F7.2°C 61% 22.1 mph NNE35.6 kmh NNE 23.6 mph38.0 kmh 29.96 in1014.6 mb 0.02 in0.5 mm 0.00 in0.0 mm 0.02 in0.5 mm
07:40 AM 57.9°F14.4°C 45.0°F7.2°C 62% 21.6 mph NNE34.8 kmh NNE 22.7 mph36.5 kmh 29.96 in1014.6 mb 0.02 in0.5 mm 0.00 in0.0 mm 0.02 in0.5 mm
07:39 AM 57.7°F14.3°C 45.0°F7.2°C 62% 21.9 mph NNE35.2 kmh NNE 23.0 mph37.0 kmh 29.96 in1014.6 mb 0.02 in0.5 mm 0.00 in0.0 mm 0.02 in0.5 mm
07:38 AM 57.7°F14.3°C 44.0°F6.7°C 61% 21.9 mph NNE35.2 kmh NNE 23.0 mph37.0 kmh 29.96 in1014.6 mb 0.02 in0.5 mm 0.00 in0.0 mm 0.02 in0.5 mm
07:37 AM 57.7°F14.3°C 45.0°F7.2°C 62% 22.3 mph NE35.9 kmh NE 23.6 mph38.0 kmh 29.96 in1014.6 mb 0.02 in0.5 mm 0.00 in0.0 mm 0.02 in0.5 mm
07:36 AM 57.6°F14.2°C 45.0°F7.2°C 62% 21.5 mph NNE34.6 kmh NNE 22.3 mph35.9 kmh 29.96 in1014.6 mb 0.02 in0.5 mm 0.00 in0.0 mm 0.02 in0.5 mm
07:35 AM 57.6°F14.2°C 45.0°F7.2°C 62% 22.6 mph NE36.4 kmh NE 24.1 mph38.8 kmh 29.96 in1014.6 mb 0.02 in0.5 mm 0.00 in0.0 mm 0.02 in0.5 mm
07:34 AM 57.6°F14.2°C 45.0°F7.2°C 63% 22.3 mph NNE35.9 kmh NNE 23.7 mph38.1 kmh 29.96 in1014.6 mb 0.02 in0.5 mm 0.00 in0.0 mm 0.02 in0.5 mm
07:33 AM 57.6°F14.2°C 45.0°F7.2°C 62% 21.8 mph NNE35.1 kmh NNE 22.9 mph36.9 kmh 29.96 in1014.6 mb 0.02 in0.5 mm 0.00 in0.0 mm 0.02 in0.5 mm
07:32 AM 57.6°F14.2°C 45.0°F7.2°C 63% 22.1 mph NNE35.6 kmh NNE 23.3 mph37.5 kmh 29.96 in1014.6 mb 0.02 in0.5 mm 0.00 in0.0 mm 0.02 in0.5 mm
07:31 AM 57.6°F14.2°C 45.0°F7.2°C 63% 21.6 mph NNE34.8 kmh NNE 22.7 mph36.5 kmh 29.96 in1014.6 mb 0.02 in0.5 mm 0.00 in0.0 mm 0.02 in0.5 mm
07:30 AM 57.4°F14.1°C 45.0°F7.2°C 63% 21.8 mph NE35.1 kmh NE 22.8 mph36.7 kmh 29.96 in1014.6 mb 0.02 in0.5 mm 0.00 in0.0 mm 0.02 in0.5 mm
07:28 AM 57.2°F14.0°C 45.0°F7.2°C 63% 22.0 mph NNE35.4 kmh NNE 23.1 mph37.2 kmh 29.96 in1014.6 mb 0.02 in0.5 mm 0.00 in0.0 mm 0.02 in0.5 mm
07:27 AM 57.2°F14.0°C 45.0°F7.2°C 63% 22.0 mph NNE35.4 kmh NNE 23.1 mph37.2 kmh 29.96 in1014.6 mb 0.02 in0.5 mm 0.00 in0.0 mm 0.02 in0.5 mm
07:26 AM 57.2°F14.0°C 45.0°F7.2°C 63% 21.9 mph NE35.2 kmh NE 23.0 mph37.0 kmh 29.96 in1014.6 mb 0.02 in0.5 mm 0.00 in0.0 mm 0.02 in0.5 mm
07:25 AM 57.2°F14.0°C 45.0°F7.2°C 63% 21.9 mph NNE35.2 kmh NNE 23.0 mph37.0 kmh 29.96 in1014.6 mb 0.02 in0.5 mm 0.00 in0.0 mm 0.02 in0.5 mm
07:24 AM 57.0°F13.9°C 45.0°F7.2°C 63% 21.6 mph NNE34.8 kmh NNE 22.7 mph36.5 kmh 29.96 in1014.6 mb 0.02 in0.5 mm 0.00 in0.0 mm 0.02 in0.5 mm
07:23 AM 57.0°F13.9°C 45.0°F7.2°C 64% 21.8 mph NE35.1 kmh NE 22.8 mph36.7 kmh 29.96 in1014.6 mb 0.02 in0.5 mm 0.00 in0.0 mm 0.02 in0.5 mm
07:22 AM 57.0°F13.9°C 45.0°F7.2°C 64% 22.0 mph NNE35.4 kmh NNE 23.2 mph37.3 kmh 29.96 in1014.6 mb 0.02 in0.5 mm 0.00 in0.0 mm 0.02 in0.5 mm
07:21 AM 57.0°F13.9°C 45.0°F7.2°C 64% 21.9 mph NE35.2 kmh NE 23.0 mph37.0 kmh 29.96 in1014.6 mb 0.02 in0.5 mm 0.00 in0.0 mm 0.02 in0.5 mm
07:20 AM 57.0°F13.9°C 45.0°F7.2°C 64% 21.9 mph NE35.2 kmh NE 23.0 mph37.0 kmh 29.96 in1014.6 mb 0.02 in0.5 mm 0.00 in0.0 mm 0.02 in0.5 mm
07:19 AM 56.8°F13.8°C 45.0°F7.2°C 64% 21.9 mph NNE35.2 kmh NNE 23.0 mph37.0 kmh 29.96 in1014.6 mb 0.02 in0.5 mm 0.00 in0.0 mm 0.02 in0.5 mm
07:18 AM 56.8°F13.8°C 45.0°F7.2°C 64% 22.0 mph NE35.4 kmh NE 23.2 mph37.3 kmh 29.96 in1014.6 mb 0.02 in0.5 mm 0.00 in0.0 mm 0.02 in0.5 mm
07:16 AM 56.8°F13.8°C 45.0°F7.2°C 64% 22.4 mph NE36.0 kmh NE 23.8 mph38.3 kmh 29.95 in1014.2 mb 0.02 in0.5 mm 0.00 in0.0 mm 0.02 in0.5 mm
07:15 AM 56.8°F13.8°C 45.0°F7.2°C 64% 22.1 mph NNE35.6 kmh NNE 23.3 mph37.5 kmh 29.95 in1014.2 mb 0.02 in0.5 mm 0.00 in0.0 mm 0.02 in0.5 mm
07:14 AM 56.8°F13.8°C 45.0°F7.2°C 64% 22.0 mph NE35.4 kmh NE 23.1 mph37.2 kmh 29.96 in1014.6 mb 0.02 in0.5 mm 0.00 in0.0 mm 0.02 in0.5 mm
07:13 AM 56.7°F13.7°C 45.0°F7.2°C 64% 22.1 mph NNE35.6 kmh NNE 23.3 mph37.5 kmh 29.96 in1014.6 mb 0.02 in0.5 mm 0.00 in0.0 mm 0.02 in0.5 mm
07:12 AM 56.7°F13.7°C 45.0°F7.2°C 64% 21.8 mph NNE35.1 kmh NNE 22.8 mph36.7 kmh 29.96 in1014.6 mb 0.02 in0.5 mm 0.00 in0.0 mm 0.02 in0.5 mm
07:11 AM 56.7°F13.7°C 44.0°F6.7°C 64% 22.1 mph NNE35.6 kmh NNE 23.2 mph37.3 kmh 29.96 in1014.6 mb 0.02 in0.5 mm 0.00 in0.0 mm 0.02 in0.5 mm
07:10 AM 56.5°F13.6°C 44.0°F6.7°C 64% 22.0 mph NE35.4 kmh NE 23.1 mph37.2 kmh 29.96 in1014.6 mb 0.02 in0.5 mm 0.00 in0.0 mm 0.02 in0.5 mm
07:09 AM 56.5°F13.6°C 44.0°F6.7°C 64% 22.1 mph NNE35.6 kmh NNE 23.3 mph37.5 kmh 29.96 in1014.6 mb 0.02 in0.5 mm 0.00 in0.0 mm 0.02 in0.5 mm
07:08 AM 56.5°F13.6°C 45.0°F7.2°C 65% 22.1 mph NE35.6 kmh NE 23.4 mph37.7 kmh 29.96 in1014.6 mb 0.02 in0.5 mm 0.00 in0.0 mm 0.02 in0.5 mm
07:07 AM 56.5°F13.6°C 44.0°F6.7°C 64% 22.0 mph NNE35.4 kmh NNE 23.2 mph37.3 kmh 29.96 in1014.6 mb 0.02 in0.5 mm 0.00 in0.0 mm 0.02 in0.5 mm
07:06 AM 56.5°F13.6°C 44.0°F6.7°C 64% 22.1 mph NE35.6 kmh NE 23.5 mph37.8 kmh 29.96 in1014.6 mb 0.02 in0.5 mm 0.00 in0.0 mm 0.02 in0.5 mm
07:05 AM 56.5°F13.6°C 45.0°F7.2°C 65% 22.0 mph NE35.4 kmh NE 23.2 mph37.3 kmh 29.96 in1014.6 mb 0.02 in0.5 mm 0.00 in0.0 mm 0.02 in0.5 mm
07:04 AM 56.5°F13.6°C 45.0°F7.2°C 65% 21.8 mph NE35.1 kmh NE 22.9 mph36.9 kmh 29.96 in1014.6 mb 0.02 in0.5 mm 0.00 in0.0 mm 0.02 in0.5 mm
07:03 AM 56.5°F13.6°C 45.0°F7.2°C 65% 21.6 mph NE34.8 kmh NE 22.5 mph36.2 kmh 29.96 in1014.6 mb 0.02 in0.5 mm 0.00 in0.0 mm 0.02 in0.5 mm
07:02 AM 56.3°F13.5°C 44.0°F6.7°C 65% 21.9 mph NNE35.2 kmh NNE 23.0 mph37.0 kmh 29.96 in1014.6 mb 0.02 in0.5 mm 0.00 in0.0 mm 0.02 in0.5 mm
07:01 AM 56.3°F13.5°C 44.0°F6.7°C 64% 22.0 mph NNE35.4 kmh NNE 23.1 mph37.2 kmh 29.96 in1014.6 mb 0.02 in0.5 mm 0.00 in0.0 mm 0.02 in0.5 mm
07:00 AM 56.3°F13.5°C 44.0°F6.7°C 65% 21.3 mph NE34.3 kmh NE 22.1 mph35.6 kmh 29.96 in1014.6 mb 0.02 in0.5 mm 0.00 in0.0 mm 0.02 in0.5 mm
06:59 AM 56.3°F13.5°C 44.0°F6.7°C 64% 21.6 mph NE34.8 kmh NE 22.5 mph36.2 kmh 29.96 in1014.6 mb 0.02 in0.5 mm 0.00 in0.0 mm 0.02 in0.5 mm
06:58 AM 56.3°F13.5°C 44.0°F6.7°C 64% 21.7 mph NNE34.9 kmh NNE 22.7 mph36.5 kmh 29.95 in1014.2 mb 0.02 in0.5 mm 0.00 in0.0 mm 0.02 in0.5 mm
06:57 AM 56.3°F13.5°C 44.0°F6.7°C 65% 21.5 mph NNE34.6 kmh NNE 22.4 mph36.0 kmh 29.95 in1014.2 mb 0.02 in0.5 mm 0.00 in0.0 mm 0.02 in0.5 mm
06:55 AM 56.1°F13.4°C 44.0°F6.7°C 64% 21.3 mph NE34.3 kmh NE 22.1 mph35.6 kmh 29.95 in1014.2 mb 0.02 in0.5 mm 0.00 in0.0 mm 0.02 in0.5 mm
06:54 AM 56.1°F13.4°C 44.0°F6.7°C 64% 21.7 mph NE34.9 kmh NE 22.7 mph36.5 kmh 29.95 in1014.2 mb 0.02 in0.5 mm 0.00 in0.0 mm 0.02 in0.5 mm
06:53 AM 56.1°F13.4°C 44.0°F6.7°C 65% 21.4 mph NNE34.4 kmh NNE 22.2 mph35.7 kmh 29.95 in1014.2 mb 0.02 in0.5 mm 0.00 in0.0 mm 0.02 in0.5 mm
06:52 AM 56.1°F13.4°C 44.0°F6.7°C 65% 21.2 mph NNE34.1 kmh NNE 22.0 mph35.4 kmh 29.95 in1014.2 mb 0.02 in0.5 mm 0.00 in0.0 mm 0.02 in0.5 mm
06:51 AM 55.9°F13.3°C 44.0°F6.7°C 65% 21.5 mph NE34.6 kmh NE 22.3 mph35.9 kmh 29.95 in1014.2 mb 0.02 in0.5 mm 0.00 in0.0 mm 0.02 in0.5 mm
06:50 AM 56.1°F13.4°C 44.0°F6.7°C 65% 21.1 mph NNE34.0 kmh NNE 21.7 mph34.9 kmh 29.95 in1014.2 mb 0.02 in0.5 mm 0.00 in0.0 mm 0.02 in0.5 mm
06:49 AM 55.9°F13.3°C 44.0°F6.7°C 65% 21.6 mph NE34.8 kmh NE 22.6 mph36.4 kmh 29.95 in1014.2 mb 0.02 in0.5 mm 0.00 in0.0 mm 0.02 in0.5 mm
06:48 AM 55.9°F13.3°C 44.0°F6.7°C 64% 21.2 mph NE34.1 kmh NE 21.9 mph35.2 kmh 29.95 in1014.2 mb 0.02 in0.5 mm 0.00 in0.0 mm 0.02 in0.5 mm
06:47 AM 55.9°F13.3°C 44.0°F6.7°C 65% 21.9 mph NNE35.2 kmh NNE 23.1 mph37.2 kmh 29.95 in1014.2 mb 0.02 in0.5 mm 0.00 in0.0 mm 0.02 in0.5 mm
06:46 AM 55.8°F13.2°C 44.0°F6.7°C 65% 21.4 mph NE34.4 kmh NE 22.8 mph36.7 kmh 29.95 in1014.2 mb 0.02 in0.5 mm 1.20 in30.5 mm 0.02 in0.5 mm
06:45 AM 55.8°F13.2°C 44.0°F6.7°C 65% 21.4 mph NNE34.4 kmh NNE 22.2 mph35.7 kmh 29.95 in1014.2 mb 0.00 in0.0 mm 0.00 in0.0 mm 0.00 in0.0 mm
06:44 AM 55.8°F13.2°C 44.0°F6.7°C 65% 21.0 mph NNE33.8 kmh NNE 21.6 mph34.8 kmh 29.95 in1014.2 mb 0.00 in0.0 mm 0.00 in0.0 mm 0.00 in0.0 mm
06:43 AM 55.8°F13.2°C 44.0°F6.7°C 64% 21.6 mph NE34.8 kmh NE 22.5 mph36.2 kmh 29.95 in1014.2 mb 0.00 in0.0 mm 0.00 in0.0 mm 0.00 in0.0 mm
06:42 AM 55.8°F13.2°C 44.0°F6.7°C 64% 21.6 mph NE34.8 kmh NE 22.6 mph36.4 kmh 29.95 in1014.2 mb 0.00 in0.0 mm 0.00 in0.0 mm 0.00 in0.0 mm
06:41 AM 55.6°F13.1°C 44.0°F6.7°C 65% 21.7 mph NNE34.9 kmh NNE 22.7 mph36.5 kmh 29.95 in1014.2 mb 0.00 in0.0 mm 0.00 in0.0 mm 0.00 in0.0 mm
06:40 AM 55.6°F13.1°C 44.0°F6.7°C 65% 21.9 mph NE35.2 kmh NE 22.9 mph36.9 kmh 29.95 in1014.2 mb 0.00 in0.0 mm 0.00 in0.0 mm 0.00 in0.0 mm
06:39 AM 55.6°F13.1°C 44.0°F6.7°C 65% 21.6 mph NE34.8 kmh NE 22.6 mph36.4 kmh 29.95 in1014.2 mb 0.00 in0.0 mm 0.00 in0.0 mm 0.00 in0.0 mm
06:38 AM 55.4°F13.0°C 44.0°F6.7°C 66% 21.5 mph NE34.6 kmh NE 22.3 mph35.9 kmh 29.95 in1014.2 mb 0.00 in0.0 mm 0.00 in0.0 mm 0.00 in0.0 mm
06:37 AM 55.4°F13.0°C 44.0°F6.7°C 65% 21.9 mph NNE35.2 kmh NNE 22.9 mph36.9 kmh 29.95 in1014.2 mb 0.00 in0.0 mm 0.00 in0.0 mm 0.00 in0.0 mm
06:36 AM 55.2°F12.9°C 44.0°F6.7°C 66% 21.6 mph NE34.8 kmh NE 22.6 mph36.4 kmh 29.95 in1014.2 mb 0.00 in0.0 mm 0.00 in0.0 mm 0.00 in0.0 mm
06:35 AM 55.2°F12.9°C 44.0°F6.7°C 65% 21.3 mph NNE34.3 kmh NNE 22.0 mph35.4 kmh 29.95 in1014.2 mb 0.00 in0.0 mm 0.00 in0.0 mm 0.00 in0.0 mm
06:34 AM 55.2°F12.9°C 44.0°F6.7°C 65% 21.4 mph NE34.4 kmh NE 22.2 mph35.7 kmh 29.95 in1014.2 mb 0.00 in0.0 mm 0.00 in0.0 mm 0.00 in0.0 mm
06:33 AM 55.0°F12.8°C 44.0°F6.7°C 66% 21.4 mph NE34.4 kmh NE 22.3 mph35.9 kmh 29.95 in1014.2 mb 0.00 in0.0 mm 0.00 in0.0 mm 0.00 in0.0 mm
06:32 AM 55.2°F12.9°C 44.0°F6.7°C 66% 21.7 mph NE34.9 kmh NE 22.7 mph36.5 kmh 29.95 in1014.2 mb 0.00 in0.0 mm 0.00 in0.0 mm 0.00 in0.0 mm
06:31 AM 55.0°F12.8°C 44.0°F6.7°C 66% 21.7 mph NE34.9 kmh NE 22.7 mph36.5 kmh 29.95 in1014.2 mb 0.00 in0.0 mm 0.00 in0.0 mm 0.00 in0.0 mm
06:30 AM 54.9°F12.7°C 44.0°F6.7°C 66% 21.9 mph NE35.2 kmh NE 22.9 mph36.9 kmh 29.95 in1014.2 mb 0.00 in0.0 mm 0.00 in0.0 mm 0.00 in0.0 mm
06:29 AM 55.0°F12.8°C 44.0°F6.7°C 67% 21.1 mph NNE34.0 kmh NNE 21.7 mph34.9 kmh 29.95 in1014.2 mb 0.00 in0.0 mm 0.00 in0.0 mm 0.00 in0.0 mm
06:28 AM 54.9°F12.7°C 44.0°F6.7°C 67% 21.1 mph NNE34.0 kmh NNE 21.8 mph35.1 kmh 29.95 in1014.2 mb 0.00 in0.0 mm 0.00 in0.0 mm 0.00 in0.0 mm
06:27 AM 54.9°F12.7°C 44.0°F6.7°C 67% 21.3 mph NE34.3 kmh NE 22.0 mph35.4 kmh 29.95 in1014.2 mb 0.00 in0.0 mm 0.00 in0.0 mm 0.00 in0.0 mm
06:26 AM 54.9°F12.7°C 44.0°F6.7°C 67% 21.6 mph NE34.8 kmh NE 22.5 mph36.2 kmh 29.95 in1014.2 mb 0.00 in0.0 mm 0.00 in0.0 mm 0.00 in0.0 mm
06:25 AM 54.7°F12.6°C 44.0°F6.7°C 66% 21.4 mph NNE34.4 kmh NNE 22.2 mph35.7 kmh 29.95 in1014.2 mb 0.00 in0.0 mm 0.00 in0.0 mm 0.00 in0.0 mm
06:24 AM 54.7°F12.6°C 44.0°F6.7°C 67% 21.1 mph NE34.0 kmh NE 21.7 mph34.9 kmh 29.95 in1014.2 mb 0.00 in0.0 mm 0.00 in0.0 mm 0.00 in0.0 mm
06:23 AM 54.7°F12.6°C 44.0°F6.7°C 67% 21.5 mph NE34.6 kmh NE 22.4 mph36.0 kmh 29.95 in1014.2 mb 0.00 in0.0 mm 0.00 in0.0 mm 0.00 in0.0 mm
06:22 AM 54.7°F12.6°C 44.0°F6.7°C 67% 21.1 mph NE34.0 kmh NE 21.8 mph35.1 kmh 29.95 in1014.2 mb 0.00 in0.0 mm 0.00 in0.0 mm 0.00 in0.0 mm
06:21 AM 54.5°F12.5°C 44.0°F6.7°C 67% 20.8 mph NNE33.5 kmh NNE 21.3 mph34.3 kmh 29.95 in1014.2 mb 0.00 in0.0 mm 0.00 in0.0 mm 0.00 in0.0 mm
06:20 AM 54.5°F12.5°C 44.0°F6.7°C 67% 21.1 mph NE34.0 kmh NE 21.8 mph35.1 kmh 29.95 in1014.2 mb 0.00 in0.0 mm 0.00 in0.0 mm 0.00 in0.0 mm
06:19 AM 54.5°F12.5°C 44.0°F6.7°C 68% 21.1 mph NNE34.0 kmh NNE 21.7 mph34.9 kmh 29.95 in1014.2 mb 0.00 in0.0 mm 0.00 in0.0 mm 0.00 in0.0 mm
06:18 AM 54.5°F12.5°C 44.0°F6.7°C 67% 21.3 mph NNE34.3 kmh NNE 22.2 mph35.7 kmh 29.95 in1014.2 mb 0.00 in0.0 mm 0.00 in0.0 mm 0.00 in0.0 mm
06:17 AM 54.3°F12.4°C 44.0°F6.7°C 67% 21.3 mph NE34.3 kmh NE 22.0 mph35.4 kmh 29.95 in1014.2 mb 0.00 in0.0 mm 0.00 in0.0 mm 0.00 in0.0 mm
06:16 AM 54.5°F12.5°C 44.0°F6.7°C 67% 21.6 mph NNE34.8 kmh NNE 22.6 mph36.4 kmh 29.95 in1014.2 mb 0.00 in0.0 mm 0.00 in0.0 mm 0.00 in0.0 mm
06:15 AM 54.3°F12.4°C 44.0°F6.7°C 67% 21.9 mph NE35.2 kmh NE 23.0 mph37.0 kmh 29.95 in1014.2 mb 0.00 in0.0 mm 0.00 in0.0 mm 0.00 in0.0 mm
06:14 AM 54.3°F12.4°C 44.0°F6.7°C 68% 21.7 mph NNE34.9 kmh NNE 22.7 mph36.5 kmh 29.95 in1014.2 mb 0.00 in0.0 mm 0.00 in0.0 mm 0.00 in0.0 mm
06:13 AM 54.3°F12.4°C 44.0°F6.7°C 68% 21.3 mph NE34.3 kmh NE 22.0 mph35.4 kmh 29.95 in1014.2 mb 0.00 in0.0 mm 0.00 in0.0 mm 0.00 in0.0 mm
06:12 AM 54.1°F12.3°C 44.0°F6.7°C 69% 21.1 mph NE34.0 kmh NE 21.8 mph35.1 kmh 29.95 in1014.2 mb 0.00 in0.0 mm 0.00 in0.0 mm 0.00 in0.0 mm
06:11 AM 54.1°F12.3°C 44.0°F6.7°C 68% 21.1 mph NE34.0 kmh NE 21.8 mph35.1 kmh 29.95 in1014.2 mb 0.00 in0.0 mm 0.00 in0.0 mm 0.00 in0.0 mm
06:10 AM 54.1°F12.3°C 44.0°F6.7°C 68% 21.0 mph NE33.8 kmh NE 21.7 mph34.9 kmh 29.95 in1014.2 mb 0.00 in0.0 mm 0.00 in0.0 mm 0.00 in0.0 mm
06:09 AM 54.1°F12.3°C 44.0°F6.7°C 68% 21.1 mph NNE34.0 kmh NNE 21.7 mph34.9 kmh 29.95 in1014.2 mb 0.00 in0.0 mm 0.00 in0.0 mm 0.00 in0.0 mm
06:08 AM 54.1°F12.3°C 44.0°F6.7°C 69% 21.1 mph NNE34.0 kmh NNE 21.8 mph35.1 kmh 29.95 in1014.2 mb 0.00 in0.0 mm 0.00 in0.0 mm 0.00 in0.0 mm
06:07 AM 54.1°F12.3°C 44.0°F6.7°C 69% 21.1 mph NNE34.0 kmh NNE 21.7 mph34.9 kmh 29.95 in1014.2 mb 0.00 in0.0 mm 0.00 in0.0 mm 0.00 in0.0 mm
06:06 AM 54.1°F12.3°C 44.0°F6.7°C 69% 20.5 mph NE33.0 kmh NE 20.8 mph33.5 kmh 29.95 in1014.2 mb 0.00 in0.0 mm 0.00 in0.0 mm 0.00 in0.0 mm
06:05 AM 54.1°F12.3°C 44.0°F6.7°C 70% 20.6 mph NE33.2 kmh NE 21.0 mph33.8 kmh 29.95 in1014.2 mb 0.00 in0.0 mm 0.00 in0.0 mm 0.00 in0.0 mm
06:04 AM 54.1°F12.3°C 44.0°F6.7°C 69% 20.7 mph NE33.3 kmh NE 21.2 mph34.1 kmh 29.95 in1014.2 mb 0.00 in0.0 mm 0.00 in0.0 mm 0.00 in0.0 mm
06:03 AM 54.1°F12.3°C 44.0°F6.7°C 69% 21.2 mph NE34.1 kmh NE 21.9 mph35.2 kmh 29.94 in1013.9 mb 0.00 in0.0 mm 0.00 in0.0 mm 0.00 in0.0 mm
06:02 AM 54.3°F12.4°C 44.0°F6.7°C 68% 21.4 mph NE34.4 kmh NE 22.2 mph35.7 kmh 29.95 in1014.2 mb 0.00 in0.0 mm 0.00 in0.0 mm 0.00 in0.0 mm
06:01 AM 54.1°F12.3°C 44.0°F6.7°C 68% 21.5 mph NNE34.6 kmh NNE 22.3 mph35.9 kmh 29.95 in1014.2 mb 0.00 in0.0 mm 0.00 in0.0 mm 0.00 in0.0 mm
06:00 AM 54.1°F12.3°C 44.0°F6.7°C 68% 21.9 mph NNE35.2 kmh NNE 23.2 mph37.3 kmh 29.95 in1014.2 mb 0.00 in0.0 mm 0.00 in0.0 mm 0.00 in0.0 mm
05:59 AM 54.1°F12.3°C 44.0°F6.7°C 68% 21.5 mph NE34.6 kmh NE 22.3 mph35.9 kmh 29.94 in1013.9 mb 0.00 in0.0 mm 0.00 in0.0 mm 0.00 in0.0 mm
05:58 AM 54.1°F12.3°C 44.0°F6.7°C 68% 21.2 mph NNE34.1 kmh NNE 21.9 mph35.2 kmh 29.94 in1013.9 mb 0.00 in0.0 mm 0.00 in0.0 mm 0.00 in0.0 mm
05:57 AM 54.1°F12.3°C 44.0°F6.7°C 68% 21.5 mph NE34.6 kmh NE 22.4 mph36.0 kmh 29.94 in1013.9 mb 0.00 in0.0 mm 0.00 in0.0 mm 0.00 in0.0 mm
05:56 AM 54.1°F12.3°C 44.0°F6.7°C 68% 21.4 mph NE34.4 kmh NE 22.2 mph35.7 kmh 29.94 in1013.9 mb 0.00 in0.0 mm 0.00 in0.0 mm 0.00 in0.0 mm
05:55 AM 54.1°F12.3°C 44.0°F6.7°C 68% 21.8 mph NNE35.1 kmh NNE 22.8 mph36.7 kmh 29.94 in1013.9 mb 0.00 in0.0 mm 0.00 in0.0 mm 0.00 in0.0 mm
05:54 AM 54.1°F12.3°C 44.0°F6.7°C 68% 21.6 mph NE34.8 kmh NE 22.4 mph36.0 kmh 29.94 in1013.9 mb 0.00 in0.0 mm 0.00 in0.0 mm 0.00 in0.0 mm
05:53 AM 54.1°F12.3°C 44.0°F6.7°C 68% 21.7 mph NE34.9 kmh NE 22.6 mph36.4 kmh 29.94 in1013.9 mb 0.00 in0.0 mm 0.00 in0.0 mm 0.00 in0.0 mm
05:52 AM 54.1°F12.3°C 44.0°F6.7°C 68% 21.9 mph NE35.2 kmh NE 23.0 mph37.0 kmh 29.94 in1013.9 mb 0.00 in0.0 mm 0.00 in0.0 mm 0.00 in0.0 mm
05:51 AM 54.1°F12.3°C 44.0°F6.7°C 68% 21.9 mph NE35.2 kmh NE 22.9 mph36.9 kmh 29.94 in1013.9 mb 0.00 in0.0 mm 0.00 in0.0 mm 0.00 in0.0 mm
05:50 AM 54.1°F12.3°C 44.0°F6.7°C 68% 21.9 mph NE35.2 kmh NE 22.9 mph36.9 kmh 29.94 in1013.9 mb 0.00 in0.0 mm 0.00 in0.0 mm 0.00 in0.0 mm
05:49 AM 54.1°F12.3°C 44.0°F6.7°C 68% 22.0 mph NE35.4 kmh NE 23.1 mph37.2 kmh 29.94 in1013.9 mb 0.00 in0.0 mm 0.00 in0.0 mm 0.00 in0.0 mm
05:48 AM 54.1°F12.3°C 44.0°F6.7°C 68% 21.8 mph NE35.1 kmh NE 22.8 mph36.7 kmh 29.94 in1013.9 mb 0.00 in0.0 mm 0.00 in0.0 mm 0.00 in0.0 mm
05:47 AM 54.1°F12.3°C 44.0°F6.7°C 68% 22.0 mph NNE35.4 kmh NNE 23.1 mph37.2 kmh 29.94 in1013.9 mb 0.00 in0.0 mm 0.00 in0.0 mm 0.00 in0.0 mm
05:46 AM 54.1°F12.3°C 44.0°F6.7°C 68% 22.0 mph NE35.4 kmh NE 23.0 mph37.0 kmh 29.94 in1013.9 mb 0.00 in0.0 mm 0.00 in0.0 mm 0.00 in0.0 mm
05:45 AM 54.1°F12.3°C 44.0°F6.7°C 68% 22.2 mph NNE35.7 kmh NNE 23.5 mph37.8 kmh 29.94 in1013.9 mb 0.00 in0.0 mm 0.00 in0.0 mm 0.00 in0.0 mm
05:44 AM 54.1°F12.3°C 44.0°F6.7°C 67% 22.4 mph NE36.0 kmh NE 24.1 mph38.8 kmh 29.94 in1013.9 mb 0.00 in0.0 mm 0.00 in0.0 mm 0.00 in0.0 mm
05:43 AM 54.1°F12.3°C 44.0°F6.7°C 68% 22.1 mph NE35.6 kmh NE 23.4 mph37.7 kmh 29.94 in1013.9 mb 0.00 in0.0 mm 0.00 in0.0 mm 0.00 in0.0 mm
05:42 AM 54.1°F12.3°C 44.0°F6.7°C 68% 21.6 mph NE34.8 kmh NE 22.5 mph36.2 kmh 29.94 in1013.9 mb 0.00 in0.0 mm 0.00 in0.0 mm 0.00 in0.0 mm
05:41 AM 54.1°F12.3°C 44.0°F6.7°C 68% 21.8 mph NNE35.1 kmh NNE 22.8 mph36.7 kmh 29.94 in1013.9 mb 0.00 in0.0 mm 0.00 in0.0 mm 0.00 in0.0 mm
05:40 AM 54.1°F12.3°C 44.0°F6.7°C 68% 21.6 mph NE34.8 kmh NE 22.6 mph36.4 kmh 29.94 in1013.9 mb 0.00 in0.0 mm 0.00 in0.0 mm 0.00 in0.0 mm
05:39 AM 54.1°F12.3°C 44.0°F6.7°C 68% 21.7 mph NE34.9 kmh NE 22.7 mph36.5 kmh 29.94 in1013.9 mb 0.00 in0.0 mm 0.00 in0.0 mm 0.00 in0.0 mm
05:38 AM 54.1°F12.3°C 44.0°F6.7°C 68% 21.8 mph NNE35.1 kmh NNE 22.8 mph36.7 kmh 29.94 in1013.9 mb 0.00 in0.0 mm 0.00 in0.0 mm 0.00 in0.0 mm
05:37 AM 54.1°F12.3°C 44.0°F6.7°C 68% 21.5 mph NNE34.6 kmh NNE 22.3 mph35.9 kmh 29.95 in1014.2 mb 0.00 in0.0 mm 0.00 in0.0 mm 0.00 in0.0 mm
05:36 AM 54.1°F12.3°C 44.0°F6.7°C 68% 21.7 mph NE34.9 kmh NE 22.6 mph36.4 kmh 29.95 in1014.2 mb 0.00 in0.0 mm 0.00 in0.0 mm 0.00 in0.0 mm
05:35 AM 54.0°F12.2°C 43.0°F6.1°C 68% 21.7 mph NNE34.9 kmh NNE 22.7 mph36.5 kmh 29.95 in1014.2 mb 0.00 in0.0 mm 0.00 in0.0 mm 0.00 in0.0 mm
05:34 AM 54.1°F12.3°C 44.0°F6.7°C 68% 21.5 mph NNE34.6 kmh NNE 22.4 mph36.0 kmh 29.94 in1013.9 mb 0.00 in0.0 mm 0.00 in0.0 mm 0.00 in0.0 mm
05:33 AM 54.1°F12.3°C 44.0°F6.7°C 68% 21.3 mph NE34.3 kmh NE 22.0 mph35.4 kmh 29.94 in1013.9 mb 0.00 in0.0 mm 0.00 in0.0 mm 0.00 in0.0 mm
05:32 AM 54.1°F12.3°C 44.0°F6.7°C 68% 21.7 mph NE34.9 kmh NE 22.6 mph36.4 kmh 29.94 in1013.9 mb 0.00 in0.0 mm 0.00 in0.0 mm 0.00 in0.0 mm
05:31 AM 54.0°F12.2°C 44.0°F6.7°C 68% 21.7 mph NNE34.9 kmh NNE 22.7 mph36.5 kmh 29.94 in1013.9 mb 0.00 in0.0 mm 0.00 in0.0 mm 0.00 in0.0 mm
05:30 AM 54.0°F12.2°C 44.0°F6.7°C 68% 21.3 mph NNE34.3 kmh NNE 22.0 mph35.4 kmh 29.95 in1014.2 mb 0.00 in0.0 mm 0.00 in0.0 mm 0.00 in0.0 mm
05:29 AM 54.0°F12.2°C 44.0°F6.7°C 68% 21.3 mph NNE34.3 kmh NNE 22.0 mph35.4 kmh 29.95 in1014.2 mb 0.00 in0.0 mm 0.00 in0.0 mm 0.00 in0.0 mm
05:28 AM 54.0°F12.2°C 44.0°F6.7°C 68% 21.7 mph NE34.9 kmh NE 22.7 mph36.5 kmh 29.94 in1013.9 mb 0.00 in0.0 mm 0.00 in0.0 mm 0.00 in0.0 mm
05:27 AM 54.0°F12.2°C 44.0°F6.7°C 68% 21.4 mph NE34.4 kmh NE 22.2 mph35.7 kmh 29.94 in1013.9 mb 0.00 in0.0 mm 0.00 in0.0 mm 0.00 in0.0 mm
05:26 AM 54.0°F12.2°C 44.0°F6.7°C 68% 21.4 mph NE34.4 kmh NE 22.2 mph35.7 kmh 29.94 in1013.9 mb 0.00 in0.0 mm 0.00 in0.0 mm 0.00 in0.0 mm
05:25 AM 54.0°F12.2°C 44.0°F6.7°C 68% 21.5 mph NE34.6 kmh NE 22.3 mph35.9 kmh 29.94 in1013.9 mb 0.00 in0.0 mm 0.00 in0.0 mm 0.00 in0.0 mm
05:24 AM 54.0°F12.2°C 44.0°F6.7°C 68% 21.4 mph NE34.4 kmh NE 22.2 mph35.7 kmh 29.95 in1014.2 mb 0.00 in0.0 mm 0.00 in0.0 mm 0.00 in0.0 mm
05:23 AM 54.0°F12.2°C 44.0°F6.7°C 68% 21.2 mph NE34.1 kmh NE 21.9 mph35.2 kmh 29.94 in1013.9 mb 0.00 in0.0 mm 0.00 in0.0 mm 0.00 in0.0 mm
05:21 AM 53.8°F12.1°C 44.0°F6.7°C 68% 21.2 mph NE34.1 kmh NE 21.9 mph35.2 kmh 29.94 in1013.9 mb 0.00 in0.0 mm 0.00 in0.0 mm 0.00 in0.0 mm
05:20 AM 54.0°F12.2°C 44.0°F6.7°C 68% 21.4 mph NE34.4 kmh NE 22.2 mph35.7 kmh 29.94 in1013.9 mb 0.00 in0.0 mm 0.00 in0.0 mm 0.00 in0.0 mm
05:19 AM 54.0°F12.2°C 44.0°F6.7°C 68% 21.2 mph NE34.1 kmh NE 22.0 mph35.4 kmh 29.94 in1013.9 mb 0.00 in0.0 mm 0.00 in0.0 mm 0.00 in0.0 mm
05:18 AM 54.0°F12.2°C 44.0°F6.7°C 68% 21.3 mph NE34.3 kmh NE 22.0 mph35.4 kmh 29.94 in1013.9 mb 0.00 in0.0 mm 0.00 in0.0 mm 0.00 in0.0 mm
05:17 AM 53.8°F12.1°C 43.0°F6.1°C 68% 20.9 mph N33.6 kmh N 21.4 mph34.4 kmh 29.94 in1013.9 mb 0.00 in0.0 mm 0.00 in0.0 mm 0.00 in0.0 mm
05:16 AM 53.8°F12.1°C 43.0°F6.1°C 68% 21.0 mph NE33.8 kmh NE 21.5 mph34.6 kmh 29.94 in1013.9 mb 0.00 in0.0 mm 0.00 in0.0 mm 0.00 in0.0 mm
05:15 AM 53.8°F12.1°C 44.0°F6.7°C 68% 21.3 mph NNE34.3 kmh NNE 22.1 mph35.6 kmh 29.94 in1013.9 mb 0.00 in0.0 mm 0.00 in0.0 mm 0.00 in0.0 mm
05:14 AM 53.8°F12.1°C 44.0°F6.7°C 69% 21.1 mph ENE34.0 kmh ENE 21.8 mph35.1 kmh 29.94 in1013.9 mb 0.00 in0.0 mm 0.00 in0.0 mm 0.00 in0.0 mm
05:13 AM 53.8°F12.1°C 43.0°F6.1°C 68% 21.0 mph NE33.8 kmh NE 21.6 mph34.8 kmh 29.94 in1013.9 mb 0.00 in0.0 mm 0.00 in0.0 mm 0.00 in0.0 mm
05:12 AM 53.8°F12.1°C 43.0°F6.1°C 68% 21.3 mph NNE34.3 kmh NNE 22.0 mph35.4 kmh 29.94 in1013.9 mb 0.00 in0.0 mm 0.00 in0.0 mm 0.00 in0.0 mm
05:11 AM 53.8°F12.1°C 44.0°F6.7°C 68% 21.4 mph NE34.4 kmh NE 22.3 mph35.9 kmh 29.94 in1013.9 mb 0.00 in0.0 mm 0.00 in0.0 mm 0.00 in0.0 mm
05:10 AM 53.8°F12.1°C 44.0°F6.7°C 69% 21.4 mph NE34.4 kmh NE 21.9 mph35.2 kmh 29.94 in1013.9 mb 0.00 in0.0 mm 0.00 in0.0 mm 0.00 in0.0 mm
05:09 AM 53.8°F12.1°C 44.0°F6.7°C 68% 21.5 mph NE34.6 kmh NE 22.4 mph36.0 kmh 29.94 in1013.9 mb 0.00 in0.0 mm 0.00 in0.0 mm 0.00 in0.0 mm
05:08 AM 53.8°F12.1°C 43.0°F6.1°C 68% 21.7 mph NNE34.9 kmh NNE 22.8 mph36.7 kmh 29.94 in1013.9 mb 0.00 in0.0 mm 0.00 in0.0 mm 0.00 in0.0 mm
05:07 AM 53.8°F12.1°C 43.0°F6.1°C 68% 21.8 mph NNE35.1 kmh NNE 22.8 mph36.7 kmh 29.94 in1013.9 mb 0.00 in0.0 mm 0.00 in0.0 mm 0.00 in0.0 mm
05:06 AM 54.0°F12.2°C 43.0°F6.1°C 68% 21.3 mph NE34.3 kmh NE 22.1 mph35.6 kmh 29.94 in1013.9 mb 0.00 in0.0 mm 0.00 in0.0 mm 0.00 in0.0 mm
05:05 AM 53.8°F12.1°C 43.0°F6.1°C 68% 21.7 mph NNE34.9 kmh NNE 22.6 mph36.4 kmh 29.94 in1013.9 mb 0.00 in0.0 mm 0.00 in0.0 mm 0.00 in0.0 mm
05:04 AM 53.8°F12.1°C 43.0°F6.1°C 68% 21.4 mph NNE34.4 kmh NNE 22.3 mph35.9 kmh 29.94 in1013.9 mb 0.00 in0.0 mm 0.00 in0.0 mm 0.00 in0.0 mm
05:03 AM 53.8°F12.1°C 43.0°F6.1°C 68% 21.4 mph NE34.4 kmh NE 22.2 mph35.7 kmh 29.94 in1013.9 mb 0.00 in0.0 mm 0.00 in0.0 mm 0.00 in0.0 mm
05:02 AM 53.8°F12.1°C 43.0°F6.1°C 68% 21.6 mph NNE34.8 kmh NNE 22.5 mph36.2 kmh 29.94 in1013.9 mb 0.00 in0.0 mm 0.00 in0.0 mm 0.00 in0.0 mm
05:01 AM 53.8°F12.1°C 43.0°F6.1°C 67% 21.8 mph NE35.1 kmh NE 23.0 mph37.0 kmh 29.94 in1013.9 mb 0.00 in0.0 mm 0.00 in0.0 mm 0.00 in0.0 mm
05:00 AM 53.8°F12.1°C 43.0°F6.1°C 68% 21.9 mph NNE35.2 kmh NNE 23.0 mph37.0 kmh 29.94 in1013.9 mb 0.00 in0.0 mm 0.00 in0.0 mm 0.00 in0.0 mm
04:59 AM 53.8°F12.1°C 44.0°F6.7°C 68% 22.3 mph NE35.9 kmh NE 23.5 mph37.8 kmh 29.94 in1013.9 mb 0.00 in0.0 mm 0.00 in0.0 mm 0.00 in0.0 mm
04:58 AM 53.8°F12.1°C 43.0°F6.1°C 68% 22.2 mph NE35.7 kmh NE 23.4 mph37.7 kmh 29.94 in1013.9 mb 0.00 in0.0 mm 0.00 in0.0 mm 0.00 in0.0 mm
04:57 AM 53.8°F12.1°C 43.0°F6.1°C 68% 21.9 mph NE35.2 kmh NE 23.0 mph37.0 kmh 29.94 in1013.9 mb 0.00 in0.0 mm 0.00 in0.0 mm 0.00 in0.0 mm
04:56 AM 53.8°F12.1°C 43.0°F6.1°C 68% 21.9 mph NE35.2 kmh NE 23.0 mph37.0 kmh 29.94 in1013.9 mb 0.00 in0.0 mm 0.00 in0.0 mm 0.00 in0.0 mm
04:55 AM 53.8°F12.1°C 43.0°F6.1°C 68% 21.5 mph NE34.6 kmh NE 22.3 mph35.9 kmh 29.94 in1013.9 mb 0.00 in0.0 mm 0.00 in0.0 mm 0.00 in0.0 mm
04:54 AM 53.8°F12.1°C 43.0°F6.1°C 68% 21.9 mph NNE35.2 kmh NNE 22.9 mph36.9 kmh 29.94 in1013.9 mb 0.00 in0.0 mm 0.00 in0.0 mm 0.00 in0.0 mm
04:53 AM 53.8°F12.1°C 43.0°F6.1°C 68% 21.8 mph NNE35.1 kmh NNE 22.8 mph36.7 kmh 29.95 in1014.2 mb 0.00 in0.0 mm 0.00 in0.0 mm 0.00 in0.0 mm
04:52 AM 53.8°F12.1°C 43.0°F6.1°C 68% 21.8 mph NE35.1 kmh NE 22.8 mph36.7 kmh 29.94 in1013.9 mb 0.00 in0.0 mm 0.00 in0.0 mm 0.00 in0.0 mm
04:51 AM 53.8°F12.1°C 44.0°F6.7°C 68% 21.5 mph NE34.6 kmh NE 22.4 mph36.0 kmh 29.94 in1013.9 mb 0.00 in0.0 mm 0.00 in0.0 mm 0.00 in0.0 mm
04:50 AM 53.8°F12.1°C 44.0°F6.7°C 68% 21.5 mph NE34.6 kmh NE 22.4 mph36.0 kmh 29.94 in1013.9 mb 0.00 in0.0 mm 0.00 in0.0 mm 0.00 in0.0 mm
04:49 AM 53.8°F12.1°C 44.0°F6.7°C 68% 21.4 mph NE34.4 kmh NE 22.3 mph35.9 kmh 29.95 in1014.2 mb 0.00 in0.0 mm 0.00 in0.0 mm 0.00 in0.0 mm
04:48 AM 53.8°F12.1°C 43.0°F6.1°C 68% 21.3 mph NE34.3 kmh NE 21.9 mph35.2 kmh 29.94 in1013.9 mb 0.00 in0.0 mm 0.00 in0.0 mm 0.00 in0.0 mm
04:47 AM 54.0°F12.2°C 43.0°F6.1°C 68% 21.6 mph NE34.8 kmh NE 22.5 mph36.2 kmh 29.95 in1014.2 mb 0.00 in0.0 mm 0.00 in0.0 mm 0.00 in0.0 mm
04:46 AM 54.0°F12.2°C 43.0°F6.1°C 68% 21.7 mph NNE34.9 kmh NNE 22.7 mph36.5 kmh 29.94 in1013.9 mb 0.00 in0.0 mm 0.00 in0.0 mm 0.00 in0.0 mm
04:45 AM 54.0°F12.2°C 43.0°F6.1°C 67% 21.7 mph NNE34.9 kmh NNE 22.7 mph36.5 kmh 29.94 in1013.9 mb 0.00 in0.0 mm 0.00 in0.0 mm 0.00 in0.0 mm
04:44 AM 54.0°F12.2°C 43.0°F6.1°C 68% 21.5 mph NE34.6 kmh NE 22.4 mph36.0 kmh 29.94 in1013.9 mb 0.00 in0.0 mm 0.00 in0.0 mm 0.00 in0.0 mm
04:43 AM 54.0°F12.2°C 43.0°F6.1°C 68% 21.5 mph NE34.6 kmh NE 22.4 mph36.0 kmh 29.94 in1013.9 mb 0.00 in0.0 mm 0.00 in0.0 mm 0.00 in0.0 mm
04:42 AM 54.0°F12.2°C 43.0°F6.1°C 67% 21.5 mph NE34.6 kmh NE 22.2 mph35.7 kmh 29.94 in1013.9 mb 0.00 in0.0 mm 0.00 in0.0 mm 0.00 in0.0 mm
04:41 AM 54.0°F12.2°C 43.0°F6.1°C 67% 22.1 mph NNE35.6 kmh NNE 23.2 mph37.3 kmh 29.94 in1013.9 mb 0.00 in0.0 mm 0.00 in0.0 mm 0.00 in0.0 mm
04:40 AM 54.0°F12.2°C 43.0°F6.1°C 67% 21.9 mph NNE35.2 kmh NNE 23.0 mph37.0 kmh 29.94 in1013.9 mb 0.00 in0.0 mm 0.00 in0.0 mm 0.00 in0.0 mm
04:39 AM 54.0°F12.2°C 43.0°F6.1°C 68% 21.9 mph NE35.2 kmh NE 22.9 mph36.9 kmh 29.94 in1013.9 mb 0.00 in0.0 mm 0.00 in0.0 mm 0.00 in0.0 mm
04:38 AM 54.0°F12.2°C 43.0°F6.1°C 67% 21.9 mph NE35.2 kmh NE 23.0 mph37.0 kmh 29.94 in1013.9 mb 0.00 in0.0 mm 0.00 in0.0 mm 0.00 in0.0 mm
04:37 AM 54.0°F12.2°C 43.0°F6.1°C 68% 21.7 mph NE34.9 kmh NE 22.6 mph36.4 kmh 29.94 in1013.9 mb 0.00 in0.0 mm 0.00 in0.0 mm 0.00 in0.0 mm
04:36 AM 53.8°F12.1°C 43.0°F6.1°C 67% 21.7 mph NE34.9 kmh NE 22.7 mph36.5 kmh 29.94 in1013.9 mb 0.00 in0.0 mm 0.00 in0.0 mm 0.00 in0.0 mm
04:35 AM 53.8°F12.1°C 43.0°F6.1°C 68% 21.8 mph NE35.1 kmh NE 22.8 mph36.7 kmh 29.94 in1013.9 mb 0.00 in0.0 mm 0.00 in0.0 mm 0.00 in0.0 mm
04:34 AM 53.8°F12.1°C 43.0°F6.1°C 68% 21.5 mph NNE34.6 kmh NNE 22.3 mph35.9 kmh 29.95 in1014.2 mb 0.00 in0.0 mm 0.00 in0.0 mm 0.00 in0.0 mm
04:33 AM 53.8°F12.1°C 43.0°F6.1°C 68% 21.5 mph NNE34.6 kmh NNE 22.3 mph35.9 kmh 29.94 in1013.9 mb 0.00 in0.0 mm 0.00 in0.0 mm 0.00 in0.0 mm
04:32 AM 53.8°F12.1°C 44.0°F6.7°C 68% 21.7 mph NNE34.9 kmh NNE 22.6 mph36.4 kmh 29.95 in1014.2 mb 0.00 in0.0 mm 0.00 in0.0 mm 0.00 in0.0 mm
04:31 AM 53.8°F12.1°C 44.0°F6.7°C 68% 21.3 mph NNE34.3 kmh NNE 22.1 mph35.6 kmh 29.95 in1014.2 mb 0.00 in0.0 mm 0.00 in0.0 mm 0.00 in0.0 mm
04:30 AM 53.6°F12.0°C 43.0°F6.1°C 68% 21.1 mph NNE34.0 kmh NNE 21.7 mph34.9 kmh 29.95 in1014.2 mb 0.00 in0.0 mm 0.00 in0.0 mm 0.00 in0.0 mm
04:29 AM 53.6°F12.0°C 44.0°F6.7°C 69% 21.1 mph ENE34.0 kmh ENE 21.7 mph34.9 kmh 29.95 in1014.2 mb 0.00 in0.0 mm 0.00 in0.0 mm 0.00 in0.0 mm
04:28 AM 53.6°F12.0°C 43.0°F6.1°C 69% 21.3 mph NE34.3 kmh NE 22.0 mph35.4 kmh 29.94 in1013.9 mb 0.00 in0.0 mm 0.00 in0.0 mm 0.00 in0.0 mm
04:27 AM 53.6°F12.0°C 44.0°F6.7°C 69% 21.7 mph NE34.9 kmh NE 22.7 mph36.5 kmh 29.94 in1013.9 mb 0.00 in0.0 mm 0.00 in0.0 mm 0.00 in0.0 mm
04:26 AM 53.6°F12.0°C 44.0°F6.7°C 69% 21.4 mph NNE34.4 kmh NNE 22.2 mph35.7 kmh 29.94 in1013.9 mb 0.00 in0.0 mm 0.00 in0.0 mm 0.00 in0.0 mm
04:25 AM 53.6°F12.0°C 44.0°F6.7°C 69% 21.3 mph NE34.3 kmh NE 22.0 mph35.4 kmh 29.94 in1013.9 mb 0.00 in0.0 mm 0.00 in0.0 mm 0.00 in0.0 mm
04:24 AM 53.6°F12.0°C 44.0°F6.7°C 69% 21.6 mph NE34.8 kmh NE 22.4 mph36.0 kmh 29.95 in1014.2 mb 0.00 in0.0 mm 0.00 in0.0 mm 0.00 in0.0 mm
04:23 AM 53.6°F12.0°C 44.0°F6.7°C 69% 21.1 mph NNE34.0 kmh NNE 21.7 mph34.9 kmh 29.95 in1014.2 mb 0.00 in0.0 mm 0.00 in0.0 mm 0.00 in0.0 mm
04:22 AM 53.6°F12.0°C 44.0°F6.7°C 69% 20.5 mph E33.0 kmh E 20.8 mph33.5 kmh 29.95 in1014.2 mb 0.00 in0.0 mm 0.00 in0.0 mm 0.00 in0.0 mm
04:21 AM 53.8°F12.1°C 44.0°F6.7°C 69% 20.9 mph NE33.6 kmh NE 21.5 mph34.6 kmh 29.94 in1013.9 mb 0.00 in0.0 mm 0.00 in0.0 mm 0.00 in0.0 mm
04:20 AM 53.8°F12.1°C 44.0°F6.7°C 69% 21.3 mph NE34.3 kmh NE 22.0 mph35.4 kmh 29.94 in1013.9 mb 0.00 in0.0 mm 0.00 in0.0 mm 0.00 in0.0 mm
04:19 AM 53.8°F12.1°C 44.0°F6.7°C 68% 21.4 mph NE34.4 kmh NE 22.1 mph35.6 kmh 29.94 in1013.9 mb 0.00 in0.0 mm 0.00 in0.0 mm 0.00 in0.0 mm
04:18 AM 53.8°F12.1°C 44.0°F6.7°C 68% 21.4 mph NNE34.4 kmh NNE 22.2 mph35.7 kmh 29.94 in1013.9 mb 0.00 in0.0 mm 0.00 in0.0 mm 0.00 in0.0 mm
04:17 AM 53.8°F12.1°C 44.0°F6.7°C 68% 21.2 mph NE34.1 kmh NE 22.0 mph35.4 kmh 29.94 in1013.9 mb 0.00 in0.0 mm 0.00 in0.0 mm 0.00 in0.0 mm
04:16 AM 53.8°F12.1°C 44.0°F6.7°C 68% 21.7 mph NNE34.9 kmh NNE 22.7 mph36.5 kmh 29.94 in1013.9 mb 0.00 in0.0 mm 0.00 in0.0 mm 0.00 in0.0 mm
04:15 AM 53.8°F12.1°C 44.0°F6.7°C 68% 21.6 mph NNE34.8 kmh NNE 22.6 mph36.4 kmh 29.94 in1013.9 mb 0.00 in0.0 mm 0.00 in0.0 mm 0.00 in0.0 mm
04:14 AM 53.8°F12.1°C 44.0°F6.7°C 68% 21.4 mph NE34.4 kmh NE 22.2 mph35.7 kmh 29.94 in1013.9 mb 0.00 in0.0 mm 0.00 in0.0 mm 0.00 in0.0 mm
04:13 AM 53.8°F12.1°C 44.0°F6.7°C 68% 21.7 mph NE34.9 kmh NE 22.6 mph36.4 kmh 29.94 in1013.9 mb 0.00 in0.0 mm 0.00 in0.0 mm 0.00 in0.0 mm
04:12 AM 53.8°F12.1°C 44.0°F6.7°C 68% 22.0 mph NE35.4 kmh NE 23.2 mph37.3 kmh 29.94 in1013.9 mb 0.00 in0.0 mm 0.00 in0.0 mm 0.00 in0.0 mm
04:11 AM 53.8°F12.1°C 44.0°F6.7°C 69% 21.6 mph NNE34.8 kmh NNE 22.6 mph36.4 kmh 29.94 in1013.9 mb 0.00 in0.0 mm 0.00 in0.0 mm 0.00 in0.0 mm
04:10 AM 53.8°F12.1°C 43.0°F6.1°C 68% 21.5 mph NE34.6 kmh NE 22.3 mph35.9 kmh 29.94 in1013.9 mb 0.00 in0.0 mm 0.00 in0.0 mm 0.00 in0.0 mm
04:09 AM 53.8°F12.1°C 43.0°F6.1°C 68% 21.2 mph NE34.1 kmh NE 21.9 mph35.2 kmh 29.94 in1013.9 mb 0.00 in0.0 mm 0.00 in0.0 mm 0.00 in0.0 mm
04:08 AM 53.8°F12.1°C 43.0°F6.1°C 68% 21.7 mph NE34.9 kmh NE 22.7 mph36.5 kmh 29.94 in1013.9 mb 0.00 in0.0 mm 0.00 in0.0 mm 0.00 in0.0 mm
04:07 AM 53.8°F12.1°C 43.0°F6.1°C 68% 21.5 mph NE34.6 kmh NE 22.5 mph36.2 kmh 29.94 in1013.9 mb 0.00 in0.0 mm 0.00 in0.0 mm 0.00 in0.0 mm
04:06 AM 53.8°F12.1°C 43.0°F6.1°C 68% 21.6 mph ENE34.8 kmh ENE 22.5 mph36.2 kmh 29.94 in1013.9 mb 0.00 in0.0 mm 0.00 in0.0 mm 0.00 in0.0 mm
04:05 AM 53.8°F12.1°C 44.0°F6.7°C 69% 21.5 mph NNE34.6 kmh NNE 22.5 mph36.2 kmh 29.94 in1013.9 mb 0.00 in0.0 mm 0.00 in0.0 mm 0.00 in0.0 mm
04:04 AM 53.8°F12.1°C 44.0°F6.7°C 69% 21.4 mph ENE34.4 kmh ENE 22.4 mph36.0 kmh 29.94 in1013.9 mb 0.00 in0.0 mm 0.00 in0.0 mm 0.00 in0.0 mm
04:03 AM 54.0°F12.2°C 44.0°F6.7°C 68% 21.3 mph NE34.3 kmh NE 22.2 mph35.7 kmh 29.94 in1013.9 mb 0.00 in0.0 mm 0.00 in0.0 mm 0.00 in0.0 mm
04:02 AM 54.0°F12.2°C 44.0°F6.7°C 68% 21.7 mph NE34.9 kmh NE 22.7 mph36.5 kmh 29.94 in1013.9 mb 0.00 in0.0 mm 0.00 in0.0 mm 0.00 in0.0 mm
04:01 AM 54.0°F12.2°C 44.0°F6.7°C 68% 21.8 mph NE35.1 kmh NE 23.0 mph37.0 kmh 29.94 in1013.9 mb 0.00 in0.0 mm 0.00 in0.0 mm 0.00 in0.0 mm
04:00 AM 54.0°F12.2°C 44.0°F6.7°C 68% 21.2 mph NNE34.1 kmh NNE 21.9 mph35.2 kmh 29.94 in1013.9 mb 0.00 in0.0 mm 0.00 in0.0 mm 0.00 in0.0 mm
03:59 AM 54.0°F12.2°C 44.0°F6.7°C 68% 21.6 mph NE34.8 kmh NE 22.5 mph36.2 kmh 29.94 in1013.9 mb 0.00 in0.0 mm 0.00 in0.0 mm 0.00 in0.0 mm
03:58 AM 54.0°F12.2°C 43.0°F6.1°C 67% 21.8 mph NE35.1 kmh NE 22.8 mph36.7 kmh 29.94 in1013.9 mb 0.00 in0.0 mm 0.00 in0.0 mm 0.00 in0.0 mm
03:57 AM 54.0°F12.2°C 43.0°F6.1°C 67% 21.6 mph NE34.8 kmh NE 22.6 mph36.4 kmh 29.94 in1013.9 mb 0.00 in0.0 mm 0.00 in0.0 mm 0.00 in0.0 mm
03:56 AM 54.0°F12.2°C 43.0°F6.1°C 67% 21.8 mph NNE35.1 kmh NNE 22.7 mph36.5 kmh 29.94 in1013.9 mb 0.00 in0.0 mm 0.00 in0.0 mm 0.00 in0.0 mm
03:55 AM 54.0°F12.2°C 43.0°F6.1°C 67% 21.7 mph NNE34.9 kmh NNE 22.8 mph36.7 kmh 29.94 in1013.9 mb 0.00 in0.0 mm 0.00 in0.0 mm 0.00 in0.0 mm
03:54 AM 54.0°F12.2°C 43.0°F6.1°C 67% 21.6 mph NE34.8 kmh NE 22.5 mph36.2 kmh 29.94 in1013.9 mb 0.00 in0.0 mm 0.00 in0.0 mm 0.00 in0.0 mm
03:53 AM 54.0°F12.2°C 43.0°F6.1°C 67% 22.1 mph NE35.6 kmh NE 23.3 mph37.5 kmh 29.94 in1013.9 mb 0.00 in0.0 mm 0.00 in0.0 mm 0.00 in0.0 mm
03:52 AM 54.0°F12.2°C 43.0°F6.1°C 68% 21.8 mph NE35.1 kmh NE 22.8 mph36.7 kmh 29.94 in1013.9 mb 0.00 in0.0 mm 0.00 in0.0 mm 0.00 in0.0 mm
03:51 AM 54.0°F12.2°C 43.0°F6.1°C 67% 22.0 mph NE35.4 kmh NE 23.2 mph37.3 kmh 29.95 in1014.2 mb 0.00 in0.0 mm 0.00 in0.0 mm 0.00 in0.0 mm
03:50 AM 54.0°F12.2°C 43.0°F6.1°C 67% 21.9 mph NE35.2 kmh NE 23.0 mph37.0 kmh 29.94 in1013.9 mb 0.00 in0.0 mm 0.00 in0.0 mm 0.00 in0.0 mm
03:49 AM 54.0°F12.2°C 43.0°F6.1°C 68% 21.7 mph NE34.9 kmh NE 22.7 mph36.5 kmh 29.94 in1013.9 mb 0.00 in0.0 mm 0.00 in0.0 mm 0.00 in0.0 mm
03:48 AM 54.0°F12.2°C 43.0°F6.1°C 68% 20.9 mph NE33.6 kmh NE 21.4 mph34.4 kmh 29.95 in1014.2 mb 0.00 in0.0 mm 0.00 in0.0 mm 0.00 in0.0 mm
03:47 AM 54.0°F12.2°C 43.0°F6.1°C 68% 21.1 mph NE34.0 kmh NE 21.8 mph35.1 kmh 29.95 in1014.2 mb 0.00 in0.0 mm 0.00 in0.0 mm 0.00 in0.0 mm
03:46 AM 54.0°F12.2°C 43.0°F6.1°C 68% 21.7 mph NE34.9 kmh NE 22.7 mph36.5 kmh 29.95 in1014.2 mb 0.00 in0.0 mm 0.00 in0.0 mm 0.00 in0.0 mm
03:45 AM 54.1°F12.3°C 44.0°F6.7°C 67% 21.9 mph NE35.2 kmh NE 23.1 mph37.2 kmh 29.95 in1014.2 mb 0.00 in0.0 mm 0.00 in0.0 mm 0.00 in0.0 mm
03:44 AM 54.1°F12.3°C 43.0°F6.1°C 67% 22.3 mph NE35.9 kmh NE 23.6 mph38.0 kmh 29.95 in1014.2 mb 0.00 in0.0 mm 0.00 in0.0 mm 0.00 in0.0 mm
03:43 AM 54.1°F12.3°C 43.0°F6.1°C 67% 21.9 mph NE35.2 kmh NE 23.0 mph37.0 kmh 29.95 in1014.2 mb 0.00 in0.0 mm 0.00 in0.0 mm 0.00 in0.0 mm
03:42 AM 54.1°F12.3°C 43.0°F6.1°C 67% 21.6 mph NE34.8 kmh NE 22.7 mph36.5 kmh 29.95 in1014.2 mb 0.00 in0.0 mm 0.00 in0.0 mm 0.00 in0.0 mm
03:41 AM 54.1°F12.3°C 43.0°F6.1°C 67% 21.5 mph NE34.6 kmh NE 22.3 mph35.9 kmh 29.95 in1014.2 mb 0.00 in0.0 mm 0.00 in0.0 mm 0.00 in0.0 mm
03:40 AM 54.1°F12.3°C 43.0°F6.1°C 67% 21.7 mph NE34.9 kmh NE 22.6 mph36.4 kmh 29.95 in1014.2 mb 0.00 in0.0 mm 0.00 in0.0 mm 0.00 in0.0 mm
03:39 AM 54.1°F12.3°C 43.0°F6.1°C 66% 21.9 mph NE35.2 kmh NE 23.2 mph37.3 kmh 29.95 in1014.2 mb 0.00 in0.0 mm 0.00 in0.0 mm 0.00 in0.0 mm
03:38 AM 54.1°F12.3°C 43.0°F6.1°C 66% 21.9 mph NE35.2 kmh NE 23.0 mph37.0 kmh 29.95 in1014.2 mb 0.00 in0.0 mm 0.00 in0.0 mm 0.00 in0.0 mm
03:37 AM 54.1°F12.3°C 43.0°F6.1°C 67% 22.1 mph NE35.6 kmh NE 23.4 mph37.7 kmh 29.95 in1014.2 mb 0.00 in0.0 mm 0.00 in0.0 mm 0.00 in0.0 mm
03:36 AM 54.0°F12.2°C 43.0°F6.1°C 67% 21.8 mph NE35.1 kmh NE 22.9 mph36.9 kmh 29.95 in1014.2 mb 0.00 in0.0 mm 0.00 in0.0 mm 0.00 in0.0 mm
03:35 AM 54.0°F12.2°C 43.0°F6.1°C 67% 21.7 mph NNE34.9 kmh NNE 22.7 mph36.5 kmh 29.95 in1014.2 mb 0.00 in0.0 mm 0.00 in0.0 mm 0.00 in0.0 mm
03:34 AM 54.0°F12.2°C 43.0°F6.1°C 67% 21.6 mph NE34.8 kmh NE 22.6 mph36.4 kmh 29.95 in1014.2 mb 0.00 in0.0 mm 0.00 in0.0 mm 0.00 in0.0 mm
03:33 AM 53.8°F12.1°C 43.0°F6.1°C 67% 21.6 mph NE34.8 kmh NE 22.6 mph36.4 kmh 29.95 in1014.2 mb 0.00 in0.0 mm 0.00 in0.0 mm 0.00 in0.0 mm
03:32 AM 54.0°F12.2°C 43.0°F6.1°C 67% 21.6 mph NE34.8 kmh NE 22.6 mph36.4 kmh 29.95 in1014.2 mb 0.00 in0.0 mm 0.00 in0.0 mm 0.00 in0.0 mm
03:31 AM 53.8°F12.1°C 43.0°F6.1°C 67% 21.6 mph NNE34.8 kmh NNE 22.5 mph36.2 kmh 29.95 in1014.2 mb 0.00 in0.0 mm 0.00 in0.0 mm 0.00 in0.0 mm
03:30 AM 53.8°F12.1°C 43.0°F6.1°C 68% 21.5 mph NE34.6 kmh NE 22.4 mph36.0 kmh 29.95 in1014.2 mb 0.00 in0.0 mm 0.00 in0.0 mm 0.00 in0.0 mm
03:29 AM 53.8°F12.1°C 43.0°F6.1°C 68% 21.7 mph NNE34.9 kmh NNE 22.6 mph36.4 kmh 29.95 in1014.2 mb 0.00 in0.0 mm 0.00 in0.0 mm 0.00 in0.0 mm
03:28 AM 53.8°F12.1°C 43.0°F6.1°C 68% 21.9 mph NE35.2 kmh NE 23.1 mph37.2 kmh 29.95 in1014.2 mb 0.00 in0.0 mm 0.00 in0.0 mm 0.00 in0.0 mm
03:27 AM 53.8°F12.1°C 43.0°F6.1°C 68% 21.8 mph NNE35.1 kmh NNE 22.9 mph36.9 kmh 29.95 in1014.2 mb 0.00 in0.0 mm 0.00 in0.0 mm 0.00 in0.0 mm
03:26 AM 53.8°F12.1°C 44.0°F6.7°C 68% 21.7 mph NE34.9 kmh NE 22.7 mph36.5 kmh 29.95 in1014.2 mb 0.00 in0.0 mm 0.00 in0.0 mm 0.00 in0.0 mm
03:25 AM 53.6°F12.0°C 43.0°F6.1°C 68% 21.3 mph NE34.3 kmh NE 22.0 mph35.4 kmh 29.95 in1014.2 mb 0.00 in0.0 mm 0.00 in0.0 mm 0.00 in0.0 mm
03:24 AM 53.8°F12.1°C 44.0°F6.7°C 70% 20.5 mph NE33.0 kmh NE 20.8 mph33.5 kmh 29.95 in1014.2 mb 0.00 in0.0 mm 0.00 in0.0 mm 0.00 in0.0 mm
03:23 AM 53.8°F12.1°C 44.0°F6.7°C 69% 20.8 mph NE33.5 kmh NE 21.4 mph34.4 kmh 29.95 in1014.2 mb 0.00 in0.0 mm 0.00 in0.0 mm 0.00 in0.0 mm
03:22 AM 53.8°F12.1°C 44.0°F6.7°C 69% 21.7 mph NE34.9 kmh NE 22.6 mph36.4 kmh 29.95 in1014.2 mb 0.00 in0.0 mm 0.00 in0.0 mm 0.00 in0.0 mm
03:21 AM 53.8°F12.1°C 43.0°F6.1°C 68% 21.8 mph NE35.1 kmh NE 22.8 mph36.7 kmh 29.95 in1014.2 mb 0.00 in0.0 mm 0.00 in0.0 mm 0.00 in0.0 mm
03:20 AM 53.8°F12.1°C 43.0°F6.1°C 68% 21.9 mph NE35.2 kmh NE 22.8 mph36.7 kmh 29.95 in1014.2 mb 0.00 in0.0 mm 0.00 in0.0 mm 0.00 in0.0 mm
03:19 AM 53.8°F12.1°C 43.0°F6.1°C 68% 21.5 mph NE34.6 kmh NE 22.4 mph36.0 kmh 29.95 in1014.2 mb 0.00 in0.0 mm 0.00 in0.0 mm 0.00 in0.0 mm
03:18 AM 53.8°F12.1°C 43.0°F6.1°C 68% 21.1 mph NE34.0 kmh NE 21.8 mph35.1 kmh 29.95 in1014.2 mb 0.00 in0.0 mm 0.00 in0.0 mm 0.00 in0.0 mm
03:17 AM 53.8°F12.1°C 44.0°F6.7°C 68% 21.1 mph NE34.0 kmh NE 21.7 mph34.9 kmh 29.95 in1014.2 mb 0.00 in0.0 mm 0.00 in0.0 mm 0.00 in0.0 mm
03:16 AM 53.8°F12.1°C 43.0°F6.1°C 68% 20.7 mph NNE33.3 kmh NNE 21.2 mph34.1 kmh 29.95 in1014.2 mb 0.00 in0.0 mm 0.00 in0.0 mm 0.00 in0.0 mm
03:15 AM 53.8°F12.1°C 44.0°F6.7°C 68% 21.2 mph NNE34.1 kmh NNE 21.9 mph35.2 kmh 29.95 in1014.2 mb 0.00 in0.0 mm 0.00 in0.0 mm 0.00 in0.0 mm
03:13 AM 54.0°F12.2°C 43.0°F6.1°C 68% 21.8 mph NNE35.1 kmh NNE 22.9 mph36.9 kmh 29.95 in1014.2 mb 0.00 in0.0 mm 0.00 in0.0 mm 0.00 in0.0 mm
03:12 AM 54.0°F12.2°C 43.0°F6.1°C 68% 21.9 mph NNE35.2 kmh NNE 23.0 mph37.0 kmh 29.95 in1014.2 mb 0.00 in0.0 mm 0.00 in0.0 mm 0.00 in0.0 mm
03:11 AM 54.0°F12.2°C 43.0°F6.1°C 67% 22.1 mph NE35.6 kmh NE 23.4 mph37.7 kmh 29.95 in1014.2 mb 0.00 in0.0 mm 0.00 in0.0 mm 0.00 in0.0 mm
03:10 AM 54.0°F12.2°C 43.0°F6.1°C 68% 22.2 mph NE35.7 kmh NE 23.4 mph37.7 kmh 29.95 in1014.2 mb 0.00 in0.0 mm 0.00 in0.0 mm 0.00 in0.0 mm
03:09 AM 54.0°F12.2°C 43.0°F6.1°C 67% 22.4 mph NE36.0 kmh NE 23.7 mph38.1 kmh 29.95 in1014.2 mb 0.00 in0.0 mm 0.00 in0.0 mm 0.00 in0.0 mm
03:08 AM 53.8°F12.1°C 43.0°F6.1°C 68% 21.9 mph NE35.2 kmh NE 23.2 mph37.3 kmh 29.95 in1014.2 mb 0.00 in0.0 mm 0.00 in0.0 mm 0.00 in0.0 mm
03:07 AM 53.8°F12.1°C 43.0°F6.1°C 68% 21.9 mph NE35.2 kmh NE 23.1 mph37.2 kmh 29.95 in1014.2 mb 0.00 in0.0 mm 0.00 in0.0 mm 0.00 in0.0 mm
03:06 AM 53.8°F12.1°C 43.0°F6.1°C 68% 21.7 mph NE34.9 kmh NE 22.7 mph36.5 kmh 29.95 in1014.2 mb 0.00 in0.0 mm 0.00 in0.0 mm 0.00 in0.0 mm
03:05 AM 53.8°F12.1°C 43.0°F6.1°C 68% 21.9 mph NE35.2 kmh NE 23.0 mph37.0 kmh 29.95 in1014.2 mb 0.00 in0.0 mm 0.00 in0.0 mm 0.00 in0.0 mm
03:04 AM 53.8°F12.1°C 44.0°F6.7°C 69% 21.8 mph NNE35.1 kmh NNE 22.8 mph36.7 kmh 29.95 in1014.2 mb 0.00 in0.0 mm 0.00 in0.0 mm 0.00 in0.0 mm
03:03 AM 53.8°F12.1°C 44.0°F6.7°C 69% 21.4 mph NNE34.4 kmh NNE 22.2 mph35.7 kmh 29.95 in1014.2 mb 0.00 in0.0 mm 0.00 in0.0 mm 0.00 in0.0 mm
03:02 AM 53.8°F12.1°C 44.0°F6.7°C 69% 21.0 mph NNE33.8 kmh NNE 21.6 mph34.8 kmh 29.95 in1014.2 mb 0.00 in0.0 mm 0.00 in0.0 mm 0.00 in0.0 mm
03:01 AM 53.8°F12.1°C 44.0°F6.7°C 69% 21.0 mph NE33.8 kmh NE 21.5 mph34.6 kmh 29.95 in1014.2 mb 0.00 in0.0 mm 0.00 in0.0 mm 0.00 in0.0 mm
02:59 AM 53.8°F12.1°C 44.0°F6.7°C 69% 21.7 mph ENE34.9 kmh ENE 22.6 mph36.4 kmh 29.95 in1014.2 mb 0.00 in0.0 mm 0.00 in0.0 mm 0.00 in0.0 mm
02:58 AM 53.8°F12.1°C 44.0°F6.7°C 69% 21.2 mph NNE34.1 kmh NNE 21.9 mph35.2 kmh 29.95 in1014.2 mb 0.00 in0.0 mm 0.00 in0.0 mm 0.00 in0.0 mm
02:57 AM 53.6°F12.0°C 44.0°F6.7°C 69% 21.1 mph NNE34.0 kmh NNE 21.8 mph35.1 kmh 29.95 in1014.2 mb 0.00 in0.0 mm 0.00 in0.0 mm 0.00 in0.0 mm
02:56 AM 53.8°F12.1°C 44.0°F6.7°C 69% 21.2 mph NNE34.1 kmh NNE 21.8 mph35.1 kmh 29.95 in1014.2 mb 0.00 in0.0 mm 0.00 in0.0 mm 0.00 in0.0 mm
02:55 AM 53.6°F12.0°C 44.0°F6.7°C 69% 21.4 mph NNE34.4 kmh NNE 22.2 mph35.7 kmh 29.95 in1014.2 mb 0.00 in0.0 mm 0.00 in0.0 mm 0.00 in0.0 mm
02:54 AM 53.8°F12.1°C 44.0°F6.7°C 70% 20.6 mph NNE33.2 kmh NNE 21.0 mph33.8 kmh 29.95 in1014.2 mb 0.00 in0.0 mm 0.00 in0.0 mm 0.00 in0.0 mm
02:53 AM 53.8°F12.1°C 44.0°F6.7°C 70% 20.6 mph SE33.2 kmh SE 21.0 mph33.8 kmh 29.95 in1014.2 mb 0.00 in0.0 mm 0.00 in0.0 mm 0.00 in0.0 mm
02:52 AM 53.8°F12.1°C 44.0°F6.7°C 69% 20.8 mph NE33.5 kmh NE 21.4 mph34.4 kmh 29.95 in1014.2 mb 0.00 in0.0 mm 0.00 in0.0 mm 0.00 in0.0 mm
02:51 AM 53.8°F12.1°C 44.0°F6.7°C 69% 21.5 mph NE34.6 kmh NE 22.4 mph36.0 kmh 29.95 in1014.2 mb 0.00 in0.0 mm 0.00 in0.0 mm 0.00 in0.0 mm
02:50 AM 53.8°F12.1°C 43.0°F6.1°C 68% 21.7 mph NE34.9 kmh NE 22.7 mph36.5 kmh 29.95 in1014.2 mb 0.00 in0.0 mm 0.00 in0.0 mm 0.00 in0.0 mm
02:49 AM 54.0°F12.2°C 44.0°F6.7°C 68% 21.6 mph NNE34.8 kmh NNE 22.6 mph36.4 kmh 29.95 in1014.2 mb 0.00 in0.0 mm 0.00 in0.0 mm 0.00 in0.0 mm
02:48 AM 53.8°F12.1°C 43.0°F6.1°C 68% 21.6 mph NE34.8 kmh NE 22.4 mph36.0 kmh 29.95 in1014.2 mb 0.00 in0.0 mm 0.00 in0.0 mm 0.00 in0.0 mm
02:47 AM 53.8°F12.1°C 43.0°F6.1°C 68% 21.7 mph NE34.9 kmh NE 22.6 mph36.4 kmh 29.95 in1014.2 mb 0.00 in0.0 mm 0.00 in0.0 mm 0.00 in0.0 mm
02:46 AM 53.8°F12.1°C 43.0°F6.1°C 68% 21.7 mph NE34.9 kmh NE 22.6 mph36.4 kmh 29.95 in1014.2 mb 0.00 in0.0 mm 0.00 in0.0 mm 0.00 in0.0 mm
02:45 AM 53.8°F12.1°C 43.0°F6.1°C 68% 21.1 mph NNE34.0 kmh NNE 21.8 mph35.1 kmh 29.95 in1014.2 mb 0.00 in0.0 mm 0.00 in0.0 mm 0.00 in0.0 mm
02:44 AM 54.0°F12.2°C 43.0°F6.1°C 68% 21.1 mph NE34.0 kmh NE 21.7 mph34.9 kmh 29.95 in1014.2 mb 0.00 in0.0 mm 0.00 in0.0 mm 0.00 in0.0 mm
02:43 AM 54.0°F12.2°C 43.0°F6.1°C 67% 21.1 mph NE34.0 kmh NE 21.8 mph35.1 kmh 29.95 in1014.2 mb 0.00 in0.0 mm 0.00 in0.0 mm 0.00 in0.0 mm
02:42 AM 54.0°F12.2°C 43.0°F6.1°C 68% 21.2 mph NNE34.1 kmh NNE 21.9 mph35.2 kmh 29.95 in1014.2 mb 0.00 in0.0 mm 0.00 in0.0 mm 0.00 in0.0 mm
02:41 AM 54.0°F12.2°C 43.0°F6.1°C 67% 21.6 mph NE34.8 kmh NE 22.5 mph36.2 kmh 29.95 in1014.2 mb 0.00 in0.0 mm 0.00 in0.0 mm 0.00 in0.0 mm
02:40 AM 53.8°F12.1°C 43.0°F6.1°C 67% 21.7 mph NNE34.9 kmh NNE 22.7 mph36.5 kmh 29.95 in1014.2 mb 0.00 in0.0 mm 0.00 in0.0 mm 0.00 in0.0 mm
02:39 AM 53.8°F12.1°C 43.0°F6.1°C 68% 21.8 mph NNE35.1 kmh NNE 23.0 mph37.0 kmh 29.95 in1014.2 mb 0.00 in0.0 mm 0.00 in0.0 mm 0.00 in0.0 mm
02:38 AM 53.8°F12.1°C 43.0°F6.1°C 68% 21.5 mph NE34.6 kmh NE 22.3 mph35.9 kmh 29.95 in1014.2 mb 0.00 in0.0 mm 0.00 in0.0 mm 0.00 in0.0 mm
02:37 AM 53.8°F12.1°C 44.0°F6.7°C 68% 21.6 mph NE34.8 kmh NE 22.4 mph36.0 kmh 29.95 in1014.2 mb 0.00 in0.0 mm 0.00 in0.0 mm 0.00 in0.0 mm
02:36 AM 53.8°F12.1°C 44.0°F6.7°C 68% 21.8 mph NNE35.1 kmh NNE 22.8 mph36.7 kmh 29.95 in1014.2 mb 0.00 in0.0 mm 0.00 in0.0 mm 0.00 in0.0 mm
02:35 AM 53.8°F12.1°C 44.0°F6.7°C 68% 21.5 mph NNE34.6 kmh NNE 22.4 mph36.0 kmh 29.95 in1014.2 mb 0.00 in0.0 mm 0.00 in0.0 mm 0.00 in0.0 mm
02:34 AM 53.8°F12.1°C 44.0°F6.7°C 69% 20.8 mph NNE33.5 kmh NNE 21.2 mph34.1 kmh 29.95 in1014.2 mb 0.00 in0.0 mm 0.00 in0.0 mm 0.00 in0.0 mm
02:33 AM 53.8°F12.1°C 44.0°F6.7°C 69% 21.7 mph NNE34.9 kmh NNE 22.7 mph36.5 kmh 29.95 in1014.2 mb 0.00 in0.0 mm 0.00 in0.0 mm 0.00 in0.0 mm
02:32 AM 53.8°F12.1°C 44.0°F6.7°C 68% 21.4 mph NE34.4 kmh NE 22.2 mph35.7 kmh 29.95 in1014.2 mb 0.00 in0.0 mm 0.00 in0.0 mm 0.00 in0.0 mm
02:31 AM 53.8°F12.1°C 44.0°F6.7°C 69% 20.9 mph NNE33.6 kmh NNE 21.5 mph34.6 kmh 29.95 in1014.2 mb 0.00 in0.0 mm 0.00 in0.0 mm 0.00 in0.0 mm
02:30 AM 53.8°F12.1°C 44.0°F6.7°C 69% 21.5 mph NE34.6 kmh NE 22.4 mph36.0 kmh 29.95 in1014.2 mb 0.00 in0.0 mm 0.00 in0.0 mm 0.00 in0.0 mm
02:29 AM 53.8°F12.1°C 44.0°F6.7°C 69% 21.4 mph NE34.4 kmh NE 22.2 mph35.7 kmh 29.95 in1014.2 mb 0.00 in0.0 mm 0.00 in0.0 mm 0.00 in0.0 mm
02:28 AM 53.8°F12.1°C 44.0°F6.7°C 69% 21.4 mph NE34.4 kmh NE 22.3 mph35.9 kmh 29.95 in1014.2 mb 0.00 in0.0 mm 0.00 in0.0 mm 0.00 in0.0 mm
02:27 AM 53.8°F12.1°C 44.0°F6.7°C 68% 21.3 mph NE34.3 kmh NE 22.0 mph35.4 kmh 29.95 in1014.2 mb 0.00 in0.0 mm 0.00 in0.0 mm 0.00 in0.0 mm
02:26 AM 53.8°F12.1°C 43.0°F6.1°C 68% 21.6 mph NNE34.8 kmh NNE 22.6 mph36.4 kmh 29.95 in1014.2 mb 0.00 in0.0 mm 0.00 in0.0 mm 0.00 in0.0 mm
02:25 AM 53.8°F12.1°C 43.0°F6.1°C 68% 22.1 mph NNE35.6 kmh NNE 23.3 mph37.5 kmh 29.95 in1014.2 mb 0.00 in0.0 mm 0.00 in0.0 mm 0.00 in0.0 mm
02:24 AM 54.0°F12.2°C 44.0°F6.7°C 68% 21.6 mph NE34.8 kmh NE 22.6 mph36.4 kmh 29.95 in1014.2 mb 0.00 in0.0 mm 0.00 in0.0 mm 0.00 in0.0 mm
02:23 AM 53.8°F12.1°C 44.0°F6.7°C 68% 21.1 mph NNE34.0 kmh NNE 21.7 mph34.9 kmh 29.95 in1014.2 mb 0.00 in0.0 mm 0.00 in0.0 mm 0.00 in0.0 mm
02:22 AM 53.8°F12.1°C 43.0°F6.1°C 68% 21.3 mph NNE34.3 kmh NNE 22.1 mph35.6 kmh 29.95 in1014.2 mb 0.00 in0.0 mm 0.00 in0.0 mm 0.00 in0.0 mm
02:21 AM 53.8°F12.1°C 43.0°F6.1°C 68% 21.4 mph NNE34.4 kmh NNE 22.2 mph35.7 kmh 29.95 in1014.2 mb 0.00 in0.0 mm 0.00 in0.0 mm 0.00 in0.0 mm
02:20 AM 53.8°F12.1°C 43.0°F6.1°C 68% 21.0 mph N33.8 kmh N 21.5 mph34.6 kmh 29.95 in1014.2 mb 0.00 in0.0 mm 0.00 in0.0 mm 0.00 in0.0 mm
02:19 AM 53.8°F12.1°C 44.0°F6.7°C 68% 21.0 mph NE33.8 kmh NE 21.5 mph34.6 kmh 29.95 in1014.2 mb 0.00 in0.0 mm 0.00 in0.0 mm 0.00 in0.0 mm
02:18 AM 53.8°F12.1°C 44.0°F6.7°C 68% 22.0 mph NE35.4 kmh NE 23.1 mph37.2 kmh 29.95 in1014.2 mb 0.00 in0.0 mm 0.00 in0.0 mm 0.00 in0.0 mm
02:17 AM 53.8°F12.1°C 44.0°F6.7°C 69% 21.4 mph NE34.4 kmh NE 22.2 mph35.7 kmh 29.94 in1013.9 mb 0.00 in0.0 mm 0.00 in0.0 mm 0.00 in0.0 mm
02:16 AM 53.8°F12.1°C 44.0°F6.7°C 69% 21.4 mph NE34.4 kmh NE 22.7 mph36.5 kmh 29.95 in1014.2 mb 0.00 in0.0 mm 0.00 in0.0 mm 0.00 in0.0 mm
02:15 AM 53.8°F12.1°C 43.0°F6.1°C 68% 22.0 mph NE35.4 kmh NE 23.0 mph37.0 kmh 29.94 in1013.9 mb 0.00 in0.0 mm 0.00 in0.0 mm 0.00 in0.0 mm
02:14 AM 54.0°F12.2°C 44.0°F6.7°C 68% 22.1 mph NE35.6 kmh NE 23.3 mph37.5 kmh 29.94 in1013.9 mb 0.00 in0.0 mm 0.00 in0.0 mm 0.00 in0.0 mm
02:13 AM 54.0°F12.2°C 43.0°F6.1°C 68% 21.9 mph NE35.2 kmh NE 23.0 mph37.0 kmh 29.94 in1013.9 mb 0.00 in0.0 mm 0.00 in0.0 mm 0.00 in0.0 mm
02:12 AM 54.1°F12.3°C 43.0°F6.1°C 67% 21.7 mph NE34.9 kmh NE 22.7 mph36.5 kmh 29.95 in1014.2 mb 0.00 in0.0 mm 0.00 in0.0 mm 0.00 in0.0 mm
02:11 AM 54.1°F12.3°C 43.0°F6.1°C 67% 21.5 mph NNE34.6 kmh NNE 22.4 mph36.0 kmh 29.94 in1013.9 mb 0.00 in0.0 mm 0.00 in0.0 mm 0.00 in0.0 mm
02:10 AM 54.1°F12.3°C 43.0°F6.1°C 67% 21.4 mph NNE34.4 kmh NNE 22.4 mph36.0 kmh 29.95 in1014.2 mb 0.00 in0.0 mm 0.00 in0.0 mm 0.00 in0.0 mm
02:09 AM 54.1°F12.3°C 43.0°F6.1°C 67% 21.7 mph NE34.9 kmh NE 22.7 mph36.5 kmh 29.95 in1014.2 mb 0.00 in0.0 mm 0.00 in0.0 mm 0.00 in0.0 mm
02:08 AM 54.1°F12.3°C 43.0°F6.1°C 67% 21.8 mph NE35.1 kmh NE 22.8 mph36.7 kmh 29.95 in1014.2 mb 0.00 in0.0 mm 0.00 in0.0 mm 0.00 in0.0 mm
02:07 AM 54.1°F12.3°C 43.0°F6.1°C 67% 21.9 mph NE35.2 kmh NE 22.8 mph36.7 kmh 29.94 in1013.9 mb 0.00 in0.0 mm 0.00 in0.0 mm 0.00 in0.0 mm
02:06 AM 54.1°F12.3°C 43.0°F6.1°C 67% 21.9 mph NE35.2 kmh NE 23.1 mph37.2 kmh 29.95 in1014.2 mb 0.00 in0.0 mm 0.00 in0.0 mm 0.00 in0.0 mm
02:05 AM 54.3°F12.4°C 43.0°F6.1°C 66% 21.8 mph NE35.1 kmh NE 22.9 mph36.9 kmh 29.95 in1014.2 mb 0.00 in0.0 mm 0.00 in0.0 mm 0.00 in0.0 mm
02:04 AM 54.3°F12.4°C 43.0°F6.1°C 66% 21.7 mph NE34.9 kmh NE 22.7 mph36.5 kmh 29.95 in1014.2 mb 0.00 in0.0 mm 0.00 in0.0 mm 0.00 in0.0 mm
02:03 AM 54.3°F12.4°C 43.0°F6.1°C 66% 21.4 mph NNE34.4 kmh NNE 22.3 mph35.9 kmh 29.95 in1014.2 mb 0.00 in0.0 mm 0.00 in0.0 mm 0.00 in0.0 mm
02:02 AM 54.3°F12.4°C 43.0°F6.1°C 66% 21.7 mph NE34.9 kmh NE 22.7 mph36.5 kmh 29.94 in1013.9 mb 0.00 in0.0 mm 0.00 in0.0 mm 0.00 in0.0 mm
02:01 AM 54.5°F12.5°C 43.0°F6.1°C 66% 21.7 mph NE34.9 kmh NE 22.7 mph36.5 kmh 29.94 in1013.9 mb 0.00 in0.0 mm 0.00 in0.0 mm 0.00 in0.0 mm
02:00 AM 54.5°F12.5°C 43.0°F6.1°C 66% 21.6 mph NNE34.8 kmh NNE 22.5 mph36.2 kmh 29.94 in1013.9 mb 0.00 in0.0 mm 0.00 in0.0 mm 0.00 in0.0 mm
01:59 AM 54.5°F12.5°C 43.0°F6.1°C 65% 21.7 mph NNE34.9 kmh NNE 22.7 mph36.5 kmh 29.94 in1013.9 mb 0.00 in0.0 mm 0.00 in0.0 mm 0.00 in0.0 mm
01:58 AM 54.5°F12.5°C 43.0°F6.1°C 65% 21.9 mph NNE35.2 kmh NNE 23.0 mph37.0 kmh 29.94 in1013.9 mb 0.00 in0.0 mm 0.00 in0.0 mm 0.00 in0.0 mm
01:57 AM 54.3°F12.4°C 43.0°F6.1°C 65% 21.8 mph NE35.1 kmh NE 22.9 mph36.9 kmh 29.94 in1013.9 mb 0.00 in0.0 mm 0.00 in0.0 mm 0.00 in0.0 mm
01:56 AM 54.3°F12.4°C 43.0°F6.1°C 66% 21.9 mph NE35.2 kmh NE 23.0 mph37.0 kmh 29.94 in1013.9 mb 0.00 in0.0 mm 0.00 in0.0 mm 0.00 in0.0 mm
01:55 AM 54.5°F12.5°C 43.0°F6.1°C 65% 22.2 mph NE35.7 kmh NE 23.4 mph37.7 kmh 29.94 in1013.9 mb 0.00 in0.0 mm 0.00 in0.0 mm 0.00 in0.0 mm
01:54 AM 54.3°F12.4°C 43.0°F6.1°C 66% 22.2 mph NE35.7 kmh NE 23.4 mph37.7 kmh 29.94 in1013.9 mb 0.00 in0.0 mm 0.00 in0.0 mm 0.00 in0.0 mm
01:53 AM 54.5°F12.5°C 43.0°F6.1°C 65% 22.4 mph NE36.0 kmh NE 23.9 mph38.5 kmh 29.94 in1013.9 mb 0.00 in0.0 mm 0.00 in0.0 mm 0.00 in0.0 mm
01:52 AM 54.3°F12.4°C 43.0°F6.1°C 66% 21.7 mph NE34.9 kmh NE 22.7 mph36.5 kmh 29.94 in1013.9 mb 0.00 in0.0 mm 0.00 in0.0 mm 0.00 in0.0 mm
01:51 AM 54.3°F12.4°C 43.0°F6.1°C 66% 22.1 mph NE35.6 kmh NE 23.3 mph37.5 kmh 29.94 in1013.9 mb 0.00 in0.0 mm 0.00 in0.0 mm 0.00 in0.0 mm
01:50 AM 54.3°F12.4°C 43.0°F6.1°C 66% 21.8 mph NE35.1 kmh NE 22.8 mph36.7 kmh 29.94 in1013.9 mb 0.00 in0.0 mm 0.00 in0.0 mm 0.00 in0.0 mm
01:49 AM 54.3°F12.4°C 43.0°F6.1°C 66% 21.5 mph NE34.6 kmh NE 22.4 mph36.0 kmh 29.94 in1013.9 mb 0.00 in0.0 mm 0.00 in0.0 mm 0.00 in0.0 mm
01:48 AM 54.1°F12.3°C 43.0°F6.1°C 66% 21.6 mph NE34.8 kmh NE 22.6 mph36.4 kmh 29.95 in1014.2 mb 0.00 in0.0 mm 0.00 in0.0 mm 0.00 in0.0 mm
01:47 AM 54.1°F12.3°C 43.0°F6.1°C 66% 21.9 mph NE35.2 kmh NE 23.1 mph37.2 kmh 29.95 in1014.2 mb 0.00 in0.0 mm 0.00 in0.0 mm 0.00 in0.0 mm
01:46 AM 54.1°F12.3°C 43.0°F6.1°C 66% 21.8 mph NNE35.1 kmh NNE 22.9 mph36.9 kmh 29.95 in1014.2 mb 0.00 in0.0 mm 0.00 in0.0 mm 0.00 in0.0 mm
01:45 AM 54.1°F12.3°C 43.0°F6.1°C 66% 22.2 mph NNE35.7 kmh NNE 23.5 mph37.8 kmh 29.95 in1014.2 mb 0.00 in0.0 mm 0.00 in0.0 mm 0.00 in0.0 mm
01:44 AM 54.1°F12.3°C 43.0°F6.1°C 67% 22.1 mph NE35.6 kmh NE 23.3 mph37.5 kmh 29.95 in1014.2 mb 0.00 in0.0 mm 0.00 in0.0 mm 0.00 in0.0 mm
01:43 AM 54.1°F12.3°C 43.0°F6.1°C 67% 21.7 mph NE34.9 kmh NE 22.6 mph36.4 kmh 29.95 in1014.2 mb 0.00 in0.0 mm 0.00 in0.0 mm 0.00 in0.0 mm
01:42 AM 54.1°F12.3°C 43.0°F6.1°C 67% 21.8 mph NE35.1 kmh NE 22.8 mph36.7 kmh 29.95 in1014.2 mb 0.00 in0.0 mm 0.00 in0.0 mm 0.00 in0.0 mm
01:41 AM 54.1°F12.3°C 44.0°F6.7°C 67% 21.8 mph NNE35.1 kmh NNE 22.7 mph36.5 kmh 29.95 in1014.2 mb 0.00 in0.0 mm 0.00 in0.0 mm 0.00 in0.0 mm
01:40 AM 54.1°F12.3°C 43.0°F6.1°C 67% 21.6 mph NE34.8 kmh NE 22.5 mph36.2 kmh 29.95 in1014.2 mb 0.00 in0.0 mm 0.00 in0.0 mm 0.00 in0.0 mm
01:39 AM 54.1°F12.3°C 43.0°F6.1°C 67% 21.6 mph NE34.8 kmh NE 22.5 mph36.2 kmh 29.95 in1014.2 mb 0.00 in0.0 mm 0.00 in0.0 mm 0.00 in0.0 mm
01:38 AM 54.0°F12.2°C 43.0°F6.1°C 67% 21.4 mph NNE34.4 kmh NNE 22.1 mph35.6 kmh 29.95 in1014.2 mb 0.00 in0.0 mm 0.00 in0.0 mm 0.00 in0.0 mm
01:37 AM 54.1°F12.3°C 43.0°F6.1°C 67% 21.6 mph NNE34.8 kmh NNE 22.6 mph36.4 kmh 29.95 in1014.2 mb 0.00 in0.0 mm 0.00 in0.0 mm 0.00 in0.0 mm
01:36 AM 54.1°F12.3°C 43.0°F6.1°C 67% 21.5 mph NE34.6 kmh NE 22.3 mph35.9 kmh 29.95 in1014.2 mb 0.00 in0.0 mm 0.00 in0.0 mm 0.00 in0.0 mm
01:35 AM 54.1°F12.3°C 43.0°F6.1°C 67% 21.4 mph NE34.4 kmh NE 22.2 mph35.7 kmh 29.95 in1014.2 mb 0.00 in0.0 mm 0.00 in0.0 mm 0.00 in0.0 mm
01:34 AM 54.1°F12.3°C 43.0°F6.1°C 67% 21.5 mph NE34.6 kmh NE 22.3 mph35.9 kmh 29.95 in1014.2 mb 0.00 in0.0 mm 0.00 in0.0 mm 0.00 in0.0 mm
01:32 AM 54.0°F12.2°C 43.0°F6.1°C 67% 21.7 mph NE34.9 kmh NE 22.5 mph36.2 kmh 29.95 in1014.2 mb 0.00 in0.0 mm 0.00 in0.0 mm 0.00 in0.0 mm
01:31 AM 54.1°F12.3°C 43.0°F6.1°C 67% 21.7 mph NE34.9 kmh NE 22.6 mph36.4 kmh 29.95 in1014.2 mb 0.00 in0.0 mm 0.00 in0.0 mm 0.00 in0.0 mm
01:30 AM 54.1°F12.3°C 43.0°F6.1°C 67% 21.5 mph NE34.6 kmh NE 22.4 mph36.0 kmh 29.95 in1014.2 mb 0.00 in0.0 mm 0.00 in0.0 mm 0.00 in0.0 mm
01:29 AM 54.1°F12.3°C 43.0°F6.1°C 67% 21.5 mph NE34.6 kmh NE 22.4 mph36.0 kmh 29.95 in1014.2 mb 0.00 in0.0 mm 0.00 in0.0 mm 0.00 in0.0 mm
01:28 AM 54.0°F12.2°C